Darstellungsparameter: Aktuell verwendete Einstellungen:
Skalierung der Graphiken ... ?
xyx+y,   Skalierungsfaktor:      Skalierung: Modus: x, Faktor: 1
Darstellungszeitraum ... ?
Vom - - bis: - -   Zeitraum: 13.07.2008 - 12.10.2008
Min/Max/Avg-Anzeige ... ?
Zeige MMA aktuell
Zeige MMA Monat
Zeige MMA alles
Zeige --A aktuell
Zeige --A Monat
Zeige --A alles
Keine MMA-Anzeige
MMA:
Average (ber die Originaldaten)
MMA-Basis: 17.04.2019 - 19.05.2019
Quicknavigation für Darstellung... ?
Tage:      1T, 2T, 3T, 5T -1T -2T -3T -5T +1T +2T +3T +5T
Wochen: 1W, 2W, 3W -1W -2W -3W +1W +2W +3W
Monate: 1M, 3M, 6M -1M -3M -6M +1M +3M +6M
Jahre:    1J, 3J, 5J, 10J -1J -3J -5J -10J +1J +3J +5J +10J
Nutze für die Darstellung ... ?
Originaldaten oder Mittelwerte auf ...
Stundenbasis Tagesbasis Wochenbasis
Monatsbasis Jahresbasis      Datenbasis: Original-Daten
Darstellen als:
Statistik (Auto) Statistik J:M      Darstellung:
Zur Graphik,    zurück zur Übersicht aller Sensoren.
 
Tabellarische Datenbersicht: ?
 
Sensor: Nr:Datum:Temp:Abs-Feuchte:Windchill:Wind:
Aussen-T/F 1 13-07-2008 00:09:03 15.2 C 9.61 g/m*3 15.2 C 0 km/h
2 13-07-2008 00:21:03 14.9 C 9.56 g/m*3 14.9 C 0 km/h
3 13-07-2008 00:33:03 14.8 C 9.63 g/m*3 14.8 C 0 km/h
4 13-07-2008 00:45:03 14.7 C 9.57 g/m*3 14.7 C 0 km/h
5 13-07-2008 00:57:03 14.4 C 9.52 g/m*3 14.4 C 0 km/h
6 13-07-2008 01:09:03 14.2 C 9.52 g/m*3 14.2 C 0 km/h
7 13-07-2008 01:21:03 14.2 C 9.65 g/m*3 14.2 C 0 km/h
8 13-07-2008 01:33:03 14.2 C 9.77 g/m*3 14.2 C 0 km/h
9 13-07-2008 01:45:03 14.2 C 9.65 g/m*3 14.2 C 0 km/h
10 13-07-2008 01:57:03 14.2 C 9.65 g/m*3 14.2 C 0 km/h
11 13-07-2008 02:09:03 14.1 C 9.71 g/m*3 14.1 C 0 km/h
12 13-07-2008 02:21:03 14 C 9.65 g/m*3 14 C 0 km/h
13 13-07-2008 02:33:03 14 C 9.77 g/m*3 14 C 0 km/h
14 13-07-2008 02:45:03 13.9 C 9.83 g/m*3 13.9 C 0 km/h
15 13-07-2008 02:57:03 13.8 C 9.77 g/m*3 13.8 C 0 km/h
16 13-07-2008 03:09:04 13.8 C 9.77 g/m*3 13.8 C 0 km/h
17 13-07-2008 03:21:04 14 C 9.89 g/m*3 14 C 0 km/h
18 13-07-2008 03:33:04 14.1 C 9.95 g/m*3 14.1 C 0 km/h
19 13-07-2008 03:45:04 14.1 C 9.95 g/m*3 14.1 C 0 km/h
20 13-07-2008 03:57:04 13.9 C 9.95 g/m*3 13.9 C 0 km/h
21 13-07-2008 04:09:04 13.8 C 9.89 g/m*3 13.8 C 0 km/h
22 13-07-2008 04:21:04 13.8 C 10.01 g/m*3 13.8 C 0 km/h
23 13-07-2008 04:33:04 13.9 C 10.07 g/m*3 13.9 C 0 km/h
24 13-07-2008 04:45:04 14 C 10.01 g/m*3 14 C 0 km/h
25 13-07-2008 04:57:04 13.9 C 9.95 g/m*3 13.9 C 0 km/h
Sensor: Nr:Datum:Temp:Abs-Feuchte:Windchill:Wind:
Aussen-T/F 26 13-07-2008 05:09:04 14 C 10.01 g/m*3 14 C 0 km/h
27 13-07-2008 05:21:04 13.8 C 10.01 g/m*3 13.8 C 0 km/h
28 13-07-2008 05:33:04 13.8 C 10.01 g/m*3 13.8 C 0 km/h
29 13-07-2008 05:45:04 13.8 C 10.01 g/m*3 13.8 C 0 km/h
30 13-07-2008 05:57:04 13.8 C 10.01 g/m*3 13.8 C 0 km/h
31 13-07-2008 06:09:04 13.8 C 10.01 g/m*3 13.8 C 0 km/h
32 13-07-2008 06:21:04 13.8 C 9.89 g/m*3 13.8 C 0 km/h
33 13-07-2008 06:33:04 13.9 C 9.95 g/m*3 13.9 C 0 km/h
34 13-07-2008 06:45:04 13.9 C 9.95 g/m*3 13.9 C 0 km/h
35 13-07-2008 06:57:04 13.9 C 9.83 g/m*3 13.9 C 0 km/h
36 13-07-2008 07:09:05 14 C 9.53 g/m*3 14 C 0 km/h
37 13-07-2008 07:21:05 14.1 C 9.47 g/m*3 14.1 C 0 km/h
38 13-07-2008 07:33:05 14.2 C 9.52 g/m*3 14.2 C 0 km/h
39 13-07-2008 07:45:05 14.4 C 9.39 g/m*3 14.4 C 0 km/h
40 13-07-2008 07:57:05 14.6 C 9.51 g/m*3 14.6 C 0 km/h
41 13-07-2008 08:09:05 14.7 C 9.44 g/m*3 14.7 C 0 km/h
42 13-07-2008 08:21:05 15 C 9.1 g/m*3 15 C 0 km/h
43 13-07-2008 08:33:03 15.1 C 8.64 g/m*3 15.1 C 0 km/h
44 13-07-2008 08:45:02 15.2 C 8.57 g/m*3 15.2 C 0 km/h
45 13-07-2008 08:57:02 15.6 C 8.64 g/m*3 15.6 C 0 km/h
46 13-07-2008 09:09:02 16.1 C 8.64 g/m*3 16.1 C 0 km/h
47 13-07-2008 09:21:02 16.2 C 8.55 g/m*3 16.2 C 0 km/h
48 13-07-2008 09:33:02 15.7 C 8.03 g/m*3 15.7 C 0 km/h
49 13-07-2008 09:45:01 15.7 C 8.3 g/m*3 15.7 C 0 km/h
50 13-07-2008 09:57:01 16.2 C 8.55 g/m*3 16.2 C 0 km/h
Sensor: Nr:Datum:Temp:Abs-Feuchte:Windchill:Wind:
Aussen-T/F 51 13-07-2008 10:09:02 17.8 C 8.2 g/m*3 17.8 C 0 km/h
52 13-07-2008 10:21:01 18.1 C 7.88 g/m*3 18.1 C 0 km/h
53 13-07-2008 10:33:02 17.8 C 7.74 g/m*3 17.8 C 0 km/h
54 13-07-2008 10:45:02 17.9 C 7.79 g/m*3 17.9 C 0 km/h
55 13-07-2008 10:57:02 18.6 C 7.48 g/m*3 18.6 C 0 km/h
56 13-07-2008 11:09:02 18.8 C 6.6 g/m*3 18.8 C 0 km/h
57 13-07-2008 11:21:01 19 C 6.52 g/m*3 19 C 0 km/h
58 13-07-2008 11:33:02 19.8 C 6.83 g/m*3 19.8 C 0 km/h
59 13-07-2008 11:45:02 20.2 C 6.29 g/m*3 20.2 C 0 km/h
60 13-07-2008 11:57:02 19.9 C 6.01 g/m*3 19.9 C 0 km/h
61 13-07-2008 12:09:02 21.3 C 5.78 g/m*3 21.3 C 0 km/h
62 13-07-2008 12:21:02 21.2 C 5.93 g/m*3 21.2 C 0 km/h
63 13-07-2008 12:33:03 22.1 C 5.86 g/m*3 22.1 C 0 km/h
64 13-07-2008 12:45:02 22 C 5.43 g/m*3 22 C 0 km/h
65 13-07-2008 12:57:02 21.4 C 5.81 g/m*3 21.4 C 0 km/h
66 13-07-2008 13:09:01 21 C 5.5 g/m*3 21 C 0 km/h
67 13-07-2008 13:21:02 21.1 C 5.53 g/m*3 21.1 C 0 km/h
68 13-07-2008 13:33:01 21.2 C 6.12 g/m*3 21.2 C 0 km/h
69 13-07-2008 13:45:02 22.5 C 6.19 g/m*3 22.5 C 0 km/h
70 13-07-2008 13:57:02 23.6 C 5.96 g/m*3 23.6 C 0 km/h
71 13-07-2008 14:09:02 23.6 C 5.53 g/m*3 23.6 C 0 km/h
72 13-07-2008 14:21:01 21.4 C 5.62 g/m*3 21.4 C 0 km/h
73 13-07-2008 14:33:02 20.4 C 5.66 g/m*3 20.4 C 0 km/h
74 13-07-2008 14:45:02 19.4 C 5.84 g/m*3 19.4 C 0 km/h
75 13-07-2008 14:57:02 19.9 C 6.19 g/m*3 19.9 C 0 km/h
Sensor: Nr:Datum:Temp:Abs-Feuchte:Windchill:Wind:
Aussen-T/F 76 13-07-2008 15:09:02 21.5 C 5.66 g/m*3 21.5 C 0 km/h
77 13-07-2008 15:21:02 23.7 C 5.78 g/m*3 23.7 C 0 km/h
78 13-07-2008 15:33:02 23.3 C 4.81 g/m*3 23.3 C 0 km/h
79 13-07-2008 15:45:02 22.5 C 4.99 g/m*3 22.5 C 0 km/h
80 13-07-2008 15:57:02 21.6 C 5.12 g/m*3 21.6 C 0 km/h
81 13-07-2008 16:09:03 21.6 C 5.12 g/m*3 21.6 C 0 km/h
82 13-07-2008 16:21:02 23.5 C 5.08 g/m*3 23.5 C 0 km/h
83 13-07-2008 16:33:02 23.5 C 5.08 g/m*3 23.5 C 0 km/h
84 13-07-2008 16:45:02 22.2 C 5.1 g/m*3 22.2 C 0 km/h
85 13-07-2008 16:57:02 21.5 C 5.47 g/m*3 21.5 C 0 km/h
86 13-07-2008 17:09:01 21.3 C 5.78 g/m*3 21.3 C 0 km/h
87 13-07-2008 17:21:02 21.2 C 5.93 g/m*3 21.2 C 0 km/h
88 13-07-2008 17:33:02 20.9 C 5.83 g/m*3 20.9 C 0 km/h
89 13-07-2008 17:45:02 20.5 C 6.23 g/m*3 20.5 C 0 km/h
90 13-07-2008 17:57:03 20.4 C 6.01 g/m*3 20.4 C 0 km/h
91 13-07-2008 18:09:02 21 C 5.86 g/m*3 21 C 0 km/h
92 13-07-2008 18:21:02 21.6 C 5.69 g/m*3 21.6 C 0 km/h
93 13-07-2008 18:33:02 21.6 C 5.5 g/m*3 21.6 C 0 km/h
94 13-07-2008 18:45:02 23 C 5.34 g/m*3 23 C 0 km/h
95 13-07-2008 18:57:02 23.2 C 5.2 g/m*3 23.2 C 0 km/h
96 13-07-2008 19:09:02 22 C 4.85 g/m*3 22 C 0 km/h
97 13-07-2008 19:21:02 22.2 C 5.1 g/m*3 22.2 C 0 km/h
98 13-07-2008 19:33:01 22.3 C 4.94 g/m*3 22.3 C 0 km/h
99 13-07-2008 19:45:02 22.7 C 5.46 g/m*3 22.7 C 0 km/h
100 13-07-2008 19:57:02 22.7 C 5.25 g/m*3 22.7 C 0 km/h
Sensor: Nr:Datum:Temp:Abs-Feuchte:Windchill:Wind:
Aussen-T/F 101 13-07-2008 20:09:01 22.7 C 5.05 g/m*3 22.7 C 0 km/h
102 13-07-2008 20:21:02 22.6 C 5.22 g/m*3 22.6 C 0 km/h
103 13-07-2008 20:33:01 22.1 C 5.27 g/m*3 22.1 C 0 km/h
104 13-07-2008 20:45:02 21.6 C 6.07 g/m*3 21.6 C 0 km/h
105 13-07-2008 20:57:02 21 C 5.68 g/m*3 21 C 0 km/h
106 13-07-2008 21:09:01 20.1 C 5.91 g/m*3 20.1 C 0 km/h
107 13-07-2008 21:21:01 19.3 C 5.81 g/m*3 19.3 C 0 km/h
108 13-07-2008 21:33:01 18.8 C 5.96 g/m*3 18.8 C 0 km/h
109 13-07-2008 21:45:01 18 C 6.3 g/m*3 18 C 0 km/h
110 13-07-2008 21:57:01 17.3 C 6.19 g/m*3 17.3 C 0 km/h
111 13-07-2008 22:09:02 16.9 C 6.33 g/m*3 16.9 C 0 km/h
112 13-07-2008 22:21:01 16.6 C 6.5 g/m*3 16.6 C 0 km/h
113 13-07-2008 22:33:02 16.4 C 6.42 g/m*3 16.4 C 0 km/h
114 13-07-2008 22:45:02 16.1 C 6.58 g/m*3 16.1 C 0 km/h
115 13-07-2008 22:57:02 15.8 C 6.73 g/m*3 15.8 C 0 km/h
116 13-07-2008 23:10:02 15.4 C 6.83 g/m*3 15.4 C 0 km/h
117 13-07-2008 23:22:02 15.1 C 6.97 g/m*3 15.1 C 0 km/h
118 13-07-2008 23:34:02 14.9 C 7.01 g/m*3 14.9 C 0 km/h
119 13-07-2008 23:46:02 14.7 C 7.05 g/m*3 14.7 C 0 km/h
120 13-07-2008 23:58:02 14.2 C 7.2 g/m*3 14.2 C 0 km/h
121 14-07-2008 00:10:02 14 C 7.24 g/m*3 14 C 0 km/h
122 14-07-2008 00:22:02 13.8 C 7.39 g/m*3 13.8 C 0 km/h
123 14-07-2008 00:34:02 13.6 C 7.53 g/m*3 13.6 C 0 km/h
124 14-07-2008 00:46:02 13.4 C 7.44 g/m*3 13.4 C 0 km/h
125 14-07-2008 00:58:02 13.2 C 7.58 g/m*3 13.2 C 0 km/h
Sensor: Nr:Datum:Temp:Abs-Feuchte:Windchill:Wind:
Aussen-T/F 126 14-07-2008 01:10:02 13.1 C 7.65 g/m*3 13.1 C 0 km/h
127 14-07-2008 01:22:03 13 C 7.6 g/m*3 13 C 0 km/h
128 14-07-2008 01:34:03 13 C 7.71 g/m*3 13 C 0 km/h
129 14-07-2008 01:46:03 12.8 C 7.73 g/m*3 12.8 C 0 km/h
130 14-07-2008 01:58:03 12.7 C 7.68 g/m*3 12.7 C 0 km/h
131 14-07-2008 02:10:03 12.4 C 7.76 g/m*3 12.4 C 0 km/h
132 14-07-2008 02:22:03 12.3 C 7.82 g/m*3 12.3 C 0 km/h
133 14-07-2008 02:34:03 12.1 C 7.83 g/m*3 12.1 C 0 km/h
134 14-07-2008 02:46:03 12 C 7.78 g/m*3 12 C 0 km/h
135 14-07-2008 02:58:03 11.8 C 7.89 g/m*3 11.8 C 0 km/h
136 14-07-2008 03:10:03 11.5 C 7.75 g/m*3 11.5 C 0 km/h
137 14-07-2008 03:22:03 11.4 C 7.8 g/m*3 11.4 C 0 km/h
138 14-07-2008 03:34:03 11.3 C 7.85 g/m*3 11.3 C 0 km/h
139 14-07-2008 03:46:03 11.2 C 7.8 g/m*3 11.2 C 0 km/h
140 14-07-2008 03:58:03 11 C 7.81 g/m*3 11 C 0 km/h
141 14-07-2008 04:10:03 10.9 C 7.86 g/m*3 10.9 C 0 km/h
142 14-07-2008 04:22:03 10.8 C 7.81 g/m*3 10.8 C 0 km/h
143 14-07-2008 04:34:03 10.7 C 7.86 g/m*3 10.7 C 0 km/h
144 14-07-2008 04:46:03 10.4 C 7.81 g/m*3 10.4 C 0 km/h
145 14-07-2008 04:58:03 10.4 C 7.81 g/m*3 10.4 C 0 km/h
146 14-07-2008 05:10:03 10.3 C 7.76 g/m*3 10.3 C 0 km/h
147 14-07-2008 05:22:04 10.2 C 7.8 g/m*3 10.2 C 0 km/h
148 14-07-2008 05:34:04 10.1 C 7.75 g/m*3 10.1 C 0 km/h
149 14-07-2008 05:46:04 10 C 7.8 g/m*3 10 C 0 km/h
150 14-07-2008 05:58:04 10 C 7.8 g/m*3 10 C 0 km/h
Sensor: Nr:Datum:Temp:Abs-Feuchte:Windchill:Wind:
Aussen-T/F 151 14-07-2008 06:10:04 9.9 C 7.84 g/m*3 9.9 C 0 km/h
152 14-07-2008 06:22:04 9.9 C 7.94 g/m*3 9.9 C 0 km/h
153 14-07-2008 06:34:04 10 C 7.89 g/m*3 10 C 0 km/h
154 14-07-2008 06:46:04 9.9 C 7.94 g/m*3 9.9 C 0 km/h
155 14-07-2008 06:58:04 9.9 C 7.84 g/m*3 9.9 C 0 km/h
156 14-07-2008 07:10:03 10.1 C 7.85 g/m*3 10.1 C 0 km/h
157 14-07-2008 07:22:02 10.2 C 7.9 g/m*3 10.2 C 0 km/h
158 14-07-2008 07:34:03 10.5 C 7.95 g/m*3 10.5 C 0 km/h
159 14-07-2008 07:46:02 10.8 C 8.11 g/m*3 10.8 C 0 km/h
160 14-07-2008 07:58:02 11.1 C 8.06 g/m*3 11.1 C 0 km/h
161 14-07-2008 08:10:02 11.3 C 8.06 g/m*3 11.3 C 0 km/h
162 14-07-2008 08:22:02 11.7 C 8.16 g/m*3 11.7 C 0 km/h
163 14-07-2008 08:34:02 12.5 C 8.69 g/m*3 12.5 C 0 km/h
164 14-07-2008 08:46:02 12.9 C 8.68 g/m*3 12.9 C 0 km/h
165 14-07-2008 08:58:02 13.5 C 8.66 g/m*3 13.5 C 0 km/h
166 14-07-2008 09:10:02 14.4 C 9.02 g/m*3 14.4 C 0 km/h
167 14-07-2008 09:22:01 15.2 C 8.96 g/m*3 15.2 C 0 km/h
168 14-07-2008 09:34:02 16.2 C 8.83 g/m*3 16.2 C 0 km/h
169 14-07-2008 09:46:02 17.3 C 8.84 g/m*3 17.3 C 0 km/h
170 14-07-2008 09:58:02 16.8 C 8.15 g/m*3 16.8 C 0 km/h
171 14-07-2008 10:10:02 16.6 C 8.19 g/m*3 16.6 C 0 km/h
172 14-07-2008 10:22:02 17.4 C 8 g/m*3 17.4 C 0 km/h
173 14-07-2008 10:34:02 16.8 C 7.15 g/m*3 16.8 C 0 km/h
174 14-07-2008 10:46:01 18.1 C 7.88 g/m*3 18.1 C 0 km/h
175 14-07-2008 10:58:01 19.2 C 7.09 g/m*3 19.2 C 0 km/h
Sensor: Nr:Datum:Temp:Abs-Feuchte:Windchill:Wind:
Aussen-T/F 176 14-07-2008 11:10:02 18.5 C 6.8 g/m*3 18.5 C 0 km/h
177 14-07-2008 11:22:01 19.2 C 6.76 g/m*3 19.2 C 0 km/h
178 14-07-2008 11:34:01 19.5 C 6.88 g/m*3 19.5 C 0 km/h
179 14-07-2008 11:46:02 20.7 C 7.02 g/m*3 20.7 C 0 km/h
180 14-07-2008 11:58:02 20.2 C 6.99 g/m*3 20.2 C 0 km/h
181 14-07-2008 12:10:02 21.6 C 6.83 g/m*3 21.6 C 0 km/h
182 14-07-2008 12:22:02 22 C 6.79 g/m*3 22 C 0 km/h
183 14-07-2008 12:34:03 22.1 C 6.44 g/m*3 22.1 C 0 km/h
184 14-07-2008 12:46:02 23.2 C 6.65 g/m*3 23.2 C 0 km/h
185 14-07-2008 12:58:03 23.2 C 6.24 g/m*3 23.2 C 0 km/h
186 14-07-2008 13:10:01 24.2 C 6.16 g/m*3 24.2 C 0 km/h
187 14-07-2008 13:22:02 25.8 C 6.02 g/m*3 25.8 C 0 km/h
188 14-07-2008 13:34:01 26 C 5.36 g/m*3 26 C 0 km/h
189 14-07-2008 13:46:02 25.5 C 5.21 g/m*3 25.5 C 0 km/h
190 14-07-2008 13:58:02 24.5 C 5.15 g/m*3 24.5 C 0 km/h
191 14-07-2008 14:10:01 25.5 C 5.45 g/m*3 25.5 C 0 km/h
192 14-07-2008 14:22:01 24.3 C 5.09 g/m*3 24.3 C 0 km/h
193 14-07-2008 14:34:01 24.1 C 5.47 g/m*3 24.1 C 0 km/h
194 14-07-2008 14:46:02 24.5 C 5.6 g/m*3 24.5 C 0 km/h
195 14-07-2008 14:58:02 25.8 C 5.54 g/m*3 25.8 C 0 km/h
196 14-07-2008 15:10:02 25.7 C 5.03 g/m*3 25.7 C 0 km/h
197 14-07-2008 15:22:02 25.6 C 5.48 g/m*3 25.6 C 0 km/h
198 14-07-2008 15:34:02 25.7 C 4.79 g/m*3 25.7 C 0 km/h
199 14-07-2008 15:46:01 26.3 C 5.2 g/m*3 26.3 C 0 km/h
200 14-07-2008 15:58:01 26.8 C 5.09 g/m*3 26.8 C 0 km/h
Sensor: Nr:Datum:Temp:Abs-Feuchte:Windchill:Wind:
Aussen-T/F 201 14-07-2008 16:10:02 27 C 5.15 g/m*3 27 C 0 km/h
202 14-07-2008 16:22:02 27.6 C 5.32 g/m*3 27.6 C 0 km/h
203 14-07-2008 16:34:02 27.4 C 5.26 g/m*3 27.4 C 0 km/h
204 14-07-2008 16:46:02 27.5 C 5.29 g/m*3 27.5 C 0 km/h
205 14-07-2008 16:58:02 26.9 C 5.12 g/m*3 26.9 C 0 km/h
206 14-07-2008 17:10:02 27.3 C 5.23 g/m*3 27.3 C 0 km/h
207 14-07-2008 17:22:02 27.3 C 5.23 g/m*3 27.3 C 0 km/h
208 14-07-2008 17:34:02 27.2 C 5.2 g/m*3 27.2 C 0 km/h
209 14-07-2008 17:46:02 27 C 5.15 g/m*3 27 C 0 km/h
210 14-07-2008 17:58:02 27.9 C 5.41 g/m*3 27.9 C 0 km/h
211 14-07-2008 18:10:02 27.1 C 5.18 g/m*3 27.1 C 0 km/h
212 14-07-2008 18:22:01 25.1 C 5.56 g/m*3 25.1 C 0 km/h
213 14-07-2008 18:34:02 24.2 C 5.5 g/m*3 24.2 C 0 km/h
214 14-07-2008 18:46:02 25.3 C 5.38 g/m*3 25.3 C 0 km/h
215 14-07-2008 18:58:02 24.8 C 5.01 g/m*3 24.8 C 0 km/h
216 14-07-2008 19:10:02 24.6 C 5.18 g/m*3 24.6 C 0 km/h
217 14-07-2008 19:22:02 23.8 C 5.38 g/m*3 23.8 C 0 km/h
218 14-07-2008 19:34:03 23.7 C 5.56 g/m*3 23.7 C 0 km/h
219 14-07-2008 19:46:02 24.5 C 5.6 g/m*3 24.5 C 0 km/h
220 14-07-2008 19:58:02 25.3 C 5.62 g/m*3 25.3 C 0 km/h
221 14-07-2008 20:10:02 25.4 C 4.94 g/m*3 25.4 C 0 km/h
222 14-07-2008 20:22:02 24.6 C 4.95 g/m*3 24.6 C 0 km/h
223 14-07-2008 20:34:02 23.9 C 5.41 g/m*3 23.9 C 0 km/h
224 14-07-2008 20:46:02 23.4 C 5.68 g/m*3 23.4 C 0 km/h
225 14-07-2008 20:58:02 23.1 C 5.79 g/m*3 23.1 C 0 km/h
Sensor: Nr:Datum:Temp:Abs-Feuchte:Windchill:Wind:
Aussen-T/F 226 14-07-2008 21:10:02 22.6 C 6.23 g/m*3 22.6 C 0 km/h
227 14-07-2008 21:22:02 21.7 C 6.49 g/m*3 21.7 C 0 km/h
228 14-07-2008 21:34:03 20.8 C 6.7 g/m*3 20.8 C 0 km/h
229 14-07-2008 21:46:02 20.2 C 6.64 g/m*3 20.2 C 0 km/h
230 14-07-2008 21:58:02 19.9 C 6.87 g/m*3 19.9 C 0 km/h
231 14-07-2008 22:10:02 19.7 C 6.96 g/m*3 19.7 C 0 km/h
232 14-07-2008 22:22:02 19.3 C 6.97 g/m*3 19.3 C 0 km/h
233 14-07-2008 22:34:01 19 C 7.01 g/m*3 19 C 0 km/h
234 14-07-2008 22:46:02 18.7 C 7.2 g/m*3 18.7 C 0 km/h
235 14-07-2008 22:58:02 18.4 C 7.08 g/m*3 18.4 C 0 km/h
236 14-07-2008 23:10:01 18 C 7.22 g/m*3 18 C 0 km/h
237 14-07-2008 23:22:02 17.7 C 7.39 g/m*3 17.7 C 0 km/h
238 14-07-2008 23:35:02 17.6 C 7.35 g/m*3 17.6 C 0 km/h
239 14-07-2008 23:47:02 17.2 C 7.18 g/m*3 17.2 C 0 km/h
240 14-07-2008 23:59:02 16.8 C 7.43 g/m*3 16.8 C 0 km/h
241 15-07-2008 00:11:03 16.4 C 7.54 g/m*3 16.4 C 0 km/h
242 15-07-2008 00:23:03 16.3 C 7.49 g/m*3 16.3 C 0 km/h
243 15-07-2008 00:35:03 16.2 C 7.45 g/m*3 16.2 C 0 km/h
244 15-07-2008 00:47:03 15.8 C 7.67 g/m*3 15.8 C 0 km/h
245 15-07-2008 00:59:03 15.6 C 7.85 g/m*3 15.6 C 0 km/h
246 15-07-2008 01:11:03 15.3 C 7.84 g/m*3 15.3 C 0 km/h
247 15-07-2008 01:23:03 15.2 C 7.66 g/m*3 15.2 C 0 km/h
248 15-07-2008 01:35:03 15 C 7.69 g/m*3 15 C 0 km/h
249 15-07-2008 01:47:03 14.8 C 7.85 g/m*3 14.8 C 0 km/h
250 15-07-2008 01:59:03 14.7 C 7.93 g/m*3 14.7 C 0 km/h
Sensor: Nr:Datum:Temp:Abs-Feuchte:Windchill:Wind:
Aussen-T/F 251 15-07-2008 02:11:03 14.3 C 7.74 g/m*3 14.3 C 0 km/h
252 15-07-2008 02:23:03 14.3 C 7.74 g/m*3 14.3 C 0 km/h
253 15-07-2008 02:35:03 14.1 C 7.77 g/m*3 14.1 C 0 km/h
254 15-07-2008 02:47:03 14 C 7.84 g/m*3 14 C 0 km/h
255 15-07-2008 02:59:03 13.8 C 7.98 g/m*3 13.8 C 0 km/h
256 15-07-2008 03:11:03 13.7 C 7.93 g/m*3 13.7 C 0 km/h
257 15-07-2008 03:23:03 13.6 C 7.89 g/m*3 13.6 C 0 km/h
258 15-07-2008 03:35:03 13.5 C 7.84 g/m*3 13.5 C 0 km/h
259 15-07-2008 03:47:03 13.4 C 7.79 g/m*3 13.4 C 0 km/h
260 15-07-2008 03:59:04 13.4 C 7.9 g/m*3 13.4 C 0 km/h
261 15-07-2008 04:11:04 13.2 C 7.81 g/m*3 13.2 C 0 km/h
262 15-07-2008 04:23:04 13.1 C 7.87 g/m*3 13.1 C 0 km/h
263 15-07-2008 04:35:04 12.9 C 7.89 g/m*3 12.9 C 0 km/h
264 15-07-2008 04:47:04 12.8 C 7.95 g/m*3 12.8 C 0 km/h
265 15-07-2008 04:59:04 12.7 C 7.9 g/m*3 12.7 C 0 km/h
266 15-07-2008 05:11:04 12.7 C 7.9 g/m*3 12.7 C 0 km/h
267 15-07-2008 05:23:04 12.5 C 7.81 g/m*3 12.5 C 0 km/h
268 15-07-2008 05:35:04 12.5 C 7.92 g/m*3 12.5 C 0 km/h
269 15-07-2008 05:47:04 12.4 C 7.98 g/m*3 12.4 C 0 km/h
270 15-07-2008 05:59:04 12.3 C 7.93 g/m*3 12.3 C 0 km/h
271 15-07-2008 06:11:04 12.1 C 8.04 g/m*3 12.1 C 0 km/h
272 15-07-2008 06:23:04 12.1 C 8.04 g/m*3 12.1 C 0 km/h
273 15-07-2008 06:35:04 12.4 C 8.19 g/m*3 12.4 C 0 km/h
274 15-07-2008 06:47:04 12.6 C 8.19 g/m*3 12.6 C 0 km/h
275 15-07-2008 06:59:04 12.8 C 8.29 g/m*3 12.8 C 0 km/h
Sensor: Nr:Datum:Temp:Abs-Feuchte:Windchill:Wind:
Aussen-T/F 276 15-07-2008 07:11:02 13 C 8.28 g/m*3 13 C 0 km/h
277 15-07-2008 07:23:02 13.2 C 8.15 g/m*3 13.2 C 0 km/h
278 15-07-2008 07:35:03 13.4 C 8.37 g/m*3 13.4 C 0 km/h
279 15-07-2008 07:47:02 13.5 C 8.3 g/m*3 13.5 C 0 km/h
280 15-07-2008 07:59:02 13.8 C 8.46 g/m*3 13.8 C 0 km/h
281 15-07-2008 08:11:02 14.1 C 8.5 g/m*3 14.1 C 0 km/h
282 15-07-2008 08:23:02 14.5 C 8.58 g/m*3 14.5 C 0 km/h
283 15-07-2008 08:35:02 15 C 8.59 g/m*3 15 C 0 km/h
284 15-07-2008 08:47:01 15.7 C 8.56 g/m*3 15.7 C 0 km/h
285 15-07-2008 08:59:01 16.4 C 8.37 g/m*3 16.4 C 0 km/h
286 15-07-2008 09:11:02 17 C 8.25 g/m*3 17 C 0 km/h
287 15-07-2008 09:23:01 17.8 C 8.2 g/m*3 17.8 C 0 km/h
288 15-07-2008 09:35:02 18.4 C 8.02 g/m*3 18.4 C 0 km/h
289 15-07-2008 09:47:02 19 C 7.99 g/m*3 19 C 0 km/h
290 15-07-2008 09:59:03 19.5 C 8.06 g/m*3 19.5 C 0 km/h
291 15-07-2008 10:11:02 20.3 C 7.91 g/m*3 20.3 C 0 km/h
292 15-07-2008 10:23:02 21.1 C 7.74 g/m*3 21.1 C 0 km/h
293 15-07-2008 10:35:01 21.5 C 7.73 g/m*3 21.5 C 0 km/h
294 15-07-2008 10:47:02 22 C 7.38 g/m*3 22 C 0 km/h
295 15-07-2008 10:59:02 22.6 C 7.23 g/m*3 22.6 C 0 km/h
296 15-07-2008 11:11:01 22.8 C 7.32 g/m*3 22.8 C 0 km/h
297 15-07-2008 11:23:02 23.2 C 7.28 g/m*3 23.2 C 0 km/h
298 15-07-2008 11:35:01 23.2 C 7.07 g/m*3 23.2 C 0 km/h
299 15-07-2008 11:47:02 24 C 6.96 g/m*3 24 C 0 km/h
300 15-07-2008 11:59:02 24.1 C 7 g/m*3 24.1 C 0 km/h
Sensor: Nr:Datum:Temp:Abs-Feuchte:Windchill:Wind:
Aussen-T/F 301 15-07-2008 12:11:01 24.9 C 6.87 g/m*3 24.9 C 0 km/h
302 15-07-2008 12:23:02 25.4 C 6.36 g/m*3 25.4 C 0 km/h
303 15-07-2008 12:35:01 25.8 C 6.26 g/m*3 25.8 C 0 km/h
304 15-07-2008 12:47:02 25.7 C 6.22 g/m*3 25.7 C 0 km/h
305 15-07-2008 12:59:02 26.2 C 6.15 g/m*3 26.2 C 0 km/h
306 15-07-2008 13:11:02 26.7 C 5.82 g/m*3 26.7 C 0 km/h
307 15-07-2008 13:23:02 27.9 C 5.68 g/m*3 27.9 C 0 km/h
308 15-07-2008 13:35:02 28.3 C 5.53 g/m*3 28.3 C 0 km/h
309 15-07-2008 13:47:01 27.8 C 5.65 g/m*3 27.8 C 0 km/h
310 15-07-2008 13:59:01 27.4 C 5.53 g/m*3 27.4 C 0 km/h
311 15-07-2008 14:11:01 27.3 C 5.49 g/m*3 27.3 C 0 km/h
312 15-07-2008 14:19:01 27.4 C 5.53 g/m*3 27.4 C 0 km/h
313 15-07-2008 14:49:01 28.2 C 6.05 g/m*3 28.2 C 0 km/h
314 15-07-2008 15:19:01 28.8 C 5.97 g/m*3 28.8 C 0 km/h
315 15-07-2008 15:49:01 29 C 6.32 g/m*3 29 C 0 km/h
316 15-07-2008 16:19:02 30 C 6.37 g/m*3 30 C 0 km/h
317 15-07-2008 16:49:01 30 C 6.06 g/m*3 30 C 0 km/h
318 15-07-2008 17:19:02 30.6 C 6.26 g/m*3 30.6 C 0 km/h
319 15-07-2008 17:49:03 31 C 6.4 g/m*3 31 C 0 km/h
320 15-07-2008 18:19:02 30.7 C 6.3 g/m*3 30.7 C 0 km/h
321 15-07-2008 18:49:01 30.6 C 6.26 g/m*3 30.6 C 0 km/h
322 15-07-2008 19:19:01 30.4 C 6.2 g/m*3 30.4 C 0 km/h
323 15-07-2008 19:49:01 29.3 C 6.42 g/m*3 29.3 C 0 km/h
324 15-07-2008 20:19:01 28.2 C 6.87 g/m*3 28.2 C 0 km/h
325 15-07-2008 20:49:01 26.6 C 7.55 g/m*3 26.6 C 0 km/h
Sensor: Nr:Datum:Temp:Abs-Feuchte:Windchill:Wind:
Aussen-T/F 326 15-07-2008 21:19:02 25.8 C 7.7 g/m*3 25.8 C 0 km/h
327 15-07-2008 21:49:01 24.4 C 9.79 g/m*3 24.4 C 0 km/h
328 15-07-2008 22:19:02 23.4 C 10.3 g/m*3 23.4 C 0 km/h
329 15-07-2008 22:49:01 22.7 C 10.3 g/m*3 22.7 C 0 km/h
330 15-07-2008 23:19:02 21.9 C 10.42 g/m*3 21.9 C 0 km/h
331 15-07-2008 23:49:02 21.4 C 10.31 g/m*3 21.4 C 0 km/h
332 16-07-2008 00:19:02 21.5 C 10.37 g/m*3 21.5 C 0 km/h
333 16-07-2008 00:49:01 21.5 C 10.37 g/m*3 21.5 C 0 km/h
334 16-07-2008 01:19:02 21.4 C 10.5 g/m*3 21.4 C 0 km/h
335 16-07-2008 01:49:01 21.5 C 10.56 g/m*3 21.5 C 0 km/h
336 16-07-2008 02:19:02 21 C 10.62 g/m*3 21 C 0 km/h
337 16-07-2008 02:49:02 20.8 C 10.68 g/m*3 20.8 C 0 km/h
338 16-07-2008 03:19:01 20.2 C 10.84 g/m*3 20.2 C 0 km/h
339 16-07-2008 03:49:01 20 C 10.71 g/m*3 20 C 0 km/h
340 16-07-2008 04:19:01 20.2 C 10.32 g/m*3 20.2 C 0 km/h
341 16-07-2008 04:49:01 20 C 10.02 g/m*3 20 C 0 km/h
342 16-07-2008 05:19:01 19.6 C 10.3 g/m*3 19.6 C 0 km/h
343 16-07-2008 05:49:01 19.6 C 10.3 g/m*3 19.6 C 0 km/h
344 16-07-2008 06:35:05 19.5 C 10.41 g/m*3 19.5 C 0 km/h
345 16-07-2008 07:05:05 19.3 C 10.45 g/m*3 19.3 C 0 km/h
346 16-07-2008 07:35:05 19.6 C 10.64 g/m*3 19.6 C 0 km/h
347 16-07-2008 08:05:05 19.8 C 10.76 g/m*3 19.8 C 0 km/h
348 16-07-2008 08:35:06 20.7 C 10.62 g/m*3 20.7 C 0 km/h
349 16-07-2008 09:05:06 21 C 10.26 g/m*3 21 C 0 km/h
350 16-07-2008 09:35:06 21.7 C 9.92 g/m*3 21.7 C 0 km/h
Sensor: Nr:Datum:Temp:Abs-Feuchte:Windchill:Wind:
Aussen-T/F 351 16-07-2008 10:05:06 22.5 C 8.99 g/m*3 22.5 C 0 km/h
352 16-07-2008 10:35:06 22.7 C 9.09 g/m*3 22.7 C 0 km/h
353 16-07-2008 11:05:06 24 C 8.7 g/m*3 24 C 0 km/h
354 16-07-2008 11:35:06 24.1 C 8.1 g/m*3 24.1 C 0 km/h
355 16-07-2008 12:05:06 24.7 C 8.15 g/m*3 24.7 C 0 km/h
356 16-07-2008 12:35:06 25.7 C 7.42 g/m*3 25.7 C 0 km/h
357 16-07-2008 13:05:06 26.4 C 7.22 g/m*3 26.4 C 0 km/h
358 16-07-2008 13:35:06 26.6 C 7.05 g/m*3 26.6 C 0 km/h
359 16-07-2008 14:05:06 25.5 C 7.34 g/m*3 25.5 C 0 km/h
360 16-07-2008 14:35:06 24.5 C 7.83 g/m*3 24.5 C 0 km/h
361 16-07-2008 15:05:06 22.8 C 9.14 g/m*3 22.8 C 0 km/h
362 16-07-2008 15:35:06 19.2 C 11.05 g/m*3 19.2 C 0 km/h
363 16-07-2008 16:05:06 18.1 C 12.98 g/m*3 18.1 C 0 km/h
364 16-07-2008 16:35:06 17 C 12.15 g/m*3 17 C 0 km/h
365 16-07-2008 17:05:06 17.3 C 12.67 g/m*3 17.3 C 0 km/h
366 16-07-2008 17:35:06 17.5 C 12.67 g/m*3 17.5 C 0 km/h
367 16-07-2008 18:05:07 17.6 C 12.9 g/m*3 17.6 C 0 km/h
368 16-07-2008 18:35:07 18.4 C 13.05 g/m*3 18.4 C 0 km/h
369 16-07-2008 19:05:07 18.5 C 12.34 g/m*3 18.5 C 0 km/h
370 16-07-2008 19:35:07 19.9 C 12.03 g/m*3 19.9 C 0 km/h
371 16-07-2008 20:05:07 19.1 C 11.64 g/m*3 19.1 C 0 km/h
372 16-07-2008 20:35:07 17.8 C 11.84 g/m*3 17.8 C 0 km/h
373 16-07-2008 21:05:07 17.2 C 11.72 g/m*3 17.2 C 0 km/h
374 16-07-2008 21:35:07 16.9 C 11.65 g/m*3 16.9 C 0 km/h
375 16-07-2008 22:05:07 16.4 C 11.17 g/m*3 16.4 C 0 km/h
Sensor: Nr:Datum:Temp:Abs-Feuchte:Windchill:Wind:
Aussen-T/F 376 16-07-2008 22:35:07 16 C 10.9 g/m*3 16 C 0 km/h
377 16-07-2008 23:05:07 16.2 C 11.17 g/m*3 16.2 C 0 km/h
378 16-07-2008 23:35:07 16.5 C 11.37 g/m*3 16.5 C 0 km/h
379 17-07-2008 00:05:07 16.5 C 11.51 g/m*3 16.5 C 0 km/h
380 17-07-2008 00:35:07 16.5 C 11.23 g/m*3 16.5 C 0 km/h
381 17-07-2008 01:05:07 16 C 10.22 g/m*3 16 C 0 km/h
382 17-07-2008 01:35:07 15.5 C 9.91 g/m*3 15.5 C 0 km/h
383 17-07-2008 02:05:07 15.1 C 9.42 g/m*3 15.1 C 0 km/h
384 17-07-2008 02:35:07 14.7 C 9.32 g/m*3 14.7 C 0 km/h
385 17-07-2008 03:05:07 14.7 C 9.07 g/m*3 14.7 C 0 km/h
386 17-07-2008 03:35:08 14.7 C 8.69 g/m*3 14.7 C 0 km/h
387 17-07-2008 04:05:08 14.5 C 8.83 g/m*3 14.5 C 0 km/h
388 17-07-2008 04:35:08 14.2 C 8.67 g/m*3 14.2 C 0 km/h
389 17-07-2008 05:05:08 14 C 8.44 g/m*3 14 C 0 km/h
390 17-07-2008 05:35:08 13.8 C 8.7 g/m*3 13.8 C 0 km/h
391 17-07-2008 06:05:08 13.4 C 8.95 g/m*3 13.4 C 0 km/h
392 17-07-2008 06:35:08 13.5 C 9.12 g/m*3 13.5 C 0 km/h
393 17-07-2008 07:05:08 13.9 C 9.23 g/m*3 13.9 C 0 km/h
394 17-07-2008 07:35:08 14.4 C 9.02 g/m*3 14.4 C 0 km/h
395 17-07-2008 08:05:08 14.9 C 9.43 g/m*3 14.9 C 0 km/h
396 17-07-2008 08:35:08 15.4 C 9.33 g/m*3 15.4 C 0 km/h
397 17-07-2008 09:05:08 16 C 9.13 g/m*3 16 C 0 km/h
398 17-07-2008 09:35:08 17 C 8.54 g/m*3 17 C 0 km/h
399 17-07-2008 10:05:08 17.9 C 8.4 g/m*3 17.9 C 0 km/h
400 17-07-2008 10:35:08 18.3 C 7.35 g/m*3 18.3 C 0 km/h
Sensor: Nr:Datum:Temp:Abs-Feuchte:Windchill:Wind:
Aussen-T/F 401 17-07-2008 11:05:08 19.2 C 7.09 g/m*3 19.2 C 0 km/h
402 17-07-2008 11:35:08 19.1 C 7.05 g/m*3 19.1 C 0 km/h
403 17-07-2008 12:05:08 19.8 C 6.83 g/m*3 19.8 C 0 km/h
404 17-07-2008 12:35:08 20.8 C 6.88 g/m*3 20.8 C 0 km/h
405 17-07-2008 13:05:08 21.9 C 6.56 g/m*3 21.9 C 0 km/h
406 17-07-2008 13:35:08 23 C 6.17 g/m*3 23 C 0 km/h
407 17-07-2008 14:05:09 22.4 C 6.16 g/m*3 22.4 C 0 km/h
408 17-07-2008 14:35:09 22.5 C 6.39 g/m*3 22.5 C 0 km/h
409 17-07-2008 15:05:09 21.8 C 6.91 g/m*3 21.8 C 0 km/h
410 17-07-2008 15:35:09 20.2 C 7.17 g/m*3 20.2 C 0 km/h
411 17-07-2008 16:05:09 19.5 C 7.55 g/m*3 19.5 C 0 km/h
412 17-07-2008 16:35:09 19.6 C 7.6 g/m*3 19.6 C 0 km/h
413 17-07-2008 17:05:09 19.7 C 8.15 g/m*3 19.7 C 0 km/h
414 17-07-2008 17:35:09 19.9 C 8.42 g/m*3 19.9 C 0 km/h
415 17-07-2008 18:05:09 20.3 C 8.44 g/m*3 20.3 C 0 km/h
416 17-07-2008 18:35:09 20.3 C 8.27 g/m*3 20.3 C 0 km/h
417 17-07-2008 19:05:09 19.8 C 8.37 g/m*3 19.8 C 0 km/h
418 17-07-2008 19:35:09 18.9 C 8.42 g/m*3 18.9 C 0 km/h
419 17-07-2008 20:05:09 17.3 C 8.84 g/m*3 17.3 C 0 km/h
420 17-07-2008 20:35:09 16.2 C 9.65 g/m*3 16.2 C 0 km/h
421 17-07-2008 21:05:09 15.6 C 9.84 g/m*3 15.6 C 0 km/h
422 17-07-2008 21:35:09 15.6 C 9.84 g/m*3 15.6 C 0 km/h
423 17-07-2008 22:05:09 14.5 C 10.2 g/m*3 14.5 C 0 km/h
424 17-07-2008 22:35:09 14.4 C 10.51 g/m*3 14.4 C 0 km/h
425 17-07-2008 23:05:09 14.8 C 10.64 g/m*3 14.8 C 0 km/h
Sensor: Nr:Datum:Temp:Abs-Feuchte:Windchill:Wind:
Aussen-T/F 426 17-07-2008 23:35:09 15 C 10.51 g/m*3 15 C 0 km/h
427 18-07-2008 00:05:10 14.9 C 10.32 g/m*3 14.9 C 0 km/h
428 18-07-2008 00:35:10 14.8 C 10.26 g/m*3 14.8 C 0 km/h
429 18-07-2008 01:05:10 14.5 C 10.45 g/m*3 14.5 C 0 km/h
430 18-07-2008 01:35:10 14.1 C 10.32 g/m*3 14.1 C 0 km/h
431 18-07-2008 02:05:10 13.8 C 10.37 g/m*3 13.8 C 0 km/h
432 18-07-2008 02:35:10 14 C 10.37 g/m*3 14 C 0 km/h
433 18-07-2008 03:05:10 14 C 10.49 g/m*3 14 C 0 km/h
434 18-07-2008 03:35:10 13.7 C 10.54 g/m*3 13.7 C 0 km/h
435 18-07-2008 04:05:10 13.6 C 10.59 g/m*3 13.6 C 0 km/h
436 18-07-2008 04:35:10 13.5 C 10.53 g/m*3 13.5 C 0 km/h
437 18-07-2008 05:05:10 13.9 C 10.19 g/m*3 13.9 C 0 km/h
438 18-07-2008 05:35:10 13.8 C 10.13 g/m*3 13.8 C 0 km/h
439 18-07-2008 06:05:10 13.8 C 10.25 g/m*3 13.8 C 0 km/h
440 18-07-2008 06:35:10 13.9 C 9.95 g/m*3 13.9 C 0 km/h
441 18-07-2008 07:05:10 14.1 C 9.71 g/m*3 14.1 C 0 km/h
442 18-07-2008 07:35:10 14.5 C 9.33 g/m*3 14.5 C 0 km/h
443 18-07-2008 08:05:10 14.7 C 9.32 g/m*3 14.7 C 0 km/h
444 18-07-2008 08:35:10 14.8 C 9.25 g/m*3 14.8 C 0 km/h
445 18-07-2008 09:05:10 15.5 C 9.12 g/m*3 15.5 C 0 km/h
446 18-07-2008 09:35:10 16 C 9.26 g/m*3 16 C 0 km/h
447 18-07-2008 10:05:10 15.6 C 9.44 g/m*3 15.6 C 0 km/h
448 18-07-2008 10:35:11 16.7 C 9.24 g/m*3 16.7 C 0 km/h
449 18-07-2008 11:05:11 17.8 C 8.95 g/m*3 17.8 C 0 km/h
450 18-07-2008 11:35:11 16.5 C 8.99 g/m*3 16.5 C 0 km/h
Sensor: Nr:Datum:Temp:Abs-Feuchte:Windchill:Wind:
Aussen-T/F 451 18-07-2008 12:05:11 16.8 C 9.29 g/m*3 16.8 C 0 km/h
452 18-07-2008 12:35:11 16.7 C 9.38 g/m*3 16.7 C 0 km/h
453 18-07-2008 13:05:11 17.8 C 9.11 g/m*3 17.8 C 0 km/h
454 18-07-2008 13:35:11 20.2 C 8.57 g/m*3 20.2 C 0 km/h
455 18-07-2008 14:05:11 19.7 C 8.66 g/m*3 19.7 C 0 km/h
456 18-07-2008 14:35:11 20.2 C 7.87 g/m*3 20.2 C 0 km/h
457 18-07-2008 15:05:11 21.3 C 8.02 g/m*3 21.3 C 0 km/h
458 18-07-2008 15:35:11 20.4 C 8.14 g/m*3 20.4 C 0 km/h
459 18-07-2008 16:05:11 20.7 C 7.92 g/m*3 20.7 C 0 km/h
460 18-07-2008 16:35:11 20.3 C 7.56 g/m*3 20.3 C 0 km/h
461 18-07-2008 17:05:11 19.2 C 8.08 g/m*3 19.2 C 0 km/h
462 18-07-2008 17:35:11 17.5 C 10.73 g/m*3 17.5 C 0 km/h
463 18-07-2008 18:05:11 18 C 10.44 g/m*3 18 C 0 km/h
464 18-07-2008 18:35:11 17.9 C 10.54 g/m*3 17.9 C 0 km/h
465 18-07-2008 19:05:11 18.5 C 10.44 g/m*3 18.5 C 0 km/h
466 18-07-2008 19:35:11 18.9 C 10.53 g/m*3 18.9 C 0 km/h
467 18-07-2008 20:05:11 18.2 C 10.26 g/m*3 18.2 C 0 km/h
468 18-07-2008 20:35:12 17.7 C 10.11 g/m*3 17.7 C 0 km/h
469 18-07-2008 21:05:12 17.5 C 9.69 g/m*3 17.5 C 0 km/h
470 18-07-2008 21:35:12 17.4 C 9.48 g/m*3 17.4 C 0 km/h
471 18-07-2008 22:05:12 17.1 C 9.17 g/m*3 17.1 C 0 km/h
472 18-07-2008 22:35:12 17.2 C 9.23 g/m*3 17.2 C 0 km/h
473 18-07-2008 23:05:12 17.1 C 9.32 g/m*3 17.1 C 0 km/h
474 18-07-2008 23:35:12 17.1 C 9.17 g/m*3 17.1 C 0 km/h
475 19-07-2008 00:05:12 16.9 C 9.49 g/m*3 16.9 C 0 km/h
Sensor: Nr:Datum:Temp:Abs-Feuchte:Windchill:Wind:
Aussen-T/F 476 19-07-2008 00:35:12 16.7 C 9.52 g/m*3 16.7 C 0 km/h
477 19-07-2008 01:05:12 16.4 C 9.91 g/m*3 16.4 C 0 km/h
478 19-07-2008 01:35:12 16.8 C 9.72 g/m*3 16.8 C 0 km/h
479 19-07-2008 02:05:12 16.7 C 9.38 g/m*3 16.7 C 0 km/h
480 19-07-2008 02:35:12 16.6 C 9.32 g/m*3 16.6 C 0 km/h
481 19-07-2008 03:05:12 16.9 C 9.06 g/m*3 16.9 C 0 km/h
482 19-07-2008 03:35:12 17 C 8.83 g/m*3 17 C 0 km/h
483 19-07-2008 04:05:12 17.5 C 8.5 g/m*3 17.5 C 0 km/h
484 19-07-2008 04:35:12 17.1 C 9.03 g/m*3 17.1 C 0 km/h
485 19-07-2008 05:05:12 16.2 C 9.52 g/m*3 16.2 C 0 km/h
486 19-07-2008 05:35:12 17 C 9.26 g/m*3 17 C 0 km/h
487 19-07-2008 06:05:12 16.8 C 9.44 g/m*3 16.8 C 0 km/h
488 19-07-2008 06:35:12 16.6 C 9.61 g/m*3 16.6 C 0 km/h
489 19-07-2008 07:05:13 17.2 C 9.52 g/m*3 17.2 C 0 km/h
490 19-07-2008 07:35:13 17.5 C 9.69 g/m*3 17.5 C 0 km/h
491 19-07-2008 08:05:13 17.8 C 9.71 g/m*3 17.8 C 0 km/h
492 19-07-2008 08:35:13 18.5 C 9.97 g/m*3 18.5 C 0 km/h
493 19-07-2008 09:05:13 19.3 C 9.45 g/m*3 19.3 C 0 km/h
494 19-07-2008 09:35:13 19.4 C 9.34 g/m*3 19.4 C 0 km/h
495 19-07-2008 10:05:13 21 C 9.34 g/m*3 21 C 0 km/h
496 19-07-2008 10:35:13 21.5 C 9.43 g/m*3 21.5 C 0 km/h
497 19-07-2008 11:05:13 21.8 C 9.4 g/m*3 21.8 C 0 km/h
498 19-07-2008 11:35:13 22.4 C 9.33 g/m*3 22.4 C 0 km/h
499 19-07-2008 12:05:13 23.3 C 9.41 g/m*3 23.3 C 0 km/h
500 19-07-2008 12:35:13 24.3 C 8.63 g/m*3 24.3 C 0 km/h
Sensor: Nr:Datum:Temp:Abs-Feuchte:Windchill:Wind:
Aussen-T/F 501 19-07-2008 13:05:13 24.9 C 8.47 g/m*3 24.9 C 0 km/h
502 19-07-2008 13:35:13 24.8 C 8.88 g/m*3 24.8 C 0 km/h
503 19-07-2008 14:05:13 26.1 C 7.83 g/m*3 26.1 C 0 km/h
504 19-07-2008 14:35:13 26.3 C 7.67 g/m*3 26.3 C 0 km/h
505 19-07-2008 15:05:13 25.2 C 7.92 g/m*3 25.2 C 0 km/h
506 19-07-2008 15:35:13 20.4 C 11.5 g/m*3 20.4 C 0 km/h
507 19-07-2008 16:05:13 23 C 13.77 g/m*3 23 C 0 km/h
508 19-07-2008 16:35:13 24.4 C 10.46 g/m*3 24.4 C 0 km/h
509 19-07-2008 17:05:14 23.6 C 10.21 g/m*3 23.6 C 0 km/h
510 19-07-2008 17:35:14 24.5 C 9.4 g/m*3 24.5 C 0 km/h
511 19-07-2008 18:05:14 25.4 C 8.71 g/m*3 25.4 C 0 km/h
512 19-07-2008 18:35:14 25.6 C 7.14 g/m*3 25.6 C 0 km/h
513 19-07-2008 19:05:14 17.2 C 5.42 g/m*3 17.2 C 0 km/h
514 19-07-2008 19:35:14 17 C 11.43 g/m*3 17 C 0 km/h
515 19-07-2008 20:05:14 17.4 C 11.26 g/m*3 17.4 C 0 km/h
516 19-07-2008 20:35:14 17.7 C 12.07 g/m*3 17.7 C 0 km/h
517 19-07-2008 21:05:14 17.7 C 12.07 g/m*3 17.7 C 0 km/h
518 19-07-2008 21:35:14 17.5 C 11.93 g/m*3 17.5 C 0 km/h
519 19-07-2008 22:05:14 16.6 C 11.58 g/m*3 16.6 C 0 km/h
520 19-07-2008 22:35:14 16.1 C 10.97 g/m*3 16.1 C 0 km/h
521 19-07-2008 23:05:14 15.6 C 10.37 g/m*3 15.6 C 0 km/h
522 19-07-2008 23:35:14 15.4 C 10.25 g/m*3 15.4 C 0 km/h
523 20-07-2008 00:05:14 15 C 10.13 g/m*3 15 C 0 km/h
524 20-07-2008 00:35:14 14.8 C 10.01 g/m*3 14.8 C 0 km/h
525 20-07-2008 01:05:14 14.9 C 9.3 g/m*3 14.9 C 0 km/h
Sensor: Nr:Datum:Temp:Abs-Feuchte:Windchill:Wind:
Aussen-T/F 526 20-07-2008 01:35:14 14.4 C 9.15 g/m*3 14.4 C 0 km/h
527 20-07-2008 02:05:14 14.8 C 8.99 g/m*3 14.8 C 0 km/h
528 20-07-2008 02:35:14 14.4 C 8.9 g/m*3 14.4 C 0 km/h
529 20-07-2008 03:05:15 14.2 C 8.91 g/m*3 14.2 C 0 km/h
530 20-07-2008 03:35:15 14.1 C 8.86 g/m*3 14.1 C 0 km/h
531 20-07-2008 04:05:15 14 C 8.56 g/m*3 14 C 0 km/h
532 20-07-2008 04:35:15 13.7 C 8.64 g/m*3 13.7 C 0 km/h
533 20-07-2008 05:05:15 13.3 C 8.78 g/m*3 13.3 C 0 km/h
534 20-07-2008 05:35:15 12.7 C 8.91 g/m*3 12.7 C 0 km/h
535 20-07-2008 06:05:15 12.4 C 8.96 g/m*3 12.4 C 0 km/h
536 20-07-2008 06:35:15 12.6 C 9.07 g/m*3 12.6 C 0 km/h
537 20-07-2008 07:05:15 12.9 C 9.24 g/m*3 12.9 C 0 km/h
538 20-07-2008 07:35:15 13.3 C 9.13 g/m*3 13.3 C 0 km/h
539 20-07-2008 08:05:15 13.7 C 8.88 g/m*3 13.7 C 0 km/h
540 20-07-2008 08:35:15 14.1 C 8.62 g/m*3 14.1 C 0 km/h
541 20-07-2008 09:05:15 14.7 C 8.69 g/m*3 14.7 C 0 km/h
542 20-07-2008 09:35:15 15.8 C 8.62 g/m*3 15.8 C 0 km/h
543 20-07-2008 10:05:15 16.5 C 8.43 g/m*3 16.5 C 0 km/h
544 20-07-2008 10:35:15 17.1 C 8.59 g/m*3 17.1 C 0 km/h
545 20-07-2008 11:05:15 18 C 8.29 g/m*3 18 C 0 km/h
546 20-07-2008 11:35:15 18.8 C 8.7 g/m*3 18.8 C 0 km/h
547 20-07-2008 12:05:15 20 C 8.12 g/m*3 20 C 0 km/h
548 20-07-2008 12:35:15 19.5 C 8.06 g/m*3 19.5 C 0 km/h
549 20-07-2008 13:05:15 19.5 C 7.89 g/m*3 19.5 C 0 km/h
550 20-07-2008 13:35:16 18.8 C 8.05 g/m*3 18.8 C 0 km/h
Sensor: Nr:Datum:Temp:Abs-Feuchte:Windchill:Wind:
Aussen-T/F 551 20-07-2008 14:05:16 19.7 C 7.81 g/m*3 19.7 C 0 km/h
552 20-07-2008 14:35:16 21.2 C 7.41 g/m*3 21.2 C 0 km/h
553 20-07-2008 15:05:16 21.8 C 6.72 g/m*3 21.8 C 0 km/h
554 20-07-2008 15:35:16 22.6 C 6.63 g/m*3 22.6 C 0 km/h
555 20-07-2008 16:05:16 14.5 C 9.7 g/m*3 14.5 C 0 km/h
556 20-07-2008 16:35:16 14.8 C 10.51 g/m*3 14.8 C 0 km/h
557 20-07-2008 17:05:16 15.9 C 10.02 g/m*3 15.9 C 0 km/h
558 20-07-2008 17:35:16 15.4 C 9.72 g/m*3 15.4 C 0 km/h
559 20-07-2008 18:05:16 14.3 C 9.95 g/m*3 14.3 C 0 km/h
560 20-07-2008 18:35:16 16.5 C 9.83 g/m*3 16.5 C 0 km/h
561 20-07-2008 19:05:16 16.8 C 9.29 g/m*3 16.8 C 0 km/h
562 20-07-2008 19:35:16 16.4 C 9.21 g/m*3 16.4 C 0 km/h
563 20-07-2008 20:05:16 16.4 C 9.91 g/m*3 16.4 C 0 km/h
564 20-07-2008 20:35:16 13.3 C 9.01 g/m*3 13.3 C 0 km/h
565 20-07-2008 21:05:16 13.8 C 9.89 g/m*3 13.8 C 0 km/h
566 20-07-2008 21:35:16 13 C 9.3 g/m*3 13 C 0 km/h
567 20-07-2008 22:05:16 12.9 C 9.58 g/m*3 12.9 C 0 km/h
568 20-07-2008 22:35:16 12.4 C 9.29 g/m*3 12.4 C 0 km/h
569 20-07-2008 23:05:16 11.9 C 9.11 g/m*3 11.9 C 0 km/h
570 20-07-2008 23:35:16 11.7 C 8.99 g/m*3 11.7 C 0 km/h
571 21-07-2008 00:05:17 11.1 C 8.76 g/m*3 11.1 C 0 km/h
572 21-07-2008 00:35:17 11.5 C 9.09 g/m*3 11.5 C 0 km/h
573 21-07-2008 01:05:17 11 C 8.71 g/m*3 11 C 0 km/h
574 21-07-2008 01:35:17 10.7 C 8.55 g/m*3 10.7 C 0 km/h
575 21-07-2008 02:05:17 10.5 C 8.53 g/m*3 10.5 C 0 km/h
Sensor: Nr:Datum:Temp:Abs-Feuchte:Windchill:Wind:
Aussen-T/F 576 21-07-2008 02:35:17 10.3 C 8.33 g/m*3 10.3 C 0 km/h
577 21-07-2008 03:05:17 10.1 C 8.04 g/m*3 10.1 C 0 km/h
578 21-07-2008 03:35:17 10.1 C 7.56 g/m*3 10.1 C 0 km/h
579 21-07-2008 04:05:17 10 C 7.61 g/m*3 10 C 0 km/h
580 21-07-2008 04:35:17 10.4 C 7.61 g/m*3 10.4 C 0 km/h
581 21-07-2008 05:05:17 10.4 C 7.71 g/m*3 10.4 C 0 km/h
582 21-07-2008 05:35:17 10.3 C 7.85 g/m*3 10.3 C 0 km/h
583 21-07-2008 06:05:17 10.6 C 7.71 g/m*3 10.6 C 0 km/h
584 21-07-2008 06:35:17 10.9 C 7.66 g/m*3 10.9 C 0 km/h
585 21-07-2008 07:05:17 11.3 C 7.75 g/m*3 11.3 C 0 km/h
586 21-07-2008 07:35:17 11.8 C 7.89 g/m*3 11.8 C 0 km/h
587 21-07-2008 08:05:17 12.6 C 7.97 g/m*3 12.6 C 0 km/h
588 21-07-2008 08:35:17 13 C 7.71 g/m*3 13 C 0 km/h
589 21-07-2008 09:05:17 13.1 C 7.65 g/m*3 13.1 C 0 km/h
590 21-07-2008 09:35:18 15.1 C 7.48 g/m*3 15.1 C 0 km/h
591 21-07-2008 10:05:18 15.8 C 7.4 g/m*3 15.8 C 0 km/h
592 21-07-2008 10:35:18 17 C 6.66 g/m*3 17 C 0 km/h
593 21-07-2008 11:05:18 17.1 C 6.84 g/m*3 17.1 C 0 km/h
594 21-07-2008 11:35:18 17 C 6.66 g/m*3 17 C 0 km/h
595 21-07-2008 12:05:18 14.1 C 8.25 g/m*3 14.1 C 0 km/h
596 21-07-2008 12:35:18 15.8 C 8.48 g/m*3 15.8 C 0 km/h
597 21-07-2008 13:05:18 17 C 8.83 g/m*3 17 C 0 km/h
598 21-07-2008 13:35:18 15.7 C 8.96 g/m*3 15.7 C 0 km/h
599 21-07-2008 14:05:18 14.5 C 8.71 g/m*3 14.5 C 0 km/h
600 21-07-2008 14:35:18 14 C 9.17 g/m*3 14 C 0 km/h
Sensor: Nr:Datum:Temp:Abs-Feuchte:Windchill:Wind:
Aussen-T/F 601 21-07-2008 15:05:18 13.4 C 8.83 g/m*3 13.4 C 0 km/h
602 21-07-2008 15:35:18 14.6 C 8.88 g/m*3 14.6 C 0 km/h
603 21-07-2008 16:05:18 13.9 C 8.99 g/m*3 13.9 C 0 km/h
604 21-07-2008 16:35:18 12.4 C 8.63 g/m*3 12.4 C 0 km/h
605 21-07-2008 17:05:18 11.7 C 8.99 g/m*3 11.7 C 0 km/h
606 21-07-2008 17:35:18 11.9 C 9.11 g/m*3 11.9 C 0 km/h
607 21-07-2008 18:05:18 12.6 C 8.85 g/m*3 12.6 C 0 km/h
608 21-07-2008 18:35:18 12.4 C 8.74 g/m*3 12.4 C 0 km/h
609 21-07-2008 19:05:19 12.6 C 8.74 g/m*3 12.6 C 0 km/h
610 21-07-2008 19:35:19 12.7 C 8.35 g/m*3 12.7 C 0 km/h
611 21-07-2008 20:05:19 12.1 C 8.47 g/m*3 12.1 C 0 km/h
612 21-07-2008 20:35:19 12 C 8.63 g/m*3 12 C 0 km/h
613 21-07-2008 21:05:19 11.8 C 8.74 g/m*3 11.8 C 0 km/h
614 21-07-2008 21:35:19 11.9 C 8.9 g/m*3 11.9 C 0 km/h
615 21-07-2008 22:05:19 11.7 C 8.99 g/m*3 11.7 C 0 km/h
616 21-07-2008 22:35:19 11.5 C 9.09 g/m*3 11.5 C 0 km/h
617 21-07-2008 23:05:19 12 C 9.17 g/m*3 12 C 0 km/h
618 21-07-2008 23:35:19 12.2 C 9.17 g/m*3 12.2 C 0 km/h
619 22-07-2008 00:05:19 12.1 C 9.01 g/m*3 12.1 C 0 km/h
620 22-07-2008 00:35:19 12.1 C 9.33 g/m*3 12.1 C 0 km/h
621 22-07-2008 01:05:19 12.3 C 9.45 g/m*3 12.3 C 0 km/h
622 22-07-2008 01:35:19 12.4 C 9.4 g/m*3 12.4 C 0 km/h
623 22-07-2008 02:05:19 12.4 C 9.4 g/m*3 12.4 C 0 km/h
624 22-07-2008 02:35:19 12.7 C 9.24 g/m*3 12.7 C 0 km/h
625 22-07-2008 03:05:19 12.4 C 9.07 g/m*3 12.4 C 0 km/h
Sensor: Nr:Datum:Temp:Abs-Feuchte:Windchill:Wind:
Aussen-T/F 626 22-07-2008 03:35:19 11.9 C 9 g/m*3 11.9 C 0 km/h
627 22-07-2008 04:05:19 11.8 C 9.05 g/m*3 11.8 C 0 km/h
628 22-07-2008 04:35:19 12 C 9.27 g/m*3 12 C 0 km/h
629 22-07-2008 05:05:20 11.8 C 9.37 g/m*3 11.8 C 0 km/h
630 22-07-2008 05:35:20 11.8 C 9.58 g/m*3 11.8 C 0 km/h
631 22-07-2008 06:05:20 12 C 9.8 g/m*3 12 C 0 km/h
632 22-07-2008 06:35:20 12 C 9.91 g/m*3 12 C 0 km/h
633 22-07-2008 07:05:20 12 C 9.91 g/m*3 12 C 0 km/h
634 22-07-2008 07:35:20 12.1 C 9.97 g/m*3 12.1 C 0 km/h
635 22-07-2008 08:05:20 12.5 C 10.33 g/m*3 12.5 C 0 km/h
636 22-07-2008 08:35:20 12.5 C 10.33 g/m*3 12.5 C 0 km/h
637 22-07-2008 09:05:20 12.5 C 10.33 g/m*3 12.5 C 0 km/h
638 22-07-2008 09:35:20 12.9 C 10.37 g/m*3 12.9 C 0 km/h
639 22-07-2008 10:05:20 13.4 C 10.11 g/m*3 13.4 C 0 km/h
640 22-07-2008 10:35:20 14 C 9.77 g/m*3 14 C 0 km/h
641 22-07-2008 11:05:20 15 C 9.87 g/m*3 15 C 0 km/h
642 22-07-2008 11:35:20 15.2 C 9.48 g/m*3 15.2 C 0 km/h
643 22-07-2008 12:05:20 15.1 C 8.9 g/m*3 15.1 C 0 km/h
644 22-07-2008 12:35:20 15.5 C 9.12 g/m*3 15.5 C 0 km/h
645 22-07-2008 13:05:20 15.4 C 8.93 g/m*3 15.4 C 0 km/h
646 22-07-2008 13:35:20 15.5 C 8.86 g/m*3 15.5 C 0 km/h
647 22-07-2008 14:05:20 15.5 C 8.86 g/m*3 15.5 C 0 km/h
648 22-07-2008 14:35:20 16.7 C 9.38 g/m*3 16.7 C 0 km/h
649 22-07-2008 15:05:20 16.8 C 8.58 g/m*3 16.8 C 0 km/h
650 22-07-2008 15:35:21 17.8 C 8.2 g/m*3 17.8 C 0 km/h
Sensor: Nr:Datum:Temp:Abs-Feuchte:Windchill:Wind:
Aussen-T/F 651 22-07-2008 16:05:21 17.3 C 8.1 g/m*3 17.3 C 0 km/h
652 22-07-2008 16:35:21 18 C 8.45 g/m*3 18 C 0 km/h
653 22-07-2008 17:05:21 18.5 C 8.07 g/m*3 18.5 C 0 km/h
654 22-07-2008 17:35:21 17.6 C 7.95 g/m*3 17.6 C 0 km/h
655 22-07-2008 18:05:21 18.8 C 8.21 g/m*3 18.8 C 0 km/h
656 22-07-2008 18:35:21 18.2 C 9.01 g/m*3 18.2 C 0 km/h
657 22-07-2008 19:05:21 18.5 C 9.02 g/m*3 18.5 C 0 km/h
658 22-07-2008 19:35:21 18.4 C 8.97 g/m*3 18.4 C 0 km/h
659 22-07-2008 20:05:21 17.3 C 9.43 g/m*3 17.3 C 0 km/h
660 22-07-2008 20:35:21 18 C 9.52 g/m*3 18 C 0 km/h
661 22-07-2008 21:05:21 17.2 C 9.23 g/m*3 17.2 C 0 km/h
662 22-07-2008 21:35:21 15.8 C 9.29 g/m*3 15.8 C 0 km/h
663 22-07-2008 22:05:21 14.6 C 9.01 g/m*3 14.6 C 0 km/h
664 22-07-2008 22:35:21 14 C 8.81 g/m*3 14 C 0 km/h
665 22-07-2008 23:05:21 13.5 C 9.12 g/m*3 13.5 C 0 km/h
666 22-07-2008 23:35:21 13.1 C 9.13 g/m*3 13.1 C 0 km/h
667 23-07-2008 00:05:21 13.1 C 9.36 g/m*3 13.1 C 0 km/h
668 23-07-2008 00:35:21 13 C 9.41 g/m*3 13 C 0 km/h
669 23-07-2008 01:05:21 12.5 C 9.24 g/m*3 12.5 C 0 km/h
670 23-07-2008 01:35:22 12 C 9.06 g/m*3 12 C 0 km/h
671 23-07-2008 02:05:22 11.6 C 9.04 g/m*3 11.6 C 0 km/h
672 23-07-2008 02:35:22 11.3 C 8.87 g/m*3 11.3 C 0 km/h
673 23-07-2008 03:05:22 11.2 C 9.02 g/m*3 11.2 C 0 km/h
674 23-07-2008 03:35:22 10.7 C 8.74 g/m*3 10.7 C 0 km/h
675 23-07-2008 04:05:22 10.4 C 8.58 g/m*3 10.4 C 0 km/h
Sensor: Nr:Datum:Temp:Abs-Feuchte:Windchill:Wind:
Aussen-T/F 676 23-07-2008 04:35:22 10.4 C 8.77 g/m*3 10.4 C 0 km/h
677 23-07-2008 05:05:22 10.5 C 8.92 g/m*3 10.5 C 0 km/h
678 23-07-2008 05:35:22 10.7 C 9.04 g/m*3 10.7 C 0 km/h
679 23-07-2008 06:05:22 10.8 C 9.09 g/m*3 10.8 C 0 km/h
680 23-07-2008 06:35:22 10.8 C 9.09 g/m*3 10.8 C 0 km/h
681 23-07-2008 07:05:22 10.5 C 8.92 g/m*3 10.5 C 0 km/h
682 23-07-2008 07:35:22 10.8 C 8.99 g/m*3 10.8 C 0 km/h
683 23-07-2008 08:05:22 10.9 C 8.85 g/m*3 10.9 C 0 km/h
684 23-07-2008 08:35:22 11.8 C 9.16 g/m*3 11.8 C 0 km/h
685 23-07-2008 09:05:22 12.9 C 9.13 g/m*3 12.9 C 0 km/h
686 23-07-2008 09:35:22 12.8 C 9.18 g/m*3 12.8 C 0 km/h
687 23-07-2008 10:05:22 15.4 C 9.46 g/m*3 15.4 C 0 km/h
688 23-07-2008 10:35:22 17 C 9.69 g/m*3 17 C 0 km/h
689 23-07-2008 11:05:22 18.1 C 9.73 g/m*3 18.1 C 0 km/h
690 23-07-2008 11:35:22 19.4 C 9.18 g/m*3 19.4 C 0 km/h
691 23-07-2008 12:05:23 21.1 C 8.29 g/m*3 21.1 C 0 km/h
692 23-07-2008 12:35:23 22.2 C 8.25 g/m*3 22.2 C 0 km/h
693 23-07-2008 13:05:23 23.9 C 7.36 g/m*3 23.9 C 0 km/h
694 23-07-2008 13:35:23 25.9 C 7.26 g/m*3 25.9 C 0 km/h
695 23-07-2008 14:05:23 26 C 6.09 g/m*3 26 C 0 km/h
696 23-07-2008 14:35:23 25.7 C 7.18 g/m*3 25.7 C 0 km/h
697 23-07-2008 15:05:23 26.3 C 6.93 g/m*3 26.3 C 0 km/h
698 23-07-2008 15:35:23 28.9 C 7.14 g/m*3 28.9 C 0 km/h
699 23-07-2008 16:05:23 29.2 C 6.97 g/m*3 29.2 C 0 km/h
700 23-07-2008 16:35:23 29.2 C 6.39 g/m*3 29.2 C 0 km/h
Sensor: Nr:Datum:Temp:Abs-Feuchte:Windchill:Wind:
Aussen-T/F 701 23-07-2008 17:05:23 30.1 C 6.1 g/m*3 30.1 C 0 km/h
702 23-07-2008 17:35:23 29.3 C 6.42 g/m*3 29.3 C 0 km/h
703 23-07-2008 18:05:23 28.8 C 6.53 g/m*3 28.8 C 0 km/h
704 23-07-2008 18:35:23 30 C 6.67 g/m*3 30 C 0 km/h
705 23-07-2008 19:05:23 27.9 C 6.76 g/m*3 27.9 C 0 km/h
706 23-07-2008 19:35:23 28.7 C 7.06 g/m*3 28.7 C 0 km/h
707 23-07-2008 20:05:23 27.8 C 6.99 g/m*3 27.8 C 0 km/h
708 23-07-2008 20:35:23 25.2 C 7.68 g/m*3 25.2 C 0 km/h
709 23-07-2008 21:05:23 23.6 C 8.51 g/m*3 23.6 C 0 km/h
710 23-07-2008 21:35:23 22.5 C 9.39 g/m*3 22.5 C 0 km/h
711 23-07-2008 22:05:24 20.7 C 9.54 g/m*3 20.7 C 0 km/h
712 23-07-2008 22:35:24 19.9 C 9.62 g/m*3 19.9 C 0 km/h
713 23-07-2008 23:05:24 19.2 C 9.56 g/m*3 19.2 C 0 km/h
714 23-07-2008 23:35:24 18.6 C 9.55 g/m*3 18.6 C 0 km/h
715 24-07-2008 00:05:24 18.1 C 9.89 g/m*3 18.1 C 0 km/h
716 24-07-2008 00:35:24 17.5 C 9.24 g/m*3 17.5 C 0 km/h
717 24-07-2008 01:05:24 16.8 C 9.01 g/m*3 16.8 C 0 km/h
718 24-07-2008 01:35:24 16.3 C 8.88 g/m*3 16.3 C 0 km/h
719 24-07-2008 02:05:24 15.9 C 8.94 g/m*3 15.9 C 0 km/h
720 24-07-2008 02:35:24 15.4 C 8.93 g/m*3 15.4 C 0 km/h
721 24-07-2008 03:05:24 14.8 C 8.99 g/m*3 14.8 C 0 km/h
722 24-07-2008 03:35:24 14.7 C 9.19 g/m*3 14.7 C 0 km/h
723 24-07-2008 04:05:24 14.1 C 9.1 g/m*3 14.1 C 0 km/h
724 24-07-2008 04:35:24 13.7 C 9.12 g/m*3 13.7 C 0 km/h
725 24-07-2008 05:05:24 13.3 C 9.01 g/m*3 13.3 C 0 km/h
Sensor: Nr:Datum:Temp:Abs-Feuchte:Windchill:Wind:
Aussen-T/F 726 24-07-2008 05:35:24 13 C 8.96 g/m*3 13 C 0 km/h
727 24-07-2008 06:05:24 12.8 C 9.07 g/m*3 12.8 C 0 km/h
728 24-07-2008 06:35:24 12.8 C 9.07 g/m*3 12.8 C 0 km/h
729 24-07-2008 07:05:24 12.9 C 9.24 g/m*3 12.9 C 0 km/h
730 24-07-2008 07:35:24 13.1 C 9.24 g/m*3 13.1 C 0 km/h
731 24-07-2008 08:05:24 13.6 C 9.53 g/m*3 13.6 C 0 km/h
732 24-07-2008 08:35:25 14.3 C 9.71 g/m*3 14.3 C 0 km/h
733 24-07-2008 09:05:25 15.4 C 10.25 g/m*3 15.4 C 0 km/h
734 24-07-2008 09:35:25 17 C 10.13 g/m*3 17 C 0 km/h
735 24-07-2008 10:05:25 18.9 C 10.04 g/m*3 18.9 C 0 km/h
736 24-07-2008 10:35:25 20.8 C 8.87 g/m*3 20.8 C 0 km/h
737 24-07-2008 11:05:25 22.4 C 8.34 g/m*3 22.4 C 0 km/h
738 24-07-2008 11:35:25 23.1 C 7.65 g/m*3 23.1 C 0 km/h
739 24-07-2008 12:05:25 24.5 C 7.83 g/m*3 24.5 C 0 km/h
740 24-07-2008 12:35:25 26.5 C 7.01 g/m*3 26.5 C 0 km/h
741 24-07-2008 13:05:25 25.7 C 6.46 g/m*3 25.7 C 0 km/h
742 24-07-2008 13:35:25 29 C 6.32 g/m*3 29 C 0 km/h
743 24-07-2008 14:05:25 28.8 C 5.97 g/m*3 28.8 C 0 km/h
744 24-07-2008 14:35:25 28.3 C 6.36 g/m*3 28.3 C 0 km/h
745 24-07-2008 15:05:25 29.9 C 6.03 g/m*3 29.9 C 0 km/h
746 24-07-2008 15:35:25 30.7 C 6.3 g/m*3 30.7 C 0 km/h
747 24-07-2008 16:05:25 31 C 6.4 g/m*3 31 C 0 km/h
748 24-07-2008 16:35:25 31.4 C 6.54 g/m*3 31.4 C 0 km/h
749 24-07-2008 17:05:25 31.6 C 6.61 g/m*3 31.6 C 0 km/h
750 24-07-2008 17:35:25 32.1 C 6.79 g/m*3 32.1 C 0 km/h
Sensor: Nr:Datum:Temp:Abs-Feuchte:Windchill:Wind:
Aussen-T/F 751 24-07-2008 18:05:26 32.3 C 6.86 g/m*3 32.3 C 0 km/h
752 24-07-2008 18:35:26 32.3 C 6.86 g/m*3 32.3 C 0 km/h
753 24-07-2008 19:05:26 32.3 C 6.86 g/m*3 32.3 C 0 km/h
754 24-07-2008 19:35:26 31.6 C 6.61 g/m*3 31.6 C 0 km/h
755 24-07-2008 20:05:26 31.2 C 6.47 g/m*3 31.2 C 0 km/h
756 24-07-2008 20:35:26 30.3 C 7.4 g/m*3 30.3 C 0 km/h
757 24-07-2008 21:05:26 27.1 C 7.76 g/m*3 27.1 C 0 km/h
758 24-07-2008 21:35:26 25 C 7.37 g/m*3 25 C 0 km/h
759 24-07-2008 22:05:26 23.7 C 7.7 g/m*3 23.7 C 0 km/h
760 24-07-2008 22:35:26 22.7 C 7.88 g/m*3 22.7 C 0 km/h
761 24-07-2008 23:05:26 22.2 C 8.05 g/m*3 22.2 C 0 km/h
762 24-07-2008 23:35:26 21.8 C 8.25 g/m*3 21.8 C 0 km/h
763 25-07-2008 00:05:26 21.2 C 8.15 g/m*3 21.2 C 0 km/h
764 25-07-2008 00:35:26 20.9 C 8.38 g/m*3 20.9 C 0 km/h
765 25-07-2008 01:05:26 20.2 C 8.22 g/m*3 20.2 C 0 km/h
766 25-07-2008 01:35:26 19.9 C 8.42 g/m*3 19.9 C 0 km/h
767 25-07-2008 02:05:26 19.5 C 8.22 g/m*3 19.5 C 0 km/h
768 25-07-2008 02:35:26 19.1 C 8.36 g/m*3 19.1 C 0 km/h
769 25-07-2008 03:05:26 18.5 C 8.54 g/m*3 18.5 C 0 km/h
770 25-07-2008 03:35:26 18.1 C 8.65 g/m*3 18.1 C 0 km/h
771 25-07-2008 04:05:27 17.9 C 9.01 g/m*3 17.9 C 0 km/h
772 25-07-2008 04:35:27 17.5 C 9.24 g/m*3 17.5 C 0 km/h
773 25-07-2008 05:05:27 17.4 C 9.34 g/m*3 17.4 C 0 km/h
774 25-07-2008 05:35:27 17 C 9.12 g/m*3 17 C 0 km/h
775 25-07-2008 06:05:27 16.6 C 9.32 g/m*3 16.6 C 0 km/h
Sensor: Nr:Datum:Temp:Abs-Feuchte:Windchill:Wind:
Aussen-T/F 776 25-07-2008 06:35:27 16.2 C 9.52 g/m*3 16.2 C 0 km/h
777 25-07-2008 07:05:27 16.3 C 9.71 g/m*3 16.3 C 0 km/h
778 25-07-2008 07:35:27 16.8 C 9.87 g/m*3 16.8 C 0 km/h
779 25-07-2008 08:05:27 16.9 C 9.78 g/m*3 16.9 C 0 km/h
780 25-07-2008 08:35:27 17.9 C 9.92 g/m*3 17.9 C 0 km/h
781 25-07-2008 09:05:27 20 C 9.51 g/m*3 20 C 0 km/h
782 25-07-2008 09:35:27 20.4 C 9.91 g/m*3 20.4 C 0 km/h
783 25-07-2008 10:05:27 20.8 C 10.14 g/m*3 20.8 C 0 km/h
784 25-07-2008 10:35:27 22.7 C 9.9 g/m*3 22.7 C 0 km/h
785 25-07-2008 11:05:27 24.4 C 9.57 g/m*3 24.4 C 0 km/h
786 25-07-2008 11:35:27 25.6 C 9.52 g/m*3 25.6 C 0 km/h
787 25-07-2008 12:05:27 27.1 C 9.32 g/m*3 27.1 C 0 km/h
788 25-07-2008 12:35:27 28.8 C 8.81 g/m*3 28.8 C 0 km/h
789 25-07-2008 13:05:27 29.7 C 8.95 g/m*3 29.7 C 0 km/h
790 25-07-2008 13:35:27 30.7 C 8.19 g/m*3 30.7 C 0 km/h
791 25-07-2008 14:05:27 31.3 C 7.48 g/m*3 31.3 C 0 km/h
792 25-07-2008 14:35:28 31.2 C 7.44 g/m*3 31.2 C 0 km/h
793 25-07-2008 15:05:28 32.1 C 7.13 g/m*3 32.1 C 0 km/h
794 25-07-2008 15:35:28 32.6 C 6.97 g/m*3 32.6 C 0 km/h
795 25-07-2008 16:05:28 32.3 C 6.86 g/m*3 32.3 C 0 km/h
796 25-07-2008 16:35:28 33.3 C 7.23 g/m*3 33.3 C 0 km/h
797 25-07-2008 17:05:28 32.5 C 6.93 g/m*3 32.5 C 0 km/h
798 25-07-2008 17:35:28 32.5 C 6.93 g/m*3 32.5 C 0 km/h
799 25-07-2008 18:05:28 32.5 C 6.93 g/m*3 32.5 C 0 km/h
800 25-07-2008 18:35:28 33.2 C 7.2 g/m*3 33.2 C 0 km/h
Sensor: Nr:Datum:Temp:Abs-Feuchte:Windchill:Wind:
Aussen-T/F 801 25-07-2008 19:05:28 32.8 C 7.04 g/m*3 32.8 C 0 km/h
802 25-07-2008 19:35:28 31.3 C 8.46 g/m*3 31.3 C 0 km/h
803 25-07-2008 20:05:28 30.7 C 9.45 g/m*3 30.7 C 0 km/h
804 25-07-2008 20:35:28 29.3 C 9.93 g/m*3 29.3 C 0 km/h
805 25-07-2008 21:05:28 27.8 C 9.95 g/m*3 27.8 C 0 km/h
806 25-07-2008 21:35:28 26.6 C 9.82 g/m*3 26.6 C 0 km/h
807 25-07-2008 22:05:28 25.8 C 9.63 g/m*3 25.8 C 0 km/h
808 25-07-2008 22:35:28 24.9 C 10.07 g/m*3 24.9 C 0 km/h
809 25-07-2008 23:05:28 24.3 C 9.96 g/m*3 24.3 C 0 km/h
810 25-07-2008 23:35:28 23.6 C 10.42 g/m*3 23.6 C 0 km/h
811 26-07-2008 00:05:28 23 C 10.48 g/m*3 23 C 0 km/h
812 26-07-2008 00:35:29 22.2 C 10.6 g/m*3 22.2 C 0 km/h
813 26-07-2008 01:05:29 22.2 C 10.8 g/m*3 22.2 C 0 km/h
814 26-07-2008 01:35:29 21.3 C 10.81 g/m*3 21.3 C 0 km/h
815 26-07-2008 02:05:29 21 C 10.99 g/m*3 21 C 0 km/h
816 26-07-2008 02:35:29 20.5 C 11.21 g/m*3 20.5 C 0 km/h
817 26-07-2008 03:05:29 20.2 C 11.19 g/m*3 20.2 C 0 km/h
818 26-07-2008 03:35:29 20 C 11.23 g/m*3 20 C 0 km/h
819 26-07-2008 04:05:29 20.2 C 11.19 g/m*3 20.2 C 0 km/h
820 26-07-2008 04:35:29 20 C 11.23 g/m*3 20 C 0 km/h
821 26-07-2008 05:05:29 19.9 C 11.51 g/m*3 19.9 C 0 km/h
822 26-07-2008 05:35:29 19.1 C 11.31 g/m*3 19.1 C 0 km/h
823 26-07-2008 06:05:29 18.8 C 11.6 g/m*3 18.8 C 0 km/h
824 26-07-2008 06:35:29 19.1 C 11.64 g/m*3 19.1 C 0 km/h
825 26-07-2008 07:05:29 19.5 C 11.75 g/m*3 19.5 C 0 km/h
Sensor: Nr:Datum:Temp:Abs-Feuchte:Windchill:Wind:
Aussen-T/F 826 26-07-2008 07:35:29 19.6 C 11.65 g/m*3 19.6 C 0 km/h
827 26-07-2008 08:05:29 19.8 C 11.79 g/m*3 19.8 C 0 km/h
828 26-07-2008 08:35:29 20.2 C 11.71 g/m*3 20.2 C 0 km/h
829 26-07-2008 09:05:29 21 C 11.36 g/m*3 21 C 0 km/h
830 26-07-2008 09:35:29 22 C 11.65 g/m*3 22 C 0 km/h
831 26-07-2008 10:05:29 23.7 C 11.55 g/m*3 23.7 C 0 km/h
832 26-07-2008 10:35:30 25.1 C 11.81 g/m*3 25.1 C 0 km/h
833 26-07-2008 11:05:30 25.8 C 12.28 g/m*3 25.8 C 0 km/h
834 26-07-2008 11:35:30 27.3 C 12.04 g/m*3 27.3 C 0 km/h
835 26-07-2008 12:05:30 29.6 C 12.17 g/m*3 29.6 C 0 km/h
836 26-07-2008 12:35:30 30.2 C 11.34 g/m*3 30.2 C 0 km/h
837 26-07-2008 13:05:30 30.6 C 10.96 g/m*3 30.6 C 0 km/h
838 26-07-2008 13:35:30 30.7 C 11.02 g/m*3 30.7 C 0 km/h
839 26-07-2008 14:05:30 30.9 C 10.5 g/m*3 30.9 C 0 km/h
840 26-07-2008 14:35:30 31 C 10.24 g/m*3 31 C 0 km/h
841 26-07-2008 15:05:30 31.8 C 10.02 g/m*3 31.8 C 0 km/h
842 26-07-2008 15:35:30 32.1 C 10.18 g/m*3 32.1 C 0 km/h
843 26-07-2008 16:05:30 33.2 C 7.55 g/m*3 33.2 C 0 km/h
844 26-07-2008 16:35:30 32.2 C 8.53 g/m*3 32.2 C 0 km/h
845 26-07-2008 17:05:30 31.7 C 8.64 g/m*3 31.7 C 0 km/h
846 26-07-2008 17:35:30 29 C 10.05 g/m*3 29 C 0 km/h
847 26-07-2008 18:05:30 25.3 C 11.71 g/m*3 25.3 C 0 km/h
848 26-07-2008 18:35:30 20.8 C 14.12 g/m*3 20.8 C 0 km/h
849 26-07-2008 19:05:30 20.9 C 15.3 g/m*3 20.9 C 0 km/h
850 26-07-2008 19:35:30 20.6 C 15.21 g/m*3 20.6 C 0 km/h
Sensor: Nr:Datum:Temp:Abs-Feuchte:Windchill:Wind:
Aussen-T/F 851 26-07-2008 20:05:31 21.1 C 14.37 g/m*3 21.1 C 0 km/h
852 26-07-2008 20:35:31 20.8 C 14.49 g/m*3 20.8 C 0 km/h
853 26-07-2008 21:05:31 20.8 C 14.3 g/m*3 20.8 C 0 km/h
854 26-07-2008 21:35:31 19.5 C 14.1 g/m*3 19.5 C 0 km/h
855 26-07-2008 22:05:31 19.3 C 13.6 g/m*3 19.3 C 0 km/h
856 26-07-2008 22:35:31 19 C 13.36 g/m*3 19 C 0 km/h
857 26-07-2008 23:05:31 18.9 C 13.61 g/m*3 18.9 C 0 km/h
858 26-07-2008 23:35:31 18.8 C 14.17 g/m*3 18.8 C 0 km/h
859 27-07-2008 00:05:31 18.5 C 14.08 g/m*3 18.5 C 0 km/h
860 27-07-2008 00:35:31 18.4 C 14 g/m*3 18.4 C 0 km/h
861 27-07-2008 01:05:31 18.5 C 14.08 g/m*3 18.5 C 0 km/h
862 27-07-2008 01:35:31 18.3 C 13.92 g/m*3 18.3 C 0 km/h
863 27-07-2008 02:05:31 18.1 C 13.6 g/m*3 18.1 C 0 km/h
864 27-07-2008 02:35:31 17.8 C 13.51 g/m*3 17.8 C 0 km/h
865 27-07-2008 03:05:31 18 C 13.67 g/m*3 18 C 0 km/h
866 27-07-2008 03:35:31 18.4 C 14 g/m*3 18.4 C 0 km/h
867 27-07-2008 04:05:31 18.4 C 13.84 g/m*3 18.4 C 0 km/h
868 27-07-2008 04:35:31 18.5 C 13.92 g/m*3 18.5 C 0 km/h
869 27-07-2008 05:05:31 18.7 C 13.93 g/m*3 18.7 C 0 km/h
870 27-07-2008 05:35:32 18.7 C 13.93 g/m*3 18.7 C 0 km/h
871 27-07-2008 06:05:32 18.8 C 14.01 g/m*3 18.8 C 0 km/h
872 27-07-2008 06:35:32 18.8 C 14.01 g/m*3 18.8 C 0 km/h
873 27-07-2008 07:05:32 19 C 13.85 g/m*3 19 C 0 km/h
874 27-07-2008 07:35:32 19.2 C 13.85 g/m*3 19.2 C 0 km/h
875 27-07-2008 08:05:32 19.6 C 13.67 g/m*3 19.6 C 0 km/h
Sensor: Nr:Datum:Temp:Abs-Feuchte:Windchill:Wind:
Aussen-T/F 876 27-07-2008 08:35:32 19.7 C 13.25 g/m*3 19.7 C 0 km/h
877 27-07-2008 09:05:32 19.9 C 13.23 g/m*3 19.9 C 0 km/h
878 27-07-2008 09:35:32 20.1 C 13.04 g/m*3 20.1 C 0 km/h
879 27-07-2008 10:05:32 20.4 C 13.09 g/m*3 20.4 C 0 km/h
880 27-07-2008 10:35:32 21.6 C 13.66 g/m*3 21.6 C 0 km/h
881 27-07-2008 11:05:32 23.4 C 13.04 g/m*3 23.4 C 0 km/h
882 27-07-2008 11:35:32 24.3 C 12.83 g/m*3 24.3 C 0 km/h
883 27-07-2008 12:05:32 24.9 C 13.05 g/m*3 24.9 C 0 km/h
884 27-07-2008 12:35:32 26.5 C 12.77 g/m*3 26.5 C 0 km/h
885 27-07-2008 13:05:32 28.2 C 12.1 g/m*3 28.2 C 0 km/h
886 27-07-2008 13:35:32 29.9 C 11.46 g/m*3 29.9 C 0 km/h
887 27-07-2008 14:05:32 30.3 C 11.4 g/m*3 30.3 C 0 km/h
888 27-07-2008 14:35:32 31.2 C 10.67 g/m*3 31.2 C 0 km/h
889 27-07-2008 15:05:33 31.8 C 10.02 g/m*3 31.8 C 0 km/h
890 27-07-2008 15:35:33 32.4 C 10 g/m*3 32.4 C 0 km/h
891 27-07-2008 16:05:33 33 C 8.9 g/m*3 33 C 0 km/h
892 27-07-2008 16:35:33 32.7 C 8.76 g/m*3 32.7 C 0 km/h
893 27-07-2008 17:05:33 33.8 C 7.43 g/m*3 33.8 C 0 km/h
894 27-07-2008 17:35:33 33.6 C 7.35 g/m*3 33.6 C 0 km/h
895 27-07-2008 18:05:33 32 C 9.45 g/m*3 32 C 0 km/h
896 27-07-2008 18:35:33 31 C 10.88 g/m*3 31 C 0 km/h
897 27-07-2008 19:05:33 25.1 C 12.04 g/m*3 25.1 C 0 km/h
898 27-07-2008 19:35:33 22.8 C 15.65 g/m*3 22.8 C 0 km/h
899 27-07-2008 20:05:33 21.7 C 15.83 g/m*3 21.7 C 0 km/h
900 27-07-2008 20:35:33 21 C 15.39 g/m*3 21 C 0 km/h
Sensor: Nr:Datum:Temp:Abs-Feuchte:Windchill:Wind:
Aussen-T/F 901 27-07-2008 21:05:33 21.6 C 15.36 g/m*3 21.6 C 0 km/h
902 27-07-2008 21:35:33 21.5 C 14.71 g/m*3 21.5 C 0 km/h
903 27-07-2008 22:05:33 21.3 C 14.54 g/m*3 21.3 C 0 km/h
904 27-07-2008 22:35:33 21 C 13.92 g/m*3 21 C 0 km/h
905 27-07-2008 23:05:33 20.8 C 13.76 g/m*3 20.8 C 0 km/h
906 27-07-2008 23:35:33 20.7 C 13.68 g/m*3 20.7 C 0 km/h
907 28-07-2008 00:05:33 20.3 C 13.54 g/m*3 20.3 C 0 km/h
908 28-07-2008 00:35:33 20 C 13.48 g/m*3 20 C 0 km/h
909 28-07-2008 01:05:34 19.5 C 13.26 g/m*3 19.5 C 0 km/h
910 28-07-2008 01:35:34 19.2 C 13.19 g/m*3 19.2 C 0 km/h
911 28-07-2008 02:05:34 19.1 C 13.28 g/m*3 19.1 C 0 km/h
912 28-07-2008 02:35:34 19.2 C 13.36 g/m*3 19.2 C 0 km/h
913 28-07-2008 03:05:34 19.2 C 13.36 g/m*3 19.2 C 0 km/h
914 28-07-2008 03:35:34 18.9 C 13.61 g/m*3 18.9 C 0 km/h
915 28-07-2008 04:05:34 18.6 C 13.37 g/m*3 18.6 C 0 km/h
916 28-07-2008 04:35:34 18.6 C 13.37 g/m*3 18.6 C 0 km/h
917 28-07-2008 05:05:34 18.3 C 13.29 g/m*3 18.3 C 0 km/h
918 28-07-2008 05:35:34 18.1 C 13.13 g/m*3 18.1 C 0 km/h
919 28-07-2008 06:05:34 18 C 13.06 g/m*3 18 C 0 km/h
920 28-07-2008 06:35:34 18.2 C 13.21 g/m*3 18.2 C 0 km/h
921 28-07-2008 07:05:34 18.5 C 13.45 g/m*3 18.5 C 0 km/h
922 28-07-2008 07:35:34 18.9 C 13.77 g/m*3 18.9 C 0 km/h
923 28-07-2008 08:05:34 19.4 C 13.85 g/m*3 19.4 C 0 km/h
924 28-07-2008 08:35:34 19.8 C 13.84 g/m*3 19.8 C 0 km/h
925 28-07-2008 09:05:34 20.9 C 14.21 g/m*3 20.9 C 0 km/h
Sensor: Nr:Datum:Temp:Abs-Feuchte:Windchill:Wind:
Aussen-T/F 926 28-07-2008 09:35:34 22.4 C 13.7 g/m*3 22.4 C 0 km/h
927 28-07-2008 10:05:34 23.5 C 13.75 g/m*3 23.5 C 0 km/h
928 28-07-2008 10:35:35 26 C 12.42 g/m*3 26 C 0 km/h
929 28-07-2008 11:05:35 26.6 C 12.59 g/m*3 26.6 C 0 km/h
930 28-07-2008 11:35:35 27.9 C 12.17 g/m*3 27.9 C 0 km/h
931 28-07-2008 12:05:35 28.7 C 11.59 g/m*3 28.7 C 0 km/h
932 28-07-2008 12:35:35 30.6 C 10.65 g/m*3 30.6 C 0 km/h
933 28-07-2008 13:05:35 31.5 C 9.86 g/m*3 31.5 C 0 km/h
934 28-07-2008 13:35:35 32.1 C 9.16 g/m*3 32.1 C 0 km/h
935 28-07-2008 14:05:35 32.1 C 8.82 g/m*3 32.1 C 0 km/h
936 28-07-2008 14:35:35 31.9 C 8.39 g/m*3 31.9 C 0 km/h
937 28-07-2008 15:05:35 32.6 C 7.67 g/m*3 32.6 C 0 km/h
938 28-07-2008 15:35:35 32.3 C 6.86 g/m*3 32.3 C 0 km/h
939 28-07-2008 16:05:35 33.1 C 7.16 g/m*3 33.1 C 0 km/h
940 28-07-2008 16:35:35 32.6 C 6.97 g/m*3 32.6 C 0 km/h
941 28-07-2008 17:05:35 33.2 C 7.2 g/m*3 33.2 C 0 km/h
942 28-07-2008 17:35:35 32.7 C 8.41 g/m*3 32.7 C 0 km/h
943 28-07-2008 18:05:35 32.8 C 7.75 g/m*3 32.8 C 0 km/h
944 28-07-2008 18:35:35 31.5 C 9.2 g/m*3 31.5 C 0 km/h
945 28-07-2008 19:05:35 30.2 C 9.2 g/m*3 30.2 C 0 km/h
946 28-07-2008 19:35:35 30.3 C 9.55 g/m*3 30.3 C 0 km/h
947 28-07-2008 20:05:36 29 C 9.77 g/m*3 29 C 0 km/h
948 28-07-2008 20:35:36 27.8 C 9.68 g/m*3 27.8 C 0 km/h
949 28-07-2008 21:05:36 27 C 9.52 g/m*3 27 C 0 km/h
950 28-07-2008 21:35:36 26.3 C 9.65 g/m*3 26.3 C 0 km/h
Sensor: Nr:Datum:Temp:Abs-Feuchte:Windchill:Wind:
Aussen-T/F 951 28-07-2008 22:05:36 25.5 C 9.47 g/m*3 25.5 C 0 km/h
952 28-07-2008 22:35:36 24.8 C 9.79 g/m*3 24.8 C 0 km/h
953 28-07-2008 23:05:36 24.1 C 9.63 g/m*3 24.1 C 0 km/h
954 28-07-2008 23:35:36 23.4 C 9.88 g/m*3 23.4 C 0 km/h
955 29-07-2008 00:05:36 23 C 9.87 g/m*3 23 C 0 km/h
956 29-07-2008 00:35:36 22.5 C 10.39 g/m*3 22.5 C 0 km/h
957 29-07-2008 01:05:36 22.1 C 10.35 g/m*3 22.1 C 0 km/h
958 29-07-2008 01:35:36 21.6 C 10.43 g/m*3 21.6 C 0 km/h
959 29-07-2008 02:05:36 21.1 C 11.06 g/m*3 21.1 C 0 km/h
960 29-07-2008 02:35:36 20.9 C 10.93 g/m*3 20.9 C 0 km/h
961 29-07-2008 03:05:36 20.4 C 10.97 g/m*3 20.4 C 0 km/h
962 29-07-2008 03:35:36 20.1 C 11.3 g/m*3 20.1 C 0 km/h
963 29-07-2008 04:05:36 19.8 C 11.44 g/m*3 19.8 C 0 km/h
964 29-07-2008 04:35:36 19.4 C 11.68 g/m*3 19.4 C 0 km/h
965 29-07-2008 05:05:36 19.2 C 11.87 g/m*3 19.2 C 0 km/h
966 29-07-2008 05:35:37 19 C 11.57 g/m*3 19 C 0 km/h
967 29-07-2008 06:05:37 19 C 11.73 g/m*3 19 C 0 km/h
968 29-07-2008 06:35:37 19 C 11.9 g/m*3 19 C 0 km/h
969 29-07-2008 07:05:37 19.2 C 12.04 g/m*3 19.2 C 0 km/h
970 29-07-2008 07:35:37 19.1 C 12.13 g/m*3 19.1 C 0 km/h
971 29-07-2008 08:05:37 19.4 C 12.35 g/m*3 19.4 C 0 km/h
972 29-07-2008 08:35:37 20.2 C 12.24 g/m*3 20.2 C 0 km/h
973 29-07-2008 09:05:37 22 C 12.23 g/m*3 22 C 0 km/h
974 29-07-2008 09:35:37 23.5 C 11.84 g/m*3 23.5 C 0 km/h
975 29-07-2008 10:05:37 24.6 C 11.7 g/m*3 24.6 C 0 km/h
Sensor: Nr:Datum:Temp:Abs-Feuchte:Windchill:Wind:
Aussen-T/F 976 29-07-2008 10:35:37 27 C 11.58 g/m*3 27 C 0 km/h
977 29-07-2008 11:05:37 27.8 C 12.1 g/m*3 27.8 C 0 km/h
978 29-07-2008 11:35:37 24.8 C 11.84 g/m*3 24.8 C 0 km/h
979 29-07-2008 12:05:37 20.4 C 13.98 g/m*3 20.4 C 0 km/h
980 29-07-2008 12:35:37 20.3 C 14.95 g/m*3 20.3 C 0 km/h
981 29-07-2008 13:05:37 21.4 C 15.37 g/m*3 21.4 C 0 km/h
982 29-07-2008 13:35:37 24.6 C 16.21 g/m*3 24.6 C 0 km/h
983 29-07-2008 14:05:37 26.8 C 14 g/m*3 26.8 C 0 km/h
984 29-07-2008 14:35:37 27.7 C 13.11 g/m*3 27.7 C 0 km/h
985 29-07-2008 15:05:38 29.8 C 12 g/m*3 29.8 C 0 km/h
986 29-07-2008 15:35:38 30.7 C 11.02 g/m*3 30.7 C 0 km/h
987 29-07-2008 16:05:38 31.4 C 10.46 g/m*3 31.4 C 0 km/h
988 29-07-2008 16:35:38 32 C 10.13 g/m*3 32 C 0 km/h
989 29-07-2008 17:05:38 32.1 C 9.5 g/m*3 32.1 C 0 km/h
990 29-07-2008 17:35:38 31.8 C 10.02 g/m*3 31.8 C 0 km/h
991 29-07-2008 18:05:38 31.5 C 10.19 g/m*3 31.5 C 0 km/h
992 29-07-2008 18:35:38 31.9 C 9.07 g/m*3 31.9 C 0 km/h
993 29-07-2008 19:05:38 31.7 C 9.3 g/m*3 31.7 C 0 km/h
994 29-07-2008 19:35:38 30.3 C 10.79 g/m*3 30.3 C 0 km/h
995 29-07-2008 20:05:38 31.3 C 10.73 g/m*3 31.3 C 0 km/h
996 29-07-2008 20:35:38 30.2 C 9.81 g/m*3 30.2 C 0 km/h
997 29-07-2008 21:05:38 26.9 C 10.49 g/m*3 26.9 C 0 km/h
998 29-07-2008 21:35:38 25.1 C 10.65 g/m*3 25.1 C 0 km/h
999 29-07-2008 22:05:38 24.4 C 11.57 g/m*3 24.4 C 0 km/h
1000 29-07-2008 22:35:38 23.5 C 11.42 g/m*3 23.5 C 0 km/h
Sensor: Nr:Datum:Temp:Abs-Feuchte:Windchill:Wind:
Aussen-T/F 1001 29-07-2008 23:05:38 23.1 C 11.78 g/m*3 23.1 C 0 km/h
1002 29-07-2008 23:35:38 22.3 C 11.65 g/m*3 22.3 C 0 km/h
1003 30-07-2008 00:05:38 21.7 C 12.21 g/m*3 21.7 C 0 km/h
1004 30-07-2008 00:35:38 21.1 C 12.53 g/m*3 21.1 C 0 km/h
1005 30-07-2008 01:05:39 20.7 C 12.78 g/m*3 20.7 C 0 km/h
1006 30-07-2008 01:35:39 20.6 C 12.71 g/m*3 20.6 C 0 km/h
1007 30-07-2008 02:05:39 20.3 C 12.49 g/m*3 20.3 C 0 km/h
1008 30-07-2008 02:35:39 19.9 C 12.54 g/m*3 19.9 C 0 km/h
1009 30-07-2008 03:05:39 19.5 C 12.42 g/m*3 19.5 C 0 km/h
1010 30-07-2008 03:35:39 19 C 12.55 g/m*3 19 C 0 km/h
1011 30-07-2008 04:05:39 18.9 C 12.47 g/m*3 18.9 C 0 km/h
1012 30-07-2008 04:35:39 18.7 C 12.49 g/m*3 18.7 C 0 km/h
1013 30-07-2008 05:05:39 18.3 C 12.51 g/m*3 18.3 C 0 km/h
1014 30-07-2008 05:35:39 18.1 C 12.36 g/m*3 18.1 C 0 km/h
1015 30-07-2008 06:05:39 17.9 C 12.37 g/m*3 17.9 C 0 km/h
1016 30-07-2008 06:35:39 17.8 C 12.45 g/m*3 17.8 C 0 km/h
1017 30-07-2008 07:05:39 17.8 C 12.45 g/m*3 17.8 C 0 km/h
1018 30-07-2008 07:35:39 17.8 C 12.45 g/m*3 17.8 C 0 km/h
1019 30-07-2008 08:05:39 19 C 12.71 g/m*3 19 C 0 km/h
1020 30-07-2008 08:35:39 19.9 C 12.54 g/m*3 19.9 C 0 km/h
1021 30-07-2008 09:05:39 20.7 C 12.6 g/m*3 20.7 C 0 km/h
1022 30-07-2008 09:35:39 22 C 12.81 g/m*3 22 C 0 km/h
1023 30-07-2008 10:05:39 22.7 C 12.93 g/m*3 22.7 C 0 km/h
1024 30-07-2008 10:35:40 24.8 C 12.97 g/m*3 24.8 C 0 km/h
1025 30-07-2008 11:05:40 26.1 C 12.49 g/m*3 26.1 C 0 km/h
Sensor: Nr:Datum:Temp:Abs-Feuchte:Windchill:Wind:
Aussen-T/F 1026 30-07-2008 11:35:40 26.8 C 12.22 g/m*3 26.8 C 0 km/h
1027 30-07-2008 12:05:40 27.5 C 12.43 g/m*3 27.5 C 0 km/h
1028 30-07-2008 12:35:40 29.3 C 11.97 g/m*3 29.3 C 0 km/h
1029 30-07-2008 13:05:40 29.6 C 11.87 g/m*3 29.6 C 0 km/h
1030 30-07-2008 13:35:40 30 C 10.92 g/m*3 30 C 0 km/h
1031 30-07-2008 14:05:40 29.8 C 11.4 g/m*3 29.8 C 0 km/h
1032 30-07-2008 14:35:40 31.7 C 10.3 g/m*3 31.7 C 0 km/h
1033 30-07-2008 15:05:40 32.7 C 9.11 g/m*3 32.7 C 0 km/h
1034 30-07-2008 15:35:40 32 C 9.45 g/m*3 32 C 0 km/h
1035 30-07-2008 16:05:40 31.8 C 10.02 g/m*3 31.8 C 0 km/h
1036 30-07-2008 16:35:40 33.2 C 8.63 g/m*3 33.2 C 0 km/h
1037 30-07-2008 17:05:40 33.3 C 7.96 g/m*3 33.3 C 0 km/h
1038 30-07-2008 17:35:40 33.6 C 8.08 g/m*3 33.6 C 0 km/h
1039 30-07-2008 18:05:40 34 C 7.5 g/m*3 34 C 0 km/h
1040 30-07-2008 18:35:40 24.5 C 5.82 g/m*3 24.5 C 0 km/h
1041 30-07-2008 19:05:40 21.2 C 4.82 g/m*3 21.2 C 0 km/h
1042 30-07-2008 19:35:40 22.4 C 6.16 g/m*3 22.4 C 0 km/h
1043 30-07-2008 20:05:41 24.6 C 18.01 g/m*3 24.6 C 0 km/h
1044 30-07-2008 20:35:41 23 C 15.42 g/m*3 23 C 0 km/h
1045 30-07-2008 21:05:41 22.1 C 13.66 g/m*3 22.1 C 0 km/h
1046 30-07-2008 21:35:41 20.1 C 14.78 g/m*3 20.1 C 0 km/h
1047 30-07-2008 22:05:41 20.1 C 15.12 g/m*3 20.1 C 0 km/h
1048 30-07-2008 22:35:41 20.1 C 15.12 g/m*3 20.1 C 0 km/h
1049 30-07-2008 23:05:41 20 C 14.86 g/m*3 20 C 0 km/h
1050 30-07-2008 23:35:41 19.6 C 14.69 g/m*3 19.6 C 0 km/h
Sensor: Nr:Datum:Temp:Abs-Feuchte:Windchill:Wind:
Aussen-T/F 1051 31-07-2008 00:05:41 19.1 C 13.93 g/m*3 19.1 C 0 km/h
1052 31-07-2008 00:35:41 18.7 C 13.77 g/m*3 18.7 C 0 km/h
1053 31-07-2008 01:05:41 18.5 C 13.61 g/m*3 18.5 C 0 km/h
1054 31-07-2008 01:35:41 18.4 C 13.53 g/m*3 18.4 C 0 km/h
1055 31-07-2008 02:05:41 18.1 C 13.44 g/m*3 18.1 C 0 km/h
1056 31-07-2008 02:35:41 17.9 C 13.44 g/m*3 17.9 C 0 km/h
1057 31-07-2008 03:05:41 17.6 C 13.2 g/m*3 17.6 C 0 km/h
1058 31-07-2008 03:35:41 17.4 C 13.04 g/m*3 17.4 C 0 km/h
1059 31-07-2008 04:05:41 17.1 C 12.96 g/m*3 17.1 C 0 km/h
1060 31-07-2008 04:35:41 17.2 C 13.18 g/m*3 17.2 C 0 km/h
1061 31-07-2008 05:05:41 17.2 C 13.03 g/m*3 17.2 C 0 km/h
1062 31-07-2008 05:35:42 17.4 C 13.19 g/m*3 17.4 C 0 km/h
1063 31-07-2008 06:05:42 17 C 12.73 g/m*3 17 C 0 km/h
1064 31-07-2008 06:35:42 17.5 C 13.12 g/m*3 17.5 C 0 km/h
1065 31-07-2008 07:05:42 17.2 C 12.59 g/m*3 17.2 C 0 km/h
1066 31-07-2008 07:35:42 17.1 C 12.66 g/m*3 17.1 C 0 km/h
1067 31-07-2008 08:05:42 17.9 C 13.28 g/m*3 17.9 C 0 km/h
1068 31-07-2008 08:35:42 18.5 C 13.13 g/m*3 18.5 C 0 km/h
1069 31-07-2008 09:05:42 18.9 C 12.96 g/m*3 18.9 C 0 km/h
1070 31-07-2008 09:35:42 19.7 C 13.75 g/m*3 19.7 C 0 km/h
1071 31-07-2008 10:05:42 21 C 14.29 g/m*3 21 C 0 km/h
1072 31-07-2008 10:35:42 22.9 C 15.12 g/m*3 22.9 C 0 km/h
1073 31-07-2008 11:05:42 24.8 C 13.88 g/m*3 24.8 C 0 km/h
1074 31-07-2008 11:35:42 26.6 C 13.84 g/m*3 26.6 C 0 km/h
1075 31-07-2008 12:05:42 27.8 C 13.18 g/m*3 27.8 C 0 km/h
Sensor: Nr:Datum:Temp:Abs-Feuchte:Windchill:Wind:
Aussen-T/F 1076 31-07-2008 12:35:42 29.5 C 12.4 g/m*3 29.5 C 0 km/h
1077 31-07-2008 13:05:42 30.7 C 11.34 g/m*3 30.7 C 0 km/h
1078 31-07-2008 13:35:42 31.6 C 9.91 g/m*3 31.6 C 0 km/h
1079 31-07-2008 14:05:42 31.4 C 9.81 g/m*3 31.4 C 0 km/h
1080 31-07-2008 14:35:42 30.8 C 10.76 g/m*3 30.8 C 0 km/h
1081 31-07-2008 15:05:43 31.5 C 10.19 g/m*3 31.5 C 0 km/h
1082 31-07-2008 15:35:43 31.5 C 10.52 g/m*3 31.5 C 0 km/h
1083 31-07-2008 16:05:43 33.3 C 9.04 g/m*3 33.3 C 0 km/h
1084 31-07-2008 16:35:43 33.8 C 8.54 g/m*3 33.8 C 0 km/h
1085 31-07-2008 17:05:43 33.7 C 8.49 g/m*3 33.7 C 0 km/h
1086 31-07-2008 17:35:43 33.9 C 7.84 g/m*3 33.9 C 0 km/h
1087 31-07-2008 18:05:43 34.1 C 8.3 g/m*3 34.1 C 0 km/h
1088 31-07-2008 18:35:43 33.8 C 8.91 g/m*3 33.8 C 0 km/h
1089 31-07-2008 19:05:43 33.3 C 9.04 g/m*3 33.3 C 0 km/h
1090 31-07-2008 19:35:43 32.9 C 9.56 g/m*3 32.9 C 0 km/h
1091 31-07-2008 20:05:43 32 C 10.47 g/m*3 32 C 0 km/h
1092 31-07-2008 20:35:43 29.7 C 12.23 g/m*3 29.7 C 0 km/h
1093 31-07-2008 21:05:43 27.9 C 12.17 g/m*3 27.9 C 0 km/h
1094 31-07-2008 21:35:43 26.8 C 12.22 g/m*3 26.8 C 0 km/h
1095 31-07-2008 22:05:43 26.1 C 11.75 g/m*3 26.1 C 0 km/h
1096 31-07-2008 22:35:43 25.6 C 11.67 g/m*3 25.6 C 0 km/h
1097 31-07-2008 23:05:43 25.2 C 11.87 g/m*3 25.2 C 0 km/h
1098 31-07-2008 23:35:43 24.9 C 11.9 g/m*3 24.9 C 0 km/h
1099 01-08-2008 00:05:43 24.6 C 11.93 g/m*3 24.6 C 0 km/h
1100 01-08-2008 00:35:44 24.5 C 12.53 g/m*3 24.5 C 0 km/h
Sensor: Nr:Datum:Temp:Abs-Feuchte:Windchill:Wind:
Aussen-T/F 1101 01-08-2008 01:05:44 24.8 C 12.29 g/m*3 24.8 C 0 km/h
1102 01-08-2008 01:35:44 24.6 C 12.38 g/m*3 24.6 C 0 km/h
1103 01-08-2008 02:05:44 24.1 C 12.69 g/m*3 24.1 C 0 km/h
1104 01-08-2008 02:35:44 23.8 C 13.34 g/m*3 23.8 C 0 km/h
1105 01-08-2008 03:05:44 23.7 C 13.48 g/m*3 23.7 C 0 km/h
1106 01-08-2008 03:35:44 23 C 13.57 g/m*3 23 C 0 km/h
1107 01-08-2008 04:05:44 22.8 C 13.61 g/m*3 22.8 C 0 km/h
1108 01-08-2008 04:35:44 22.6 C 13.66 g/m*3 22.6 C 0 km/h
1109 01-08-2008 05:05:44 22.5 C 13.98 g/m*3 22.5 C 0 km/h
1110 01-08-2008 05:35:44 22.1 C 14.05 g/m*3 22.1 C 0 km/h
1111 01-08-2008 06:05:44 22.2 C 13.94 g/m*3 22.2 C 0 km/h
1112 01-08-2008 06:35:44 22.4 C 13.9 g/m*3 22.4 C 0 km/h
1113 01-08-2008 07:05:44 22.7 C 13.54 g/m*3 22.7 C 0 km/h
1114 01-08-2008 07:35:44 23.4 C 13.67 g/m*3 23.4 C 0 km/h
1115 01-08-2008 08:05:44 23.4 C 13.46 g/m*3 23.4 C 0 km/h
1116 01-08-2008 08:35:44 23.7 C 13.69 g/m*3 23.7 C 0 km/h
1117 01-08-2008 09:05:44 23.8 C 12.48 g/m*3 23.8 C 0 km/h
1118 01-08-2008 09:35:44 24.5 C 12.76 g/m*3 24.5 C 0 km/h
1119 01-08-2008 10:05:45 24.9 C 12.36 g/m*3 24.9 C 0 km/h
1120 01-08-2008 10:35:45 26.3 C 11.64 g/m*3 26.3 C 0 km/h
1121 01-08-2008 11:05:45 27.3 C 11.51 g/m*3 27.3 C 0 km/h
1122 01-08-2008 11:35:45 27.7 C 10.7 g/m*3 27.7 C 0 km/h
1123 01-08-2008 12:05:45 27.7 C 9.9 g/m*3 27.7 C 0 km/h
1124 01-08-2008 12:35:45 28.2 C 8.8 g/m*3 28.2 C 0 km/h
1125 01-08-2008 13:05:45 28.2 C 8.52 g/m*3 28.2 C 0 km/h
Sensor: Nr:Datum:Temp:Abs-Feuchte:Windchill:Wind:
Aussen-T/F 1126 01-08-2008 13:35:45 26.5 C 9.26 g/m*3 26.5 C 0 km/h
1127 01-08-2008 14:05:45 26.3 C 9.41 g/m*3 26.3 C 0 km/h
1128 01-08-2008 14:35:45 26.1 C 9.55 g/m*3 26.1 C 0 km/h
1129 01-08-2008 15:05:45 28.2 C 8.8 g/m*3 28.2 C 0 km/h
1130 01-08-2008 15:35:45 29.5 C 8.85 g/m*3 29.5 C 0 km/h
1131 01-08-2008 16:05:45 28.2 C 8.8 g/m*3 28.2 C 0 km/h
1132 01-08-2008 16:35:45 29.3 C 8.47 g/m*3 29.3 C 0 km/h
1133 01-08-2008 17:05:45 28.4 C 8.34 g/m*3 28.4 C 0 km/h
1134 01-08-2008 17:35:45 26.8 C 8.14 g/m*3 26.8 C 0 km/h
1135 01-08-2008 18:05:45 26.3 C 7.92 g/m*3 26.3 C 0 km/h
1136 01-08-2008 18:35:45 26.4 C 7.97 g/m*3 26.4 C 0 km/h
1137 01-08-2008 19:05:45 26.9 C 7.68 g/m*3 26.9 C 0 km/h
1138 01-08-2008 19:35:46 27.2 C 7.03 g/m*3 27.2 C 0 km/h
1139 01-08-2008 20:05:46 25.6 C 6.43 g/m*3 25.6 C 0 km/h
1140 01-08-2008 20:35:46 24.4 C 6.45 g/m*3 24.4 C 0 km/h
1141 01-08-2008 21:05:46 23.7 C 7.06 g/m*3 23.7 C 0 km/h
1142 01-08-2008 21:35:46 23.1 C 7.44 g/m*3 23.1 C 0 km/h
1143 01-08-2008 22:05:46 22.4 C 7.55 g/m*3 22.4 C 0 km/h
1144 01-08-2008 22:35:46 22 C 7.96 g/m*3 22 C 0 km/h
1145 01-08-2008 23:05:46 21.6 C 8.16 g/m*3 21.6 C 0 km/h
1146 01-08-2008 23:35:46 20.6 C 8.59 g/m*3 20.6 C 0 km/h
1147 02-08-2008 00:05:46 19.6 C 8.61 g/m*3 19.6 C 0 km/h
1148 02-08-2008 00:35:46 19 C 8.8 g/m*3 19 C 0 km/h
1149 02-08-2008 01:05:46 18.4 C 9.12 g/m*3 18.4 C 0 km/h
1150 02-08-2008 01:35:46 18.1 C 9.27 g/m*3 18.1 C 0 km/h
Sensor: Nr:Datum:Temp:Abs-Feuchte:Windchill:Wind:
Aussen-T/F 1151 02-08-2008 02:05:46 17.2 C 9.52 g/m*3 17.2 C 0 km/h
1152 02-08-2008 02:35:46 16.9 C 9.78 g/m*3 16.9 C 0 km/h
1153 02-08-2008 03:05:46 16.6 C 9.75 g/m*3 16.6 C 0 km/h
1154 02-08-2008 03:35:46 16.6 C 9.75 g/m*3 16.6 C 0 km/h
1155 02-08-2008 04:05:46 16.3 C 9.85 g/m*3 16.3 C 0 km/h
1156 02-08-2008 04:35:46 16.6 C 9.89 g/m*3 16.6 C 0 km/h
1157 02-08-2008 05:05:47 16.1 C 9.73 g/m*3 16.1 C 0 km/h
1158 02-08-2008 05:35:47 15.7 C 9.9 g/m*3 15.7 C 0 km/h
1159 02-08-2008 06:05:47 15.5 C 10.05 g/m*3 15.5 C 0 km/h
1160 02-08-2008 06:35:47 16.1 C 10.28 g/m*3 16.1 C 0 km/h
1161 02-08-2008 07:05:47 16.6 C 10.45 g/m*3 16.6 C 0 km/h
1162 02-08-2008 07:35:47 17.2 C 10.4 g/m*3 17.2 C 0 km/h
1163 02-08-2008 08:05:47 18 C 10.29 g/m*3 18 C 0 km/h
1164 02-08-2008 08:35:47 18.5 C 10.13 g/m*3 18.5 C 0 km/h
1165 02-08-2008 09:05:47 20 C 9.85 g/m*3 20 C 0 km/h
1166 02-08-2008 09:35:47 20.4 C 10.26 g/m*3 20.4 C 0 km/h
1167 02-08-2008 10:05:47 21.2 C 10.38 g/m*3 21.2 C 0 km/h
1168 02-08-2008 10:35:47 22 C 8.93 g/m*3 22 C 0 km/h
1169 02-08-2008 11:05:47 22.9 C 8.58 g/m*3 22.9 C 0 km/h
1170 02-08-2008 11:35:47 23.6 C 8.08 g/m*3 23.6 C 0 km/h
1171 02-08-2008 12:05:47 24.4 C 7.79 g/m*3 24.4 C 0 km/h
1172 02-08-2008 12:35:47 25.6 C 7.38 g/m*3 25.6 C 0 km/h
1173 02-08-2008 13:05:47 26.9 C 6.91 g/m*3 26.9 C 0 km/h
1174 02-08-2008 13:35:47 27 C 6.95 g/m*3 27 C 0 km/h
1175 02-08-2008 14:05:47 26.9 C 6.65 g/m*3 26.9 C 0 km/h
Sensor: Nr:Datum:Temp:Abs-Feuchte:Windchill:Wind:
Aussen-T/F 1176 02-08-2008 14:35:48 26.5 C 7.01 g/m*3 26.5 C 0 km/h
1177 02-08-2008 15:05:48 27 C 6.95 g/m*3 27 C 0 km/h
1178 02-08-2008 15:35:48 27.3 C 6.8 g/m*3 27.3 C 0 km/h
1179 02-08-2008 16:05:48 26.9 C 6.91 g/m*3 26.9 C 0 km/h
1180 02-08-2008 16:35:48 23.3 C 9.62 g/m*3 23.3 C 0 km/h
1181 02-08-2008 17:05:48 24.6 C 8.55 g/m*3 24.6 C 0 km/h
1182 02-08-2008 17:35:02 24.9 C 8.24 g/m*3 24.9 C 0 km/h
1183 02-08-2008 18:05:02 24.7 C 8.15 g/m*3 24.7 C 0 km/h
1184 02-08-2008 18:35:02 24.1 C 8.53 g/m*3 24.1 C 0 km/h
1185 02-08-2008 19:05:04 24.7 C 8.83 g/m*3 24.7 C 0 km/h
1186 02-08-2008 19:35:02 24.1 C 8.1 g/m*3 24.1 C 0 km/h
1187 02-08-2008 20:05:02 23.7 C 8.34 g/m*3 23.7 C 0 km/h
1188 02-08-2008 20:35:01 22.8 C 8.94 g/m*3 22.8 C 0 km/h
1189 02-08-2008 21:05:03 22 C 8.93 g/m*3 22 C 0 km/h
1190 02-08-2008 21:35:03 21.8 C 9.4 g/m*3 21.8 C 0 km/h
1191 02-08-2008 22:05:04 21.5 C 9.62 g/m*3 21.5 C 0 km/h
1192 02-08-2008 22:35:03 21.2 C 10.01 g/m*3 21.2 C 0 km/h
1193 02-08-2008 23:05:02 20.7 C 10.26 g/m*3 20.7 C 0 km/h
1194 02-08-2008 23:35:02 20.6 C 10.74 g/m*3 20.6 C 0 km/h
1195 03-08-2008 00:05:03 20.4 C 11.14 g/m*3 20.4 C 0 km/h
1196 03-08-2008 00:35:03 19 C 12.06 g/m*3 19 C 0 km/h
1197 03-08-2008 01:05:02 19.2 C 12.2 g/m*3 19.2 C 0 km/h
1198 03-08-2008 01:35:03 19.6 C 11.99 g/m*3 19.6 C 0 km/h
1199 03-08-2008 02:05:02 18.4 C 13.05 g/m*3 18.4 C 0 km/h
1200 03-08-2008 02:35:03 18.4 C 13.68 g/m*3 18.4 C 0 km/h
Sensor: Nr:Datum:Temp:Abs-Feuchte:Windchill:Wind:
Aussen-T/F 1201 03-08-2008 03:06:03 18.2 C 13.68 g/m*3 18.2 C 0 km/h
1202 03-08-2008 03:36:02 18.2 C 13.68 g/m*3 18.2 C 0 km/h
1203 03-08-2008 04:06:02 17.7 C 12.98 g/m*3 17.7 C 0 km/h
1204 03-08-2008 04:36:02 17.6 C 13.05 g/m*3 17.6 C 0 km/h
1205 03-08-2008 05:06:01 17.3 C 12.96 g/m*3 17.3 C 0 km/h
1206 03-08-2008 05:36:01 17.5 C 13.27 g/m*3 17.5 C 0 km/h
1207 03-08-2008 06:06:03 17.5 C 13.27 g/m*3 17.5 C 0 km/h
1208 03-08-2008 06:36:03 17.5 C 13.27 g/m*3 17.5 C 0 km/h
1209 03-08-2008 07:06:02 17.7 C 12.82 g/m*3 17.7 C 0 km/h
1210 03-08-2008 07:36:02 17.8 C 11.99 g/m*3 17.8 C 0 km/h
1211 03-08-2008 08:06:02 17.9 C 10.84 g/m*3 17.9 C 0 km/h
1212 03-08-2008 08:36:02 18.3 C 10.79 g/m*3 18.3 C 0 km/h
1213 03-08-2008 09:06:02 19 C 10.1 g/m*3 19 C 0 km/h
1214 03-08-2008 09:36:02 19.5 C 10.41 g/m*3 19.5 C 0 km/h
1215 03-08-2008 10:06:02 20.1 C 9.91 g/m*3 20.1 C 0 km/h
1216 03-08-2008 10:36:02 21.1 C 9.95 g/m*3 21.1 C 0 km/h
1217 03-08-2008 11:06:01 22 C 9.7 g/m*3 22 C 0 km/h
1218 03-08-2008 11:36:01 23.6 C 9.57 g/m*3 23.6 C 0 km/h
1219 03-08-2008 12:00:01 22.6 C 9.24 g/m*3 22.6 C 0 km/h
1220 03-08-2008 12:12:02 22.6 C 9.04 g/m*3 22.6 C 0 km/h
1221 03-08-2008 12:24:01 22.5 C 8.99 g/m*3 22.5 C 0 km/h
1222 03-08-2008 12:36:02 23 C 8.84 g/m*3 23 C 0 km/h
1223 03-08-2008 12:48:02 23.1 C 9.1 g/m*3 23.1 C 0 km/h
1224 03-08-2008 13:00:02 23.4 C 9.04 g/m*3 23.4 C 0 km/h
1225 03-08-2008 13:12:01 23.3 C 9.62 g/m*3 23.3 C 0 km/h
Sensor: Nr:Datum:Temp:Abs-Feuchte:Windchill:Wind:
Aussen-T/F 1226 03-08-2008 13:24:02 23.2 C 9.15 g/m*3 23.2 C 0 km/h
1227 03-08-2008 13:36:02 24.6 C 9.23 g/m*3 24.6 C 0 km/h
1228 03-08-2008 13:48:02 26.7 C 8.86 g/m*3 26.7 C 0 km/h
1229 03-08-2008 14:00:02 26.5 C 9.01 g/m*3 26.5 C 0 km/h
1230 03-08-2008 14:12:02 26.7 C 8.86 g/m*3 26.7 C 0 km/h
1231 03-08-2008 14:24:01 26.2 C 9.11 g/m*3 26.2 C 0 km/h
1232 03-08-2008 14:36:02 27.2 C 9.11 g/m*3 27.2 C 0 km/h
1233 03-08-2008 14:48:02 27.1 C 8.8 g/m*3 27.1 C 0 km/h
1234 03-08-2008 15:00:03 27.4 C 8.95 g/m*3 27.4 C 0 km/h
1235 03-08-2008 15:12:02 27.6 C 8.78 g/m*3 27.6 C 0 km/h
1236 03-08-2008 15:24:03 26.9 C 8.7 g/m*3 26.9 C 0 km/h
1237 03-08-2008 15:36:03 27 C 9.01 g/m*3 27 C 0 km/h
1238 03-08-2008 15:48:02 27.3 C 9.16 g/m*3 27.3 C 0 km/h
1239 03-08-2008 16:00:02 27.7 C 9.36 g/m*3 27.7 C 0 km/h
1240 03-08-2008 16:12:02 27.9 C 9.2 g/m*3 27.9 C 0 km/h
1241 03-08-2008 16:24:02 28 C 8.97 g/m*3 28 C 0 km/h
1242 03-08-2008 16:36:01 27.2 C 9.11 g/m*3 27.2 C 0 km/h
1243 03-08-2008 16:48:02 27.2 C 9.11 g/m*3 27.2 C 0 km/h
1244 03-08-2008 17:00:02 28 C 8.97 g/m*3 28 C 0 km/h
1245 03-08-2008 17:12:03 28 C 8.7 g/m*3 28 C 0 km/h
1246 03-08-2008 17:48:02 28.4 C 8.62 g/m*3 28.4 C 0 km/h
1247 03-08-2008 18:00:02 28.4 C 8.9 g/m*3 28.4 C 0 km/h
1248 03-08-2008 18:12:03 28.8 C 8.81 g/m*3 28.8 C 0 km/h
1249 03-08-2008 18:24:03 27.5 C 8.73 g/m*3 27.5 C 0 km/h
1250 03-08-2008 18:36:02 27.2 C 8.85 g/m*3 27.2 C 0 km/h
Sensor: Nr:Datum:Temp:Abs-Feuchte:Windchill:Wind:
Aussen-T/F 1251 03-08-2008 18:48:02 27.3 C 9.16 g/m*3 27.3 C 0 km/h
1252 03-08-2008 19:00:02 27.1 C 9.06 g/m*3 27.1 C 0 km/h
1253 03-08-2008 19:12:02 27.3 C 9.16 g/m*3 27.3 C 0 km/h
1254 03-08-2008 19:24:02 26.6 C 9.31 g/m*3 26.6 C 0 km/h
1255 03-08-2008 19:36:02 26.1 C 9.3 g/m*3 26.1 C 0 km/h
1256 03-08-2008 19:48:02 25.8 C 9.63 g/m*3 25.8 C 0 km/h
1257 03-08-2008 20:00:03 25.7 C 9.58 g/m*3 25.7 C 0 km/h
1258 03-08-2008 20:12:02 25.3 C 9.83 g/m*3 25.3 C 0 km/h
1259 03-08-2008 20:24:02 25 C 9.67 g/m*3 25 C 0 km/h
1260 03-08-2008 20:36:02 24.8 C 10.02 g/m*3 24.8 C 0 km/h
1261 03-08-2008 20:48:02 24.7 C 10.19 g/m*3 24.7 C 0 km/h
1262 03-08-2008 21:00:02 24.5 C 10.3 g/m*3 24.5 C 0 km/h
1263 03-08-2008 21:12:02 24.3 C 10.4 g/m*3 24.3 C 0 km/h
1264 03-08-2008 21:24:02 24.1 C 10.94 g/m*3 24.1 C 0 km/h
1265 03-08-2008 21:36:03 23.6 C 11.27 g/m*3 23.6 C 0 km/h
1266 03-08-2008 21:48:02 22.6 C 12.46 g/m*3 22.6 C 0 km/h
1267 03-08-2008 22:00:02 22.7 C 12.32 g/m*3 22.7 C 0 km/h
1268 03-08-2008 22:12:03 22.9 C 12.06 g/m*3 22.9 C 0 km/h
1269 03-08-2008 22:24:02 22.7 C 11.92 g/m*3 22.7 C 0 km/h
1270 03-08-2008 22:37:04 22.6 C 11.85 g/m*3 22.6 C 0 km/h
1271 03-08-2008 22:49:04 22.5 C 11.98 g/m*3 22.5 C 0 km/h
1272 03-08-2008 23:01:05 22.2 C 11.98 g/m*3 22.2 C 0 km/h
1273 03-08-2008 23:13:05 22.1 C 11.91 g/m*3 22.1 C 0 km/h
1274 03-08-2008 23:25:05 22 C 12.23 g/m*3 22 C 0 km/h
1275 03-08-2008 23:37:05 21.8 C 12.28 g/m*3 21.8 C 0 km/h
Sensor: Nr:Datum:Temp:Abs-Feuchte:Windchill:Wind:
Aussen-T/F 1276 03-08-2008 23:49:05 21.9 C 12.35 g/m*3 21.9 C 0 km/h
1277 04-08-2008 00:01:05 21.8 C 12.28 g/m*3 21.8 C 0 km/h
1278 04-08-2008 00:13:05 21.8 C 12.28 g/m*3 21.8 C 0 km/h
1279 04-08-2008 00:25:05 21.6 C 12.33 g/m*3 21.6 C 0 km/h
1280 04-08-2008 00:37:05 21.3 C 12.3 g/m*3 21.3 C 0 km/h
1281 04-08-2008 00:49:05 21.3 C 12.3 g/m*3 21.3 C 0 km/h
1282 04-08-2008 01:01:05 21.6 C 12.14 g/m*3 21.6 C 0 km/h
1283 04-08-2008 01:13:05 21.8 C 11.9 g/m*3 21.8 C 0 km/h
1284 04-08-2008 01:25:05 22.1 C 11.91 g/m*3 22.1 C 0 km/h
1285 04-08-2008 01:37:05 22.6 C 11.85 g/m*3 22.6 C 0 km/h
1286 04-08-2008 01:49:05 22.9 C 11.65 g/m*3 22.9 C 0 km/h
1287 04-08-2008 02:01:05 23.1 C 11.37 g/m*3 23.1 C 0 km/h
1288 04-08-2008 02:13:05 23.3 C 11.29 g/m*3 23.3 C 0 km/h
1289 04-08-2008 02:25:05 23.4 C 11.14 g/m*3 23.4 C 0 km/h
1290 04-08-2008 02:37:05 23.5 C 11.21 g/m*3 23.5 C 0 km/h
1291 04-08-2008 02:49:06 23.4 C 11.14 g/m*3 23.4 C 0 km/h
1292 04-08-2008 03:01:06 23.3 C 11.29 g/m*3 23.3 C 0 km/h
1293 04-08-2008 03:13:06 23.2 C 11.23 g/m*3 23.2 C 0 km/h
1294 04-08-2008 03:25:06 23 C 11.3 g/m*3 23 C 0 km/h
1295 04-08-2008 03:37:06 22.9 C 11.44 g/m*3 22.9 C 0 km/h
1296 04-08-2008 03:49:06 21.5 C 12.63 g/m*3 21.5 C 0 km/h
1297 04-08-2008 04:01:06 19.8 C 13.84 g/m*3 19.8 C 0 km/h
1298 04-08-2008 04:13:06 19.5 C 14.1 g/m*3 19.5 C 0 km/h
1299 04-08-2008 04:25:06 19.4 C 14.18 g/m*3 19.4 C 0 km/h
1300 04-08-2008 04:37:06 19.1 C 13.93 g/m*3 19.1 C 0 km/h
Sensor: Nr:Datum:Temp:Abs-Feuchte:Windchill:Wind:
Aussen-T/F 1301 04-08-2008 04:49:06 19.2 C 13.36 g/m*3 19.2 C 0 km/h
1302 04-08-2008 05:01:06 18.9 C 13.28 g/m*3 18.9 C 0 km/h
1303 04-08-2008 05:13:06 18.8 C 13.53 g/m*3 18.8 C 0 km/h
1304 04-08-2008 05:25:06 18.4 C 13.21 g/m*3 18.4 C 0 km/h
1305 04-08-2008 05:37:06 17.9 C 12.83 g/m*3 17.9 C 0 km/h
1306 04-08-2008 05:49:06 17.7 C 12.82 g/m*3 17.7 C 0 km/h
1307 04-08-2008 06:01:06 17.6 C 12.9 g/m*3 17.6 C 0 km/h
1308 04-08-2008 06:13:06 17.5 C 12.97 g/m*3 17.5 C 0 km/h
1309 04-08-2008 06:25:06 17.2 C 12.89 g/m*3 17.2 C 0 km/h
1310 04-08-2008 06:37:06 16.9 C 12.8 g/m*3 16.9 C 0 km/h
1311 04-08-2008 06:49:06 16.8 C 12.72 g/m*3 16.8 C 0 km/h
1312 04-08-2008 07:01:07 16.6 C 12.71 g/m*3 16.6 C 0 km/h
1313 04-08-2008 07:13:07 16.3 C 12.49 g/m*3 16.3 C 0 km/h
1314 04-08-2008 07:25:07 16.4 C 12.56 g/m*3 16.4 C 0 km/h
1315 04-08-2008 07:37:07 16.5 C 12.64 g/m*3 16.5 C 0 km/h
1316 04-08-2008 07:49:07 16.5 C 12.64 g/m*3 16.5 C 0 km/h
1317 04-08-2008 08:01:07 17 C 12.73 g/m*3 17 C 0 km/h
1318 04-08-2008 08:13:07 17.2 C 12.59 g/m*3 17.2 C 0 km/h
1319 04-08-2008 08:25:07 17.4 C 12.6 g/m*3 17.4 C 0 km/h
1320 04-08-2008 08:37:07 17.9 C 12.98 g/m*3 17.9 C 0 km/h
1321 04-08-2008 08:49:07 18.1 C 12.98 g/m*3 18.1 C 0 km/h
1322 04-08-2008 09:01:07 18 C 12.75 g/m*3 18 C 0 km/h
1323 04-08-2008 09:13:07 17.9 C 12.67 g/m*3 17.9 C 0 km/h
1324 04-08-2008 09:25:04 18.1 C 12.36 g/m*3 18.1 C 0 km/h
1325 04-08-2008 09:37:04 18.6 C 12.73 g/m*3 18.6 C 0 km/h
Sensor: Nr:Datum:Temp:Abs-Feuchte:Windchill:Wind:
Aussen-T/F 1326 04-08-2008 09:49:02 19.1 C 12.62 g/m*3 19.1 C 0 km/h
1327 04-08-2008 10:01:02 19.1 C 11.8 g/m*3 19.1 C 0 km/h
1328 04-08-2008 10:13:02 19 C 11.41 g/m*3 19 C 0 km/h
1329 04-08-2008 10:25:01 19.4 C 11.85 g/m*3 19.4 C 0 km/h
1330 04-08-2008 10:37:02 19.9 C 11.34 g/m*3 19.9 C 0 km/h
1331 04-08-2008 10:49:02 20.4 C 10.08 g/m*3 20.4 C 0 km/h
1332 04-08-2008 11:01:03 20.7 C 9.9 g/m*3 20.7 C 0 km/h
1333 04-08-2008 11:13:03 20.8 C 9.42 g/m*3 20.8 C 0 km/h
1334 04-08-2008 11:25:02 21.4 C 9.19 g/m*3 21.4 C 0 km/h
1335 04-08-2008 11:37:02 21.8 C 9.4 g/m*3 21.8 C 0 km/h
1336 04-08-2008 11:49:02 22 C 8.73 g/m*3 22 C 0 km/h
1337 04-08-2008 12:01:02 22.6 C 8.84 g/m*3 22.6 C 0 km/h
1338 04-08-2008 12:13:02 22.9 C 8.38 g/m*3 22.9 C 0 km/h
1339 04-08-2008 12:25:02 23.7 C 7.91 g/m*3 23.7 C 0 km/h
1340 04-08-2008 12:37:02 23.1 C 7.65 g/m*3 23.1 C 0 km/h
1341 04-08-2008 12:49:02 23.4 C 7.57 g/m*3 23.4 C 0 km/h
1342 04-08-2008 13:01:02 24.4 C 7.12 g/m*3 24.4 C 0 km/h
1343 04-08-2008 13:13:02 24 C 6.74 g/m*3 24 C 0 km/h
1344 04-08-2008 13:25:02 24 C 6.53 g/m*3 24 C 0 km/h
1345 04-08-2008 13:37:02 24.5 C 6.94 g/m*3 24.5 C 0 km/h
1346 04-08-2008 13:49:03 24.8 C 6.37 g/m*3 24.8 C 0 km/h
1347 04-08-2008 14:01:03 25.7 C 6.46 g/m*3 25.7 C 0 km/h
1348 04-08-2008 14:13:03 25.4 C 7.06 g/m*3 25.4 C 0 km/h
1349 04-08-2008 14:25:03 24.8 C 7.97 g/m*3 24.8 C 0 km/h
1350 04-08-2008 14:37:02 24.4 C 8.23 g/m*3 24.4 C 0 km/h
Sensor: Nr:Datum:Temp:Abs-Feuchte:Windchill:Wind:
Aussen-T/F 1351 04-08-2008 14:49:02 25.3 C 7.26 g/m*3 25.3 C 0 km/h
1352 04-08-2008 15:01:01 25.2 C 6.52 g/m*3 25.2 C 0 km/h
1353 04-08-2008 15:13:01 24.7 C 6.34 g/m*3 24.7 C 0 km/h
1354 04-08-2008 15:25:02 25.1 C 6.48 g/m*3 25.1 C 0 km/h
1355 04-08-2008 15:37:01 25.9 C 6.29 g/m*3 25.9 C 0 km/h
1356 04-08-2008 15:49:02 27.1 C 5.69 g/m*3 27.1 C 0 km/h
1357 04-08-2008 16:01:02 26.2 C 5.66 g/m*3 26.2 C 0 km/h
1358 04-08-2008 16:13:02 26.9 C 5.63 g/m*3 26.9 C 0 km/h
1359 04-08-2008 16:25:02 26.8 C 5.6 g/m*3 26.8 C 0 km/h
1360 04-08-2008 16:37:02 25.8 C 5.3 g/m*3 25.8 C 0 km/h
1361 04-08-2008 16:49:03 26.3 C 6.19 g/m*3 26.3 C 0 km/h
1362 04-08-2008 17:01:02 27.2 C 5.99 g/m*3 27.2 C 0 km/h
1363 04-08-2008 17:13:02 26.3 C 6.19 g/m*3 26.3 C 0 km/h
1364 04-08-2008 17:25:03 26.7 C 5.57 g/m*3 26.7 C 0 km/h
1365 04-08-2008 17:37:02 26.2 C 5.42 g/m*3 26.2 C 0 km/h
1366 04-08-2008 17:49:02 26.3 C 5.2 g/m*3 26.3 C 0 km/h
1367 04-08-2008 18:01:02 26.5 C 5.51 g/m*3 26.5 C 0 km/h
1368 04-08-2008 18:13:02 26.6 C 5.54 g/m*3 26.6 C 0 km/h
1369 04-08-2008 18:25:02 25.9 C 5.57 g/m*3 25.9 C 0 km/h
1370 04-08-2008 18:37:02 26.1 C 5.63 g/m*3 26.1 C 0 km/h
1371 04-08-2008 18:49:01 25.7 C 5.99 g/m*3 25.7 C 0 km/h
1372 04-08-2008 19:01:02 26 C 5.6 g/m*3 26 C 0 km/h
1373 04-08-2008 19:13:02 25.9 C 6.29 g/m*3 25.9 C 0 km/h
1374 04-08-2008 19:25:01 26.1 C 6.12 g/m*3 26.1 C 0 km/h
1375 04-08-2008 19:37:02 26.1 C 5.88 g/m*3 26.1 C 0 km/h
Sensor: Nr:Datum:Temp:Abs-Feuchte:Windchill:Wind:
Aussen-T/F 1376 04-08-2008 19:49:02 25.4 C 5.89 g/m*3 25.4 C 0 km/h
1377 04-08-2008 20:01:02 24.5 C 5.82 g/m*3 24.5 C 0 km/h
1378 04-08-2008 20:13:02 23.9 C 6.06 g/m*3 23.9 C 0 km/h
1379 04-08-2008 20:25:02 23.4 C 6.1 g/m*3 23.4 C 0 km/h
1380 04-08-2008 20:37:02 23.1 C 6.41 g/m*3 23.1 C 0 km/h
1381 04-08-2008 20:49:02 22.5 C 6.99 g/m*3 22.5 C 0 km/h
1382 04-08-2008 21:01:01 21.8 C 6.91 g/m*3 21.8 C 0 km/h
1383 04-08-2008 21:13:01 21.5 C 7.17 g/m*3 21.5 C 0 km/h
1384 04-08-2008 21:25:02 21 C 7.14 g/m*3 21 C 0 km/h
1385 04-08-2008 21:37:01 20.6 C 7.16 g/m*3 20.6 C 0 km/h
1386 04-08-2008 21:49:03 20.4 C 7.25 g/m*3 20.4 C 0 km/h
1387 04-08-2008 22:01:02 20.3 C 7.39 g/m*3 20.3 C 0 km/h
1388 04-08-2008 22:13:02 19.9 C 7.56 g/m*3 19.9 C 0 km/h
1389 04-08-2008 22:25:03 19.5 C 7.55 g/m*3 19.5 C 0 km/h
1390 04-08-2008 22:38:13 19.3 C 7.8 g/m*3 19.3 C 0 km/h
1391 04-08-2008 22:50:13 19.2 C 7.75 g/m*3 19.2 C 0 km/h
1392 04-08-2008 23:02:13 19.2 C 7.91 g/m*3 19.2 C 0 km/h
1393 04-08-2008 23:14:13 19.3 C 7.8 g/m*3 19.3 C 0 km/h
1394 04-08-2008 23:26:13 19.1 C 8.03 g/m*3 19.1 C 0 km/h
1395 04-08-2008 23:38:13 18.9 C 8.1 g/m*3 18.9 C 0 km/h
1396 04-08-2008 23:50:13 18.5 C 8.23 g/m*3 18.5 C 0 km/h
1397 05-08-2008 00:02:13 18.4 C 8.18 g/m*3 18.4 C 0 km/h
1398 05-08-2008 00:14:14 18.2 C 8.24 g/m*3 18.2 C 0 km/h
1399 05-08-2008 00:26:14 18.1 C 8.34 g/m*3 18.1 C 0 km/h
1400 05-08-2008 00:38:14 17.7 C 8.75 g/m*3 17.7 C 0 km/h
Sensor: Nr:Datum:Temp:Abs-Feuchte:Windchill:Wind:
Aussen-T/F 1401 05-08-2008 00:50:14 17.4 C 8.6 g/m*3 17.4 C 0 km/h
1402 05-08-2008 01:02:14 17.2 C 8.64 g/m*3 17.2 C 0 km/h
1403 05-08-2008 01:14:14 16.8 C 8.86 g/m*3 16.8 C 0 km/h
1404 05-08-2008 01:26:14 16.6 C 8.76 g/m*3 16.6 C 0 km/h
1405 05-08-2008 01:38:14 16.4 C 8.93 g/m*3 16.4 C 0 km/h
1406 05-08-2008 01:50:14 16.2 C 8.96 g/m*3 16.2 C 0 km/h
1407 05-08-2008 02:02:14 16 C 8.99 g/m*3 16 C 0 km/h
1408 05-08-2008 02:14:14 15.8 C 9.02 g/m*3 15.8 C 0 km/h
1409 05-08-2008 02:26:14 15.6 C 8.91 g/m*3 15.6 C 0 km/h
1410 05-08-2008 02:38:14 15.5 C 9.12 g/m*3 15.5 C 0 km/h
1411 05-08-2008 02:50:14 15.4 C 8.8 g/m*3 15.4 C 0 km/h
1412 05-08-2008 03:02:14 15.2 C 8.44 g/m*3 15.2 C 0 km/h
1413 05-08-2008 03:14:14 15.3 C 8.62 g/m*3 15.3 C 0 km/h
1414 05-08-2008 03:26:14 15.1 C 8.39 g/m*3 15.1 C 0 km/h
1415 05-08-2008 03:38:14 15 C 8.59 g/m*3 15 C 0 km/h
1416 05-08-2008 03:50:14 14.8 C 8.74 g/m*3 14.8 C 0 km/h
1417 05-08-2008 04:02:14 14.7 C 8.56 g/m*3 14.7 C 0 km/h
1418 05-08-2008 04:14:14 14.7 C 8.18 g/m*3 14.7 C 0 km/h
1419 05-08-2008 04:26:15 14.5 C 8.58 g/m*3 14.5 C 0 km/h
1420 05-08-2008 04:38:15 14.2 C 8.55 g/m*3 14.2 C 0 km/h
1421 05-08-2008 04:50:15 14.2 C 8.43 g/m*3 14.2 C 0 km/h
1422 05-08-2008 05:02:15 14.1 C 8.25 g/m*3 14.1 C 0 km/h
1423 05-08-2008 05:14:15 14 C 8.32 g/m*3 14 C 0 km/h
1424 05-08-2008 05:26:15 13.9 C 8.63 g/m*3 13.9 C 0 km/h
1425 05-08-2008 05:38:15 13.7 C 8.64 g/m*3 13.7 C 0 km/h
Sensor: Nr:Datum:Temp:Abs-Feuchte:Windchill:Wind:
Aussen-T/F 1426 05-08-2008 05:50:15 13.5 C 8.54 g/m*3 13.5 C 0 km/h
1427 05-08-2008 06:02:15 13.5 C 8.54 g/m*3 13.5 C 0 km/h
1428 05-08-2008 06:14:15 13.4 C 8.6 g/m*3 13.4 C 0 km/h
1429 05-08-2008 06:26:15 13.4 C 8.6 g/m*3 13.4 C 0 km/h
1430 05-08-2008 06:38:15 13.4 C 8.6 g/m*3 13.4 C 0 km/h
1431 05-08-2008 06:50:15 13.5 C 8.66 g/m*3 13.5 C 0 km/h
1432 05-08-2008 07:02:15 13.6 C 8.71 g/m*3 13.6 C 0 km/h
1433 05-08-2008 07:14:15 13.7 C 8.76 g/m*3 13.7 C 0 km/h
1434 05-08-2008 07:26:15 13.9 C 8.75 g/m*3 13.9 C 0 km/h
1435 05-08-2008 07:38:15 14.2 C 8.67 g/m*3 14.2 C 0 km/h
1436 05-08-2008 07:50:15 14.4 C 8.53 g/m*3 14.4 C 0 km/h
1437 05-08-2008 08:02:15 14.6 C 8.63 g/m*3 14.6 C 0 km/h
1438 05-08-2008 08:14:15 14.8 C 8.61 g/m*3 14.8 C 0 km/h
1439 05-08-2008 08:26:15 15 C 8.46 g/m*3 15 C 0 km/h
1440 05-08-2008 08:38:03 15.4 C 8.54 g/m*3 15.4 C 0 km/h
1441 05-08-2008 08:50:03 15.6 C 8.38 g/m*3 15.6 C 0 km/h
1442 05-08-2008 09:02:03 15.7 C 8.56 g/m*3 15.7 C 0 km/h
1443 05-08-2008 09:14:03 16.1 C 8.5 g/m*3 16.1 C 0 km/h
1444 05-08-2008 09:26:02 16.4 C 8.51 g/m*3 16.4 C 0 km/h
1445 05-08-2008 09:38:02 16.8 C 8.58 g/m*3 16.8 C 0 km/h
1446 05-08-2008 09:50:02 17.2 C 8.49 g/m*3 17.2 C 0 km/h
1447 05-08-2008 10:02:03 17.9 C 8.7 g/m*3 17.9 C 0 km/h
1448 05-08-2008 10:14:03 18 C 8.45 g/m*3 18 C 0 km/h
1449 05-08-2008 10:26:02 18.4 C 8.49 g/m*3 18.4 C 0 km/h
1450 05-08-2008 10:38:03 19.1 C 8.52 g/m*3 19.1 C 0 km/h
Sensor: Nr:Datum:Temp:Abs-Feuchte:Windchill:Wind:
Aussen-T/F 1451 05-08-2008 10:50:03 19.8 C 8.37 g/m*3 19.8 C 0 km/h
1452 05-08-2008 11:02:02 20.1 C 8.17 g/m*3 20.1 C 0 km/h
1453 05-08-2008 11:14:03 20.5 C 8.19 g/m*3 20.5 C 0 km/h
1454 05-08-2008 11:26:02 21.1 C 8.29 g/m*3 21.1 C 0 km/h
1455 05-08-2008 11:38:03 22.7 C 7.88 g/m*3 22.7 C 0 km/h
1456 05-08-2008 11:50:02 22.2 C 8.05 g/m*3 22.2 C 0 km/h
1457 05-08-2008 12:02:02 22.7 C 8.28 g/m*3 22.7 C 0 km/h
1458 05-08-2008 12:14:02 23.8 C 7.96 g/m*3 23.8 C 0 km/h
1459 05-08-2008 12:26:02 24 C 7.83 g/m*3 24 C 0 km/h
1460 05-08-2008 12:38:02 24.5 C 7.83 g/m*3 24.5 C 0 km/h
1461 05-08-2008 12:50:01 24.3 C 7.52 g/m*3 24.3 C 0 km/h
1462 05-08-2008 13:02:03 24.8 C 7.28 g/m*3 24.8 C 0 km/h
1463 05-08-2008 13:14:03 24.6 C 7.2 g/m*3 24.6 C 0 km/h
1464 05-08-2008 13:26:02 24.4 C 7.34 g/m*3 24.4 C 0 km/h
1465 05-08-2008 13:38:02 25 C 7.37 g/m*3 25 C 0 km/h
1466 05-08-2008 13:50:01 25.2 C 7.45 g/m*3 25.2 C 0 km/h
1467 05-08-2008 14:02:02 25.9 C 7.51 g/m*3 25.9 C 0 km/h
1468 05-08-2008 14:14:02 26.5 C 7.01 g/m*3 26.5 C 0 km/h
1469 05-08-2008 14:26:02 26.9 C 6.65 g/m*3 26.9 C 0 km/h
1470 05-08-2008 14:38:02 26.8 C 6.87 g/m*3 26.8 C 0 km/h
1471 05-08-2008 14:50:01 27.5 C 6.61 g/m*3 27.5 C 0 km/h
1472 05-08-2008 15:02:02 26.9 C 6.65 g/m*3 26.9 C 0 km/h
1473 05-08-2008 15:14:02 26.7 C 6.58 g/m*3 26.7 C 0 km/h
1474 05-08-2008 15:26:02 26.2 C 7.14 g/m*3 26.2 C 0 km/h
1475 05-08-2008 15:38:01 25.8 C 7.22 g/m*3 25.8 C 0 km/h
Sensor: Nr:Datum:Temp:Abs-Feuchte:Windchill:Wind:
Aussen-T/F 1476 05-08-2008 15:50:01 26.3 C 7.18 g/m*3 26.3 C 0 km/h
1477 05-08-2008 16:02:02 26.6 C 7.05 g/m*3 26.6 C 0 km/h
1478 05-08-2008 16:14:02 26.6 C 7.3 g/m*3 26.6 C 0 km/h
1479 05-08-2008 16:26:01 27.6 C 7.18 g/m*3 27.6 C 0 km/h
1480 05-08-2008 16:38:02 28.5 C 6.99 g/m*3 28.5 C 0 km/h
1481 05-08-2008 16:50:02 28.6 C 7.03 g/m*3 28.6 C 0 km/h
1482 05-08-2008 17:02:02 29.1 C 6.35 g/m*3 29.1 C 0 km/h
1483 05-08-2008 17:14:02 29.6 C 6.53 g/m*3 29.6 C 0 km/h
1484 05-08-2008 17:26:02 27.9 C 6.76 g/m*3 27.9 C 0 km/h
1485 05-08-2008 17:38:02 27.2 C 6.77 g/m*3 27.2 C 0 km/h
1486 05-08-2008 17:50:02 28.3 C 6.91 g/m*3 28.3 C 0 km/h
1487 05-08-2008 18:02:02 28.8 C 6.53 g/m*3 28.8 C 0 km/h
1488 05-08-2008 18:14:02 27.1 C 6.47 g/m*3 27.1 C 0 km/h
1489 05-08-2008 18:26:02 26.7 C 7.59 g/m*3 26.7 C 0 km/h
1490 05-08-2008 18:38:02 26.6 C 8.05 g/m*3 26.6 C 0 km/h
1491 05-08-2008 18:50:02 26.2 C 7.88 g/m*3 26.2 C 0 km/h
1492 05-08-2008 19:02:01 25.8 C 7.7 g/m*3 25.8 C 0 km/h
1493 05-08-2008 19:14:01 25.9 C 7.99 g/m*3 25.9 C 0 km/h
1494 05-08-2008 19:26:02 25.6 C 8.09 g/m*3 25.6 C 0 km/h
1495 05-08-2008 19:38:01 25.1 C 8.33 g/m*3 25.1 C 0 km/h
1496 05-08-2008 19:50:01 24.7 C 8.37 g/m*3 24.7 C 0 km/h
1497 05-08-2008 20:02:02 24.7 C 8.37 g/m*3 24.7 C 0 km/h
1498 05-08-2008 20:14:02 24.1 C 8.1 g/m*3 24.1 C 0 km/h
1499 05-08-2008 20:26:02 23.5 C 8.25 g/m*3 23.5 C 0 km/h
1500 05-08-2008 20:38:01 22.9 C 8.58 g/m*3 22.9 C 0 km/h
Sensor: Nr:Datum:Temp:Abs-Feuchte:Windchill:Wind:
Aussen-T/F 1501 05-08-2008 20:50:02 22.4 C 8.34 g/m*3 22.4 C 0 km/h
1502 05-08-2008 21:02:03 21.9 C 8.68 g/m*3 21.9 C 0 km/h
1503 05-08-2008 21:14:03 21.5 C 8.67 g/m*3 21.5 C 0 km/h
1504 05-08-2008 21:26:03 21.2 C 8.52 g/m*3 21.2 C 0 km/h
1505 05-08-2008 21:38:02 21 C 8.43 g/m*3 21 C 0 km/h
1506 05-08-2008 21:50:03 20.9 C 9.11 g/m*3 20.9 C 0 km/h
1507 05-08-2008 22:02:02 21 C 8.98 g/m*3 21 C 0 km/h
1508 05-08-2008 22:14:02 20.8 C 9.05 g/m*3 20.8 C 0 km/h
1509 05-08-2008 22:26:03 20.6 C 9.13 g/m*3 20.6 C 0 km/h
1510 05-08-2008 22:39:03 20.3 C 9.15 g/m*3 20.3 C 0 km/h
1511 05-08-2008 22:51:03 20 C 8.81 g/m*3 20 C 0 km/h
1512 05-08-2008 23:03:03 19.9 C 8.93 g/m*3 19.9 C 0 km/h
1513 05-08-2008 23:15:03 19.5 C 8.89 g/m*3 19.5 C 0 km/h
1514 05-08-2008 23:27:03 19.3 C 8.79 g/m*3 19.3 C 0 km/h
1515 05-08-2008 23:39:03 19.2 C 9.07 g/m*3 19.2 C 0 km/h
1516 05-08-2008 23:51:03 18.9 C 9.23 g/m*3 18.9 C 0 km/h
1517 06-08-2008 00:03:04 18.9 C 9.23 g/m*3 18.9 C 0 km/h
1518 06-08-2008 00:15:04 18.7 C 9.13 g/m*3 18.7 C 0 km/h
1519 06-08-2008 00:27:04 18.7 C 9.29 g/m*3 18.7 C 0 km/h
1520 06-08-2008 00:39:04 18.6 C 9.39 g/m*3 18.6 C 0 km/h
1521 06-08-2008 00:51:04 18.4 C 9.28 g/m*3 18.4 C 0 km/h
1522 06-08-2008 01:03:04 18.3 C 9.22 g/m*3 18.3 C 0 km/h
1523 06-08-2008 01:15:04 18.1 C 9.43 g/m*3 18.1 C 0 km/h
1524 06-08-2008 01:27:04 17.9 C 9.47 g/m*3 17.9 C 0 km/h
1525 06-08-2008 01:39:04 17.9 C 9.62 g/m*3 17.9 C 0 km/h
Sensor: Nr:Datum:Temp:Abs-Feuchte:Windchill:Wind:
Aussen-T/F 1526 06-08-2008 01:51:04 17.7 C 9.66 g/m*3 17.7 C 0 km/h
1527 06-08-2008 02:03:04 17.6 C 9.6 g/m*3 17.6 C 0 km/h
1528 06-08-2008 02:15:04 17.5 C 9.54 g/m*3 17.5 C 0 km/h
1529 06-08-2008 02:27:04 17.4 C 9.48 g/m*3 17.4 C 0 km/h
1530 06-08-2008 02:39:04 17.5 C 9.69 g/m*3 17.5 C 0 km/h
1531 06-08-2008 02:51:04 17.6 C 9.6 g/m*3 17.6 C 0 km/h
1532 06-08-2008 03:03:04 17.4 C 9.63 g/m*3 17.4 C 0 km/h
1533 06-08-2008 03:15:04 17 C 9.41 g/m*3 17 C 0 km/h
1534 06-08-2008 03:27:04 16.8 C 9.72 g/m*3 16.8 C 0 km/h
1535 06-08-2008 03:39:04 16.7 C 9.81 g/m*3 16.7 C 0 km/h
1536 06-08-2008 03:51:05 16.6 C 9.75 g/m*3 16.6 C 0 km/h
1537 06-08-2008 04:03:05 16.6 C 9.75 g/m*3 16.6 C 0 km/h
1538 06-08-2008 04:15:05 16.6 C 9.75 g/m*3 16.6 C 0 km/h
1539 06-08-2008 04:27:05 16.4 C 9.77 g/m*3 16.4 C 0 km/h
1540 06-08-2008 04:39:05 16.2 C 9.79 g/m*3 16.2 C 0 km/h
1541 06-08-2008 04:51:05 16 C 9.81 g/m*3 16 C 0 km/h
1542 06-08-2008 05:03:05 15.9 C 9.89 g/m*3 15.9 C 0 km/h
1543 06-08-2008 05:15:05 15.7 C 9.77 g/m*3 15.7 C 0 km/h
1544 06-08-2008 05:27:05 15.6 C 9.84 g/m*3 15.6 C 0 km/h
1545 06-08-2008 05:39:05 15.4 C 9.72 g/m*3 15.4 C 0 km/h
1546 06-08-2008 05:51:05 15.3 C 9.79 g/m*3 15.3 C 0 km/h
1547 06-08-2008 06:03:05 15.2 C 9.73 g/m*3 15.2 C 0 km/h
1548 06-08-2008 06:15:05 15.2 C 9.99 g/m*3 15.2 C 0 km/h
1549 06-08-2008 06:27:05 15.1 C 9.93 g/m*3 15.1 C 0 km/h
1550 06-08-2008 06:39:05 14.9 C 9.94 g/m*3 14.9 C 0 km/h
Sensor: Nr:Datum:Temp:Abs-Feuchte:Windchill:Wind:
Aussen-T/F 1551 06-08-2008 06:51:02 14.9 C 9.94 g/m*3 14.9 C 0 km/h
1552 06-08-2008 07:03:01 15.2 C 10.12 g/m*3 15.2 C 0 km/h
1553 06-08-2008 07:15:02 15.3 C 10.19 g/m*3 15.3 C 0 km/h
1554 06-08-2008 07:27:02 15.5 C 10.31 g/m*3 15.5 C 0 km/h
1555 06-08-2008 07:39:01 15.6 C 10.24 g/m*3 15.6 C 0 km/h
1556 06-08-2008 07:51:02 15.8 C 10.36 g/m*3 15.8 C 0 km/h
1557 06-08-2008 08:03:01 15.9 C 10.29 g/m*3 15.9 C 0 km/h
1558 06-08-2008 08:15:02 16.2 C 10.34 g/m*3 16.2 C 0 km/h
1559 06-08-2008 08:27:02 16.4 C 10.33 g/m*3 16.4 C 0 km/h
1560 06-08-2008 08:39:01 16.6 C 10.45 g/m*3 16.6 C 0 km/h
1561 06-08-2008 08:51:01 16.9 C 10.36 g/m*3 16.9 C 0 km/h
1562 06-08-2008 09:03:01 17.3 C 10.16 g/m*3 17.3 C 0 km/h
1563 06-08-2008 09:15:02 17.8 C 10.47 g/m*3 17.8 C 0 km/h
1564 06-08-2008 09:27:02 18.3 C 10.32 g/m*3 18.3 C 0 km/h
1565 06-08-2008 09:39:01 18.9 C 10.69 g/m*3 18.9 C 0 km/h
1566 06-08-2008 09:51:01 19.3 C 10.62 g/m*3 19.3 C 0 km/h
1567 06-08-2008 10:03:01 20 C 10.54 g/m*3 20 C 0 km/h
1568 06-08-2008 10:15:01 20.9 C 10.56 g/m*3 20.9 C 0 km/h
1569 06-08-2008 10:27:01 21.7 C 10.11 g/m*3 21.7 C 0 km/h
1570 06-08-2008 10:39:01 22.2 C 10.01 g/m*3 22.2 C 0 km/h
1571 06-08-2008 10:51:01 23.2 C 9.98 g/m*3 23.2 C 0 km/h
1572 06-08-2008 11:03:02 23.7 C 10.27 g/m*3 23.7 C 0 km/h
1573 06-08-2008 11:15:01 24.3 C 9.52 g/m*3 24.3 C 0 km/h
1574 06-08-2008 11:27:01 25.1 C 9.26 g/m*3 25.1 C 0 km/h
1575 06-08-2008 11:39:02 25.8 C 9.39 g/m*3 25.8 C 0 km/h
Sensor: Nr:Datum:Temp:Abs-Feuchte:Windchill:Wind:
Aussen-T/F 1576 06-08-2008 11:51:02 26.1 C 9.06 g/m*3 26.1 C 0 km/h
1577 06-08-2008 12:03:02 26.9 C 9.47 g/m*3 26.9 C 0 km/h
1578 06-08-2008 12:15:01 27.1 C 8.8 g/m*3 27.1 C 0 km/h
1579 06-08-2008 12:27:01 27.6 C 9.04 g/m*3 27.6 C 0 km/h
1580 06-08-2008 12:39:02 28.1 C 8.75 g/m*3 28.1 C 0 km/h
1581 06-08-2008 12:51:02 27.8 C 8.61 g/m*3 27.8 C 0 km/h
1582 06-08-2008 13:03:02 28.9 C 8.86 g/m*3 28.9 C 0 km/h
1583 06-08-2008 13:15:02 30 C 8.19 g/m*3 30 C 0 km/h
1584 06-08-2008 13:27:02 30.6 C 8.14 g/m*3 30.6 C 0 km/h
1585 06-08-2008 13:39:02 30.6 C 7.83 g/m*3 30.6 C 0 km/h
1586 06-08-2008 13:51:02 30.9 C 7.96 g/m*3 30.9 C 0 km/h
1587 06-08-2008 14:03:01 31 C 8 g/m*3 31 C 0 km/h
1588 06-08-2008 14:15:02 31.1 C 8.04 g/m*3 31.1 C 0 km/h
1589 06-08-2008 14:27:02 30.7 C 8.5 g/m*3 30.7 C 0 km/h
1590 06-08-2008 14:39:02 31.3 C 7.81 g/m*3 31.3 C 0 km/h
1591 06-08-2008 14:51:02 31.5 C 7.56 g/m*3 31.5 C 0 km/h
1592 06-08-2008 15:03:02 32.1 C 7.47 g/m*3 32.1 C 0 km/h
1593 06-08-2008 15:15:02 32.3 C 6.86 g/m*3 32.3 C 0 km/h
1594 06-08-2008 15:27:03 32 C 7.09 g/m*3 32 C 0 km/h
1595 06-08-2008 15:39:02 32.5 C 6.93 g/m*3 32.5 C 0 km/h
1596 06-08-2008 15:51:02 32.7 C 7.01 g/m*3 32.7 C 0 km/h
1597 06-08-2008 16:03:02 33 C 7.12 g/m*3 33 C 0 km/h
1598 06-08-2008 16:15:02 33.2 C 7.2 g/m*3 33.2 C 0 km/h
1599 06-08-2008 16:27:02 33.5 C 7.31 g/m*3 33.5 C 0 km/h
1600 06-08-2008 16:39:02 33.6 C 7.35 g/m*3 33.6 C 0 km/h
Sensor: Nr:Datum:Temp:Abs-Feuchte:Windchill:Wind:
Aussen-T/F 1601 06-08-2008 16:51:02 33.7 C 7.39 g/m*3 33.7 C 0 km/h
1602 06-08-2008 17:03:02 33.9 C 7.46 g/m*3 33.9 C 0 km/h
1603 06-08-2008 17:15:02 33.9 C 7.46 g/m*3 33.9 C 0 km/h
1604 06-08-2008 17:27:02 33.6 C 7.35 g/m*3 33.6 C 0 km/h
1605 06-08-2008 17:39:02 33.7 C 7.39 g/m*3 33.7 C 0 km/h
1606 06-08-2008 17:51:02 33.8 C 7.43 g/m*3 33.8 C 0 km/h
1607 06-08-2008 18:03:02 34 C 7.5 g/m*3 34 C 0 km/h
1608 06-08-2008 18:15:02 34.2 C 7.58 g/m*3 34.2 C 0 km/h
1609 06-08-2008 18:27:02 33.9 C 7.46 g/m*3 33.9 C 0 km/h
1610 06-08-2008 18:39:02 34 C 7.5 g/m*3 34 C 0 km/h
1611 06-08-2008 18:51:02 33.9 C 7.46 g/m*3 33.9 C 0 km/h
1612 06-08-2008 19:03:01 33.9 C 7.46 g/m*3 33.9 C 0 km/h
1613 06-08-2008 19:15:02 33.3 C 7.23 g/m*3 33.3 C 0 km/h
1614 06-08-2008 19:27:02 33.3 C 7.59 g/m*3 33.3 C 0 km/h
1615 06-08-2008 19:39:02 32.7 C 7.36 g/m*3 32.7 C 0 km/h
1616 06-08-2008 19:51:02 31.6 C 8.59 g/m*3 31.6 C 0 km/h
1617 06-08-2008 20:03:02 30.6 C 9.4 g/m*3 30.6 C 0 km/h
1618 06-08-2008 20:15:02 30.1 C 9.45 g/m*3 30.1 C 0 km/h
1619 06-08-2008 20:27:03 29.5 C 9.44 g/m*3 29.5 C 0 km/h
1620 06-08-2008 20:39:02 28.9 C 9.43 g/m*3 28.9 C 0 km/h
1621 06-08-2008 20:51:02 28.4 C 9.45 g/m*3 28.4 C 0 km/h
1622 06-08-2008 21:03:02 27.8 C 9.15 g/m*3 27.8 C 0 km/h
1623 06-08-2008 21:15:03 27.3 C 9.16 g/m*3 27.3 C 0 km/h
1624 06-08-2008 21:27:03 27 C 9.01 g/m*3 27 C 0 km/h
1625 06-08-2008 21:39:02 26.7 C 9.11 g/m*3 26.7 C 0 km/h
Sensor: Nr:Datum:Temp:Abs-Feuchte:Windchill:Wind:
Aussen-T/F 1626 06-08-2008 21:51:01 26.6 C 9.31 g/m*3 26.6 C 0 km/h
1627 06-08-2008 22:03:01 26.6 C 9.06 g/m*3 26.6 C 0 km/h
1628 06-08-2008 22:15:01 26.4 C 9.21 g/m*3 26.4 C 0 km/h
1629 06-08-2008 22:27:01 26 C 9.49 g/m*3 26 C 0 km/h
1630 06-08-2008 22:40:02 25.8 C 9.39 g/m*3 25.8 C 0 km/h
1631 06-08-2008 22:52:02 25.6 C 9.28 g/m*3 25.6 C 0 km/h
1632 06-08-2008 23:04:02 25.1 C 9.26 g/m*3 25.1 C 0 km/h
1633 06-08-2008 23:16:02 24.8 C 9.79 g/m*3 24.8 C 0 km/h
1634 06-08-2008 23:28:02 24.5 C 10.07 g/m*3 24.5 C 0 km/h
1635 06-08-2008 23:40:02 24.1 C 9.85 g/m*3 24.1 C 0 km/h
1636 06-08-2008 23:52:02 24 C 10.01 g/m*3 24 C 0 km/h
1637 07-08-2008 00:04:02 23.7 C 9.84 g/m*3 23.7 C 0 km/h
1638 07-08-2008 00:16:02 23.6 C 10.21 g/m*3 23.6 C 0 km/h
1639 07-08-2008 00:28:02 23.3 C 10.25 g/m*3 23.3 C 0 km/h
1640 07-08-2008 00:40:02 23 C 10.28 g/m*3 23 C 0 km/h
1641 07-08-2008 00:52:02 22.7 C 10.51 g/m*3 22.7 C 0 km/h
1642 07-08-2008 01:04:02 22.5 C 10.59 g/m*3 22.5 C 0 km/h
1643 07-08-2008 01:16:02 22.3 C 10.66 g/m*3 22.3 C 0 km/h
1644 07-08-2008 01:28:02 22.1 C 10.74 g/m*3 22.1 C 0 km/h
1645 07-08-2008 01:40:02 21.9 C 11 g/m*3 21.9 C 0 km/h
1646 07-08-2008 01:52:03 21.7 C 11.06 g/m*3 21.7 C 0 km/h
1647 07-08-2008 02:04:03 21.4 C 11.06 g/m*3 21.4 C 0 km/h
1648 07-08-2008 02:16:03 21.3 C 11 g/m*3 21.3 C 0 km/h
1649 07-08-2008 02:28:03 21.1 C 11.06 g/m*3 21.1 C 0 km/h
1650 07-08-2008 02:40:03 20.9 C 11.29 g/m*3 20.9 C 0 km/h
Sensor: Nr:Datum:Temp:Abs-Feuchte:Windchill:Wind:
Aussen-T/F 1651 07-08-2008 02:52:03 20.7 C 11.34 g/m*3 20.7 C 0 km/h
1652 07-08-2008 03:04:03 20.6 C 11.28 g/m*3 20.6 C 0 km/h
1653 07-08-2008 03:16:03 20.4 C 11.14 g/m*3 20.4 C 0 km/h
1654 07-08-2008 03:28:03 20.3 C 11.26 g/m*3 20.3 C 0 km/h
1655 07-08-2008 03:40:03 20.3 C 11.26 g/m*3 20.3 C 0 km/h
1656 07-08-2008 03:52:03 20.2 C 11.19 g/m*3 20.2 C 0 km/h
1657 07-08-2008 04:04:03 19.9 C 11.34 g/m*3 19.9 C 0 km/h
1658 07-08-2008 04:16:03 19.7 C 11.38 g/m*3 19.7 C 0 km/h
1659 07-08-2008 04:28:03 19.6 C 11.31 g/m*3 19.6 C 0 km/h
1660 07-08-2008 04:40:03 19.4 C 11.35 g/m*3 19.4 C 0 km/h
1661 07-08-2008 04:52:03 19.3 C 11.44 g/m*3 19.3 C 0 km/h
1662 07-08-2008 05:04:03 19.3 C 11.44 g/m*3 19.3 C 0 km/h
1663 07-08-2008 05:16:03 19.1 C 11.47 g/m*3 19.1 C 0 km/h
1664 07-08-2008 05:28:03 18.8 C 11.6 g/m*3 18.8 C 0 km/h
1665 07-08-2008 05:40:03 18.8 C 11.6 g/m*3 18.8 C 0 km/h
1666 07-08-2008 05:52:04 18.6 C 11.62 g/m*3 18.6 C 0 km/h
1667 07-08-2008 06:04:04 18.6 C 11.62 g/m*3 18.6 C 0 km/h
1668 07-08-2008 06:16:04 18.5 C 11.71 g/m*3 18.5 C 0 km/h
1669 07-08-2008 06:28:04 18.4 C 11.64 g/m*3 18.4 C 0 km/h
1670 07-08-2008 06:40:04 18.3 C 11.57 g/m*3 18.3 C 0 km/h
1671 07-08-2008 06:52:04 18.5 C 11.87 g/m*3 18.5 C 0 km/h
1672 07-08-2008 07:04:03 18.7 C 12.01 g/m*3 18.7 C 0 km/h
1673 07-08-2008 07:16:02 18.8 C 11.92 g/m*3 18.8 C 0 km/h
1674 07-08-2008 07:28:02 18.6 C 11.94 g/m*3 18.6 C 0 km/h
1675 07-08-2008 07:40:02 18.8 C 12.08 g/m*3 18.8 C 0 km/h
Sensor: Nr:Datum:Temp:Abs-Feuchte:Windchill:Wind:
Aussen-T/F 1676 07-08-2008 07:52:02 19.1 C 11.97 g/m*3 19.1 C 0 km/h
1677 07-08-2008 08:04:02 19.2 C 12.04 g/m*3 19.2 C 0 km/h
1678 07-08-2008 08:16:02 19.6 C 12.15 g/m*3 19.6 C 0 km/h
1679 07-08-2008 08:28:02 19.9 C 12.2 g/m*3 19.9 C 0 km/h
1680 07-08-2008 08:40:02 20.3 C 12.14 g/m*3 20.3 C 0 km/h
1681 07-08-2008 08:52:02 20.9 C 12.38 g/m*3 20.9 C 0 km/h
1682 07-08-2008 09:04:02 21.6 C 12.52 g/m*3 21.6 C 0 km/h
1683 07-08-2008 09:16:02 22.5 C 12.58 g/m*3 22.5 C 0 km/h
1684 07-08-2008 09:28:02 23 C 12.33 g/m*3 23 C 0 km/h
1685 07-08-2008 09:40:02 23.7 C 12.62 g/m*3 23.7 C 0 km/h
1686 07-08-2008 09:52:03 24.2 C 12.54 g/m*3 24.2 C 0 km/h
1687 07-08-2008 10:04:02 24.7 C 12.22 g/m*3 24.7 C 0 km/h
1688 07-08-2008 10:16:02 25.3 C 11.47 g/m*3 25.3 C 0 km/h
1689 07-08-2008 10:28:02 26.2 C 11.32 g/m*3 26.2 C 0 km/h
1690 07-08-2008 10:40:02 26.8 C 11.45 g/m*3 26.8 C 0 km/h
1691 07-08-2008 10:52:02 27.2 C 11.19 g/m*3 27.2 C 0 km/h
1692 07-08-2008 11:04:02 27.4 C 11.31 g/m*3 27.4 C 0 km/h
1693 07-08-2008 11:16:02 28 C 11.42 g/m*3 28 C 0 km/h
1694 07-08-2008 11:28:02 28.3 C 11.06 g/m*3 28.3 C 0 km/h
1695 07-08-2008 11:40:02 28.3 C 11.33 g/m*3 28.3 C 0 km/h
1696 07-08-2008 11:52:02 28.7 C 10.74 g/m*3 28.7 C 0 km/h
1697 07-08-2008 12:04:02 29.1 C 10.69 g/m*3 29.1 C 0 km/h
1698 07-08-2008 12:16:02 29.1 C 10.69 g/m*3 29.1 C 0 km/h
1699 07-08-2008 12:28:02 28.7 C 10.74 g/m*3 28.7 C 0 km/h
1700 07-08-2008 12:40:02 29.3 C 10.51 g/m*3 29.3 C 0 km/h
Sensor: Nr:Datum:Temp:Abs-Feuchte:Windchill:Wind:
Aussen-T/F 1701 07-08-2008 12:52:02 29.9 C 10.56 g/m*3 29.9 C 0 km/h
1702 07-08-2008 13:04:02 30.4 C 10.54 g/m*3 30.4 C 0 km/h
1703 07-08-2008 13:16:02 30.6 C 10.02 g/m*3 30.6 C 0 km/h
1704 07-08-2008 13:28:02 30.4 C 10.23 g/m*3 30.4 C 0 km/h
1705 07-08-2008 13:40:02 29.6 C 10.09 g/m*3 29.6 C 0 km/h
1706 07-08-2008 13:52:01 29.8 C 10.5 g/m*3 29.8 C 0 km/h
1707 07-08-2008 14:04:02 29.4 C 10.57 g/m*3 29.4 C 0 km/h
1708 07-08-2008 14:16:01 29.8 C 10.5 g/m*3 29.8 C 0 km/h
1709 07-08-2008 14:28:01 28.8 C 10.51 g/m*3 28.8 C 0 km/h
1710 07-08-2008 14:40:02 28.1 C 10.39 g/m*3 28.1 C 0 km/h
1711 07-08-2008 14:52:02 28.4 C 10.56 g/m*3 28.4 C 0 km/h
1712 07-08-2008 15:04:02 28 C 10.33 g/m*3 28 C 0 km/h
1713 07-08-2008 15:16:02 28.2 C 10.72 g/m*3 28.2 C 0 km/h
1714 07-08-2008 15:28:02 28.5 C 10.34 g/m*3 28.5 C 0 km/h
1715 07-08-2008 15:40:02 29.2 C 9.87 g/m*3 29.2 C 0 km/h
1716 07-08-2008 15:52:01 29.1 C 9.24 g/m*3 29.1 C 0 km/h
1717 07-08-2008 16:04:02 29.3 C 9.63 g/m*3 29.3 C 0 km/h
1718 07-08-2008 16:16:01 28.7 C 9.89 g/m*3 28.7 C 0 km/h
1719 07-08-2008 16:28:01 29.3 C 9.63 g/m*3 29.3 C 0 km/h
1720 07-08-2008 16:40:02 29.4 C 9.39 g/m*3 29.4 C 0 km/h
1721 07-08-2008 16:52:02 30.4 C 9.3 g/m*3 30.4 C 0 km/h
1722 07-08-2008 17:04:01 30.7 C 9.13 g/m*3 30.7 C 0 km/h
1723 07-08-2008 17:16:02 30.1 C 8.84 g/m*3 30.1 C 0 km/h
1724 07-08-2008 17:28:02 29.4 C 8.81 g/m*3 29.4 C 0 km/h
1725 07-08-2008 17:40:01 29.4 C 8.81 g/m*3 29.4 C 0 km/h
Sensor: Nr:Datum:Temp:Abs-Feuchte:Windchill:Wind:
Aussen-T/F 1726 07-08-2008 17:52:02 28.7 C 8.48 g/m*3 28.7 C 0 km/h
1727 07-08-2008 18:04:01 30.1 C 8.54 g/m*3 30.1 C 0 km/h
1728 07-08-2008 18:16:02 29.9 C 8.14 g/m*3 29.9 C 0 km/h
1729 07-08-2008 18:28:03 28.8 C 8.52 g/m*3 28.8 C 0 km/h
1730 07-08-2008 18:40:01 28.6 C 8.71 g/m*3 28.6 C 0 km/h
1731 07-08-2008 18:52:02 28.5 C 8.66 g/m*3 28.5 C 0 km/h
1732 07-08-2008 19:04:01 28.3 C 8.57 g/m*3 28.3 C 0 km/h
1733 07-08-2008 19:16:02 27.7 C 8.56 g/m*3 27.7 C 0 km/h
1734 07-08-2008 19:28:02 27.1 C 8.54 g/m*3 27.1 C 0 km/h
1735 07-08-2008 19:40:01 26.9 C 8.96 g/m*3 26.9 C 0 km/h
1736 07-08-2008 19:52:02 26.6 C 9.06 g/m*3 26.6 C 0 km/h
1737 07-08-2008 20:04:02 26.7 C 9.11 g/m*3 26.7 C 0 km/h
1738 07-08-2008 20:16:02 27.2 C 8.85 g/m*3 27.2 C 0 km/h
1739 07-08-2008 20:28:02 26.1 C 8.81 g/m*3 26.1 C 0 km/h
1740 07-08-2008 20:40:02 25.4 C 8.71 g/m*3 25.4 C 0 km/h
1741 07-08-2008 20:52:02 24.8 C 8.42 g/m*3 24.8 C 0 km/h
1742 07-08-2008 21:04:02 24.6 C 8.33 g/m*3 24.6 C 0 km/h
1743 07-08-2008 21:16:02 24.3 C 8.41 g/m*3 24.3 C 0 km/h
1744 07-08-2008 21:28:02 24 C 8.49 g/m*3 24 C 0 km/h
1745 07-08-2008 21:40:02 23.7 C 8.77 g/m*3 23.7 C 0 km/h
1746 07-08-2008 21:52:02 23.4 C 8.83 g/m*3 23.4 C 0 km/h
1747 07-08-2008 22:04:02 23.3 C 8.78 g/m*3 23.3 C 0 km/h
1748 07-08-2008 22:17:02 23.3 C 8.57 g/m*3 23.3 C 0 km/h
1749 07-08-2008 22:29:02 23.1 C 8.27 g/m*3 23.1 C 0 km/h
1750 07-08-2008 22:41:02 23 C 8.43 g/m*3 23 C 0 km/h
Sensor: Nr:Datum:Temp:Abs-Feuchte:Windchill:Wind:
Aussen-T/F 1751 07-08-2008 22:53:02 20.4 C 10.79 g/m*3 20.4 C 0 km/h
1752 07-08-2008 23:05:02 19.2 C 12.7 g/m*3 19.2 C 0 km/h
1753 07-08-2008 23:17:02 18.5 C 12.82 g/m*3 18.5 C 0 km/h
1754 07-08-2008 23:29:01 17.9 C 12.67 g/m*3 17.9 C 0 km/h
1755 07-08-2008 23:41:01 17.8 C 12.9 g/m*3 17.8 C 0 km/h
1756 07-08-2008 23:53:02 17.9 C 12.98 g/m*3 17.9 C 0 km/h
1757 08-08-2008 00:05:02 18.2 C 13.06 g/m*3 18.2 C 0 km/h
1758 08-08-2008 00:17:02 18.2 C 12.9 g/m*3 18.2 C 0 km/h
1759 08-08-2008 00:29:02 17.9 C 12.67 g/m*3 17.9 C 0 km/h
1760 08-08-2008 00:41:02 17.8 C 12.6 g/m*3 17.8 C 0 km/h
1761 08-08-2008 00:53:03 17.7 C 12.52 g/m*3 17.7 C 0 km/h
1762 08-08-2008 01:05:03 17.6 C 12.45 g/m*3 17.6 C 0 km/h
1763 08-08-2008 01:17:03 17.6 C 12.45 g/m*3 17.6 C 0 km/h
1764 08-08-2008 01:41:03 17.7 C 12.37 g/m*3 17.7 C 0 km/h
1765 08-08-2008 01:53:03 17.7 C 12.37 g/m*3 17.7 C 0 km/h
1766 08-08-2008 02:05:03 17.7 C 12.22 g/m*3 17.7 C 0 km/h
1767 08-08-2008 02:29:03 17.8 C 12.45 g/m*3 17.8 C 0 km/h
1768 08-08-2008 02:41:04 17.7 C 12.37 g/m*3 17.7 C 0 km/h
1769 08-08-2008 02:53:04 17.7 C 12.37 g/m*3 17.7 C 0 km/h
1770 08-08-2008 03:05:34 17.6 C 12.3 g/m*3 17.6 C 0 km/h
1771 08-08-2008 03:17:34 17.7 C 12.37 g/m*3 17.7 C 0 km/h
1772 08-08-2008 03:29:34 17.7 C 12.37 g/m*3 17.7 C 0 km/h
1773 08-08-2008 03:41:04 17.7 C 12.37 g/m*3 17.7 C 0 km/h
1774 08-08-2008 03:53:05 17.8 C 12.29 g/m*3 17.8 C 0 km/h
1775 08-08-2008 04:05:05 18.1 C 12.05 g/m*3 18.1 C 0 km/h
Sensor: Nr:Datum:Temp:Abs-Feuchte:Windchill:Wind:
Aussen-T/F 1776 08-08-2008 04:17:35 18 C 11.83 g/m*3 18 C 0 km/h
1777 08-08-2008 04:29:35 17.9 C 11.76 g/m*3 17.9 C 0 km/h
1778 08-08-2008 04:41:02 17.9 C 11.6 g/m*3 17.9 C 0 km/h
1779 08-08-2008 04:53:02 17.7 C 11.47 g/m*3 17.7 C 0 km/h
1780 08-08-2008 05:05:02 17.7 C 11.47 g/m*3 17.7 C 0 km/h
1781 08-08-2008 05:17:02 17.7 C 11.47 g/m*3 17.7 C 0 km/h
1782 08-08-2008 05:29:01 17.6 C 11.55 g/m*3 17.6 C 0 km/h
1783 08-08-2008 05:41:01 17.7 C 11.47 g/m*3 17.7 C 0 km/h
1784 08-08-2008 05:53:02 17.7 C 11.32 g/m*3 17.7 C 0 km/h
1785 08-08-2008 06:05:02 17.6 C 11.25 g/m*3 17.6 C 0 km/h
1786 08-08-2008 06:17:02 17.7 C 11.16 g/m*3 17.7 C 0 km/h
1787 08-08-2008 06:29:02 17.8 C 11.23 g/m*3 17.8 C 0 km/h
1788 08-08-2008 06:41:02 17.7 C 11.47 g/m*3 17.7 C 0 km/h
1789 08-08-2008 06:53:33 17.1 C 11.65 g/m*3 17.1 C 0 km/h
1790 08-08-2008 07:05:33 17.2 C 11.72 g/m*3 17.2 C 0 km/h
1791 08-08-2008 07:17:33 17.7 C 11.62 g/m*3 17.7 C 0 km/h
1792 08-08-2008 07:29:33 18 C 11.21 g/m*3 18 C 0 km/h
1793 08-08-2008 07:41:33 17.7 C 11.16 g/m*3 17.7 C 0 km/h
1794 08-08-2008 07:53:33 16.6 C 11.72 g/m*3 16.6 C 0 km/h
1795 08-08-2008 08:17:34 16.3 C 11.93 g/m*3 16.3 C 0 km/h
1796 08-08-2008 08:29:34 16.6 C 12.29 g/m*3 16.6 C 0 km/h
1797 08-08-2008 08:41:34 16.9 C 12.37 g/m*3 16.9 C 0 km/h
1798 08-08-2008 09:05:34 17 C 11.72 g/m*3 17 C 0 km/h
1799 08-08-2008 09:17:34 17 C 11.87 g/m*3 17 C 0 km/h
1800 08-08-2008 09:29:34 16.8 C 11.87 g/m*3 16.8 C 0 km/h
Sensor: Nr:Datum:Temp:Abs-Feuchte:Windchill:Wind:
Aussen-T/F 1801 08-08-2008 09:41:03 17.2 C 12.15 g/m*3 17.2 C 0 km/h
1802 08-08-2008 09:53:03 17.5 C 12.08 g/m*3 17.5 C 0 km/h
1803 08-08-2008 10:05:03 17.7 C 11.92 g/m*3 17.7 C 0 km/h
1804 08-08-2008 10:17:02 17.7 C 11.62 g/m*3 17.7 C 0 km/h
1805 08-08-2008 10:29:02 17.8 C 11.84 g/m*3 17.8 C 0 km/h
1806 08-08-2008 10:41:02 18.2 C 11.81 g/m*3 18.2 C 0 km/h
1807 08-08-2008 10:53:02 18.5 C 11.55 g/m*3 18.5 C 0 km/h
1808 08-08-2008 11:05:02 18.8 C 11.76 g/m*3 18.8 C 0 km/h
1809 08-08-2008 11:17:03 19.4 C 11.85 g/m*3 19.4 C 0 km/h
1810 08-08-2008 11:29:03 20.3 C 11.78 g/m*3 20.3 C 0 km/h
1811 08-08-2008 11:41:02 20.9 C 11.47 g/m*3 20.9 C 0 km/h
1812 08-08-2008 11:53:02 21.9 C 11 g/m*3 21.9 C 0 km/h
1813 08-08-2008 12:05:02 21.7 C 10.68 g/m*3 21.7 C 0 km/h
1814 08-08-2008 12:17:03 21.4 C 10.87 g/m*3 21.4 C 0 km/h
1815 08-08-2008 12:29:03 21.7 C 11.06 g/m*3 21.7 C 0 km/h
1816 08-08-2008 12:41:02 16.9 C 10.64 g/m*3 16.9 C 0 km/h
1817 08-08-2008 12:53:02 16 C 11.44 g/m*3 16 C 0 km/h
1818 08-08-2008 13:05:02 17.8 C 13.2 g/m*3 17.8 C 0 km/h
1819 08-08-2008 13:17:02 19.2 C 13.85 g/m*3 19.2 C 0 km/h
1820 08-08-2008 13:29:02 20.9 C 13.11 g/m*3 20.9 C 0 km/h
1821 08-08-2008 13:41:02 21.8 C 12.28 g/m*3 21.8 C 0 km/h
1822 08-08-2008 13:53:01 20.8 C 13.04 g/m*3 20.8 C 0 km/h
1823 08-08-2008 14:05:02 20.4 C 13.27 g/m*3 20.4 C 0 km/h
1824 08-08-2008 14:17:02 20.3 C 14.07 g/m*3 20.3 C 0 km/h
1825 08-08-2008 14:29:02 21.1 C 13.82 g/m*3 21.1 C 0 km/h
Sensor: Nr:Datum:Temp:Abs-Feuchte:Windchill:Wind:
Aussen-T/F 1826 08-08-2008 14:41:02 22 C 13.78 g/m*3 22 C 0 km/h
1827 08-08-2008 14:53:02 22.7 C 12.73 g/m*3 22.7 C 0 km/h
1828 08-08-2008 15:05:02 21.7 C 12.02 g/m*3 21.7 C 0 km/h
1829 08-08-2008 15:17:02 19.2 C 11.71 g/m*3 19.2 C 0 km/h
1830 08-08-2008 15:29:03 20 C 12.96 g/m*3 20 C 0 km/h
1831 08-08-2008 15:41:03 21.9 C 11.77 g/m*3 21.9 C 0 km/h
1832 08-08-2008 15:53:03 22.1 C 11.52 g/m*3 22.1 C 0 km/h
1833 08-08-2008 16:05:03 21.1 C 9.58 g/m*3 21.1 C 0 km/h
1834 08-08-2008 16:17:02 21.1 C 9.95 g/m*3 21.1 C 0 km/h
1835 08-08-2008 16:29:02 22.7 C 9.7 g/m*3 22.7 C 0 km/h
1836 08-08-2008 16:41:02 22.1 C 9.17 g/m*3 22.1 C 0 km/h
1837 08-08-2008 16:53:01 21.6 C 9.48 g/m*3 21.6 C 0 km/h
1838 08-08-2008 17:05:01 21.8 C 9.21 g/m*3 21.8 C 0 km/h
1839 08-08-2008 17:17:01 21.8 C 9.4 g/m*3 21.8 C 0 km/h
1840 08-08-2008 17:29:01 21.4 C 9.19 g/m*3 21.4 C 0 km/h
1841 08-08-2008 17:41:01 19.7 C 9.85 g/m*3 19.7 C 0 km/h
1842 08-08-2008 17:53:02 18.7 C 11.05 g/m*3 18.7 C 0 km/h
1843 08-08-2008 18:05:02 18.9 C 11.66 g/m*3 18.9 C 0 km/h
1844 08-08-2008 18:17:02 19.5 C 11.24 g/m*3 19.5 C 0 km/h
1845 08-08-2008 18:29:02 19.5 C 10.74 g/m*3 19.5 C 0 km/h
1846 08-08-2008 18:41:02 19.4 C 10.51 g/m*3 19.4 C 0 km/h
1847 08-08-2008 18:53:28 19.3 C 10.28 g/m*3 19.3 C 0 km/h
1848 08-08-2008 19:05:02 19.4 C 10.34 g/m*3 19.4 C 0 km/h
1849 08-08-2008 19:17:03 19.4 C 10.34 g/m*3 19.4 C 0 km/h
1850 08-08-2008 19:29:03 19.3 C 10.28 g/m*3 19.3 C 0 km/h
Sensor: Nr:Datum:Temp:Abs-Feuchte:Windchill:Wind:
Aussen-T/F 1851 08-08-2008 19:41:03 19.3 C 10.12 g/m*3 19.3 C 0 km/h
1852 08-08-2008 19:53:02 19.3 C 10.12 g/m*3 19.3 C 0 km/h
1853 08-08-2008 20:05:03 19 C 10.27 g/m*3 19 C 0 km/h
1854 08-08-2008 20:17:02 17.8 C 11.08 g/m*3 17.8 C 0 km/h
1855 08-08-2008 20:29:02 17.5 C 11.18 g/m*3 17.5 C 0 km/h
1856 08-08-2008 20:41:03 16.8 C 11.58 g/m*3 16.8 C 0 km/h
1857 08-08-2008 20:53:02 16.5 C 11.8 g/m*3 16.5 C 0 km/h
1858 08-08-2008 21:05:02 16.4 C 12 g/m*3 16.4 C 0 km/h
1859 08-08-2008 21:17:02 16.3 C 12.07 g/m*3 16.3 C 0 km/h
1860 08-08-2008 21:29:01 16.3 C 12.21 g/m*3 16.3 C 0 km/h
1861 08-08-2008 21:41:01 16.5 C 12.22 g/m*3 16.5 C 0 km/h
1862 08-08-2008 21:54:01 16.6 C 12.15 g/m*3 16.6 C 0 km/h
1863 08-08-2008 22:06:01 16.7 C 12.08 g/m*3 16.7 C 0 km/h
1864 08-08-2008 22:18:01 16.7 C 11.94 g/m*3 16.7 C 0 km/h
1865 08-08-2008 22:30:01 16.8 C 11.87 g/m*3 16.8 C 0 km/h
1866 08-08-2008 22:42:01 16.4 C 11.58 g/m*3 16.4 C 0 km/h
1867 08-08-2008 22:54:01 16.1 C 11.93 g/m*3 16.1 C 0 km/h
1868 08-08-2008 23:06:01 16 C 11.99 g/m*3 16 C 0 km/h
1869 08-08-2008 23:18:01 16 C 12.13 g/m*3 16 C 0 km/h
1870 08-08-2008 23:30:02 16.1 C 12.34 g/m*3 16.1 C 0 km/h
1871 08-08-2008 23:42:02 16.2 C 12.41 g/m*3 16.2 C 0 km/h
1872 08-08-2008 23:54:02 16.1 C 12.2 g/m*3 16.1 C 0 km/h
1873 09-08-2008 00:06:02 16 C 11.99 g/m*3 16 C 0 km/h
1874 09-08-2008 00:18:02 16.1 C 12.06 g/m*3 16.1 C 0 km/h
1875 09-08-2008 00:30:02 16.2 C 12 g/m*3 16.2 C 0 km/h
Sensor: Nr:Datum:Temp:Abs-Feuchte:Windchill:Wind:
Aussen-T/F 1876 09-08-2008 00:42:02 16.2 C 11.86 g/m*3 16.2 C 0 km/h
1877 09-08-2008 00:54:02 16.1 C 11.65 g/m*3 16.1 C 0 km/h
1878 09-08-2008 01:06:02 15.9 C 11.51 g/m*3 15.9 C 0 km/h
1879 09-08-2008 01:18:02 15.7 C 11.37 g/m*3 15.7 C 0 km/h
1880 09-08-2008 01:30:02 15.4 C 11.3 g/m*3 15.4 C 0 km/h
1881 09-08-2008 01:42:02 15.1 C 11.09 g/m*3 15.1 C 0 km/h
1882 09-08-2008 01:54:02 14.9 C 11.22 g/m*3 14.9 C 0 km/h
1883 09-08-2008 02:06:02 14.9 C 11.22 g/m*3 14.9 C 0 km/h
1884 09-08-2008 02:18:02 14.7 C 11.08 g/m*3 14.7 C 0 km/h
1885 09-08-2008 02:30:02 14.5 C 10.94 g/m*3 14.5 C 0 km/h
1886 09-08-2008 02:42:02 14.5 C 10.94 g/m*3 14.5 C 0 km/h
1887 09-08-2008 02:54:02 14.4 C 10.88 g/m*3 14.4 C 0 km/h
1888 09-08-2008 03:06:02 14.4 C 10.88 g/m*3 14.4 C 0 km/h
1889 09-08-2008 03:18:03 14.5 C 10.7 g/m*3 14.5 C 0 km/h
1890 09-08-2008 03:30:03 14.5 C 10.32 g/m*3 14.5 C 0 km/h
1891 09-08-2008 03:42:03 14.4 C 10.26 g/m*3 14.4 C 0 km/h
1892 09-08-2008 03:54:03 14.4 C 10.26 g/m*3 14.4 C 0 km/h
1893 09-08-2008 04:06:03 14.5 C 10.45 g/m*3 14.5 C 0 km/h
1894 09-08-2008 04:18:03 14.5 C 10.45 g/m*3 14.5 C 0 km/h
1895 09-08-2008 04:30:03 14.5 C 10.57 g/m*3 14.5 C 0 km/h
1896 09-08-2008 04:42:03 14.6 C 10.64 g/m*3 14.6 C 0 km/h
1897 09-08-2008 04:54:03 14.6 C 10.64 g/m*3 14.6 C 0 km/h
1898 09-08-2008 05:06:03 14.7 C 10.58 g/m*3 14.7 C 0 km/h
1899 09-08-2008 05:18:03 14.6 C 10.51 g/m*3 14.6 C 0 km/h
1900 09-08-2008 05:30:03 14.6 C 10.51 g/m*3 14.6 C 0 km/h
Sensor: Nr:Datum:Temp:Abs-Feuchte:Windchill:Wind:
Aussen-T/F 1901 09-08-2008 05:42:03 14.6 C 10.39 g/m*3 14.6 C 0 km/h
1902 09-08-2008 05:54:03 14.7 C 10.2 g/m*3 14.7 C 0 km/h
1903 09-08-2008 06:06:03 14.7 C 10.07 g/m*3 14.7 C 0 km/h
1904 09-08-2008 06:18:03 14.9 C 9.81 g/m*3 14.9 C 0 km/h
1905 09-08-2008 06:30:03 14.9 C 9.69 g/m*3 14.9 C 0 km/h
1906 09-08-2008 06:42:03 14.9 C 9.69 g/m*3 14.9 C 0 km/h
1907 09-08-2008 06:54:03 15 C 9.87 g/m*3 15 C 0 km/h
1908 09-08-2008 07:06:03 15 C 9.75 g/m*3 15 C 0 km/h
1909 09-08-2008 07:18:04 14.9 C 9.43 g/m*3 14.9 C 0 km/h
1910 09-08-2008 07:30:04 14.8 C 9.37 g/m*3 14.8 C 0 km/h
1911 09-08-2008 07:42:04 15 C 9.36 g/m*3 15 C 0 km/h
1912 09-08-2008 07:54:04 15.1 C 9.29 g/m*3 15.1 C 0 km/h
1913 09-08-2008 08:06:02 14.7 C 9.19 g/m*3 14.7 C 0 km/h
1914 09-08-2008 08:18:02 14.7 C 9.44 g/m*3 14.7 C 0 km/h
1915 09-08-2008 08:30:02 15.1 C 9.42 g/m*3 15.1 C 0 km/h
1916 09-08-2008 08:42:01 15.7 C 9.1 g/m*3 15.7 C 0 km/h
1917 09-08-2008 08:54:02 16.2 C 9.38 g/m*3 16.2 C 0 km/h
1918 09-08-2008 09:06:02 16.3 C 9.02 g/m*3 16.3 C 0 km/h
1919 09-08-2008 09:18:02 16.3 C 9.43 g/m*3 16.3 C 0 km/h
1920 09-08-2008 09:30:02 16.8 C 9.72 g/m*3 16.8 C 0 km/h
1921 09-08-2008 09:42:02 17.1 C 9.17 g/m*3 17.1 C 0 km/h
1922 09-08-2008 09:54:02 16.6 C 9.04 g/m*3 16.6 C 0 km/h
1923 09-08-2008 10:06:02 17.6 C 8.85 g/m*3 17.6 C 0 km/h
1924 09-08-2008 10:18:01 17.9 C 8.09 g/m*3 17.9 C 0 km/h
1925 09-08-2008 10:30:01 18.1 C 7.73 g/m*3 18.1 C 0 km/h
Sensor: Nr:Datum:Temp:Abs-Feuchte:Windchill:Wind:
Aussen-T/F 1926 09-08-2008 10:42:02 18.5 C 7.91 g/m*3 18.5 C 0 km/h
1927 09-08-2008 10:54:02 18.6 C 6.84 g/m*3 18.6 C 0 km/h
1928 09-08-2008 11:06:02 19 C 7.66 g/m*3 19 C 0 km/h
1929 09-08-2008 11:18:02 20.2 C 6.64 g/m*3 20.2 C 0 km/h
1930 09-08-2008 11:30:02 19.9 C 7.22 g/m*3 19.9 C 0 km/h
1931 09-08-2008 11:42:02 20.4 C 6.72 g/m*3 20.4 C 0 km/h
1932 09-08-2008 11:54:02 20.7 C 6.48 g/m*3 20.7 C 0 km/h
1933 09-08-2008 12:06:01 20.9 C 6.19 g/m*3 20.9 C 0 km/h
1934 09-08-2008 12:18:02 21.9 C 6.18 g/m*3 21.9 C 0 km/h
1935 09-08-2008 12:30:02 22.5 C 6.19 g/m*3 22.5 C 0 km/h
1936 09-08-2008 12:42:01 21.5 C 6.03 g/m*3 21.5 C 0 km/h
1937 09-08-2008 12:54:02 22.3 C 5.73 g/m*3 22.3 C 0 km/h
1938 09-08-2008 13:06:01 22.4 C 5.56 g/m*3 22.4 C 0 km/h
1939 09-08-2008 13:18:02 23.1 C 5.37 g/m*3 23.1 C 0 km/h
1940 09-08-2008 13:30:02 23.5 C 5.29 g/m*3 23.5 C 0 km/h
1941 09-08-2008 13:42:01 23.5 C 5.5 g/m*3 23.5 C 0 km/h
1942 09-08-2008 13:54:03 22.9 C 5.11 g/m*3 22.9 C 0 km/h
1943 09-08-2008 14:06:02 23.2 C 5.61 g/m*3 23.2 C 0 km/h
1944 09-08-2008 14:18:03 23 C 5.34 g/m*3 23 C 0 km/h
1945 09-08-2008 14:30:03 23.2 C 5.2 g/m*3 23.2 C 0 km/h
1946 09-08-2008 14:42:02 24.4 C 5.56 g/m*3 24.4 C 0 km/h
1947 09-08-2008 14:54:02 25.2 C 5.12 g/m*3 25.2 C 0 km/h
1948 09-08-2008 15:06:03 24.3 C 5.53 g/m*3 24.3 C 0 km/h
1949 09-08-2008 15:18:03 24.9 C 5.72 g/m*3 24.9 C 0 km/h
1950 09-08-2008 15:30:03 25.6 C 5.48 g/m*3 25.6 C 0 km/h
Sensor: Nr:Datum:Temp:Abs-Feuchte:Windchill:Wind:
Aussen-T/F 1951 09-08-2008 15:42:03 26.1 C 5.63 g/m*3 26.1 C 0 km/h
1952 09-08-2008 15:54:02 26.1 C 5.39 g/m*3 26.1 C 0 km/h
1953 09-08-2008 16:06:03 25.9 C 5.33 g/m*3 25.9 C 0 km/h
1954 09-08-2008 16:18:02 25.9 C 6.05 g/m*3 25.9 C 0 km/h
1955 09-08-2008 16:30:02 25.4 C 5.65 g/m*3 25.4 C 0 km/h
1956 09-08-2008 16:42:03 24.8 C 5.92 g/m*3 24.8 C 0 km/h
1957 09-08-2008 16:54:03 24.8 C 5.92 g/m*3 24.8 C 0 km/h
1958 09-08-2008 17:06:02 26.3 C 5.94 g/m*3 26.3 C 0 km/h
1959 09-08-2008 17:18:02 26.4 C 5.48 g/m*3 26.4 C 0 km/h
1960 09-08-2008 17:30:02 25.4 C 5.89 g/m*3 25.4 C 0 km/h
1961 09-08-2008 17:42:02 24.9 C 5.95 g/m*3 24.9 C 0 km/h
1962 09-08-2008 17:54:01 26 C 6.09 g/m*3 26 C 0 km/h
1963 09-08-2008 18:06:02 26.2 C 6.15 g/m*3 26.2 C 0 km/h
1964 09-08-2008 18:18:01 25.2 C 6.05 g/m*3 25.2 C 0 km/h
1965 09-08-2008 18:30:01 25 C 6.22 g/m*3 25 C 0 km/h
1966 09-08-2008 18:42:02 25.9 C 6.29 g/m*3 25.9 C 0 km/h
1967 09-08-2008 18:54:01 25.8 C 6.74 g/m*3 25.8 C 0 km/h
1968 09-08-2008 19:06:02 25.3 C 6.79 g/m*3 25.3 C 0 km/h
1969 09-08-2008 19:18:02 24.9 C 7.1 g/m*3 24.9 C 0 km/h
1970 09-08-2008 19:30:02 23.9 C 7.14 g/m*3 23.9 C 0 km/h
1971 09-08-2008 19:42:01 23.8 C 7.1 g/m*3 23.8 C 0 km/h
1972 09-08-2008 19:54:01 23.3 C 7.32 g/m*3 23.3 C 0 km/h
1973 09-08-2008 20:06:02 22.9 C 7.56 g/m*3 22.9 C 0 km/h
1974 09-08-2008 20:18:01 22.3 C 7.7 g/m*3 22.3 C 0 km/h
1975 09-08-2008 20:30:01 21.6 C 7.78 g/m*3 21.6 C 0 km/h
Sensor: Nr:Datum:Temp:Abs-Feuchte:Windchill:Wind:
Aussen-T/F 1976 09-08-2008 20:42:02 21 C 7.69 g/m*3 21 C 0 km/h
1977 09-08-2008 20:54:02 20.7 C 8.1 g/m*3 20.7 C 0 km/h
1978 09-08-2008 21:06:02 20 C 7.95 g/m*3 20 C 0 km/h
1979 09-08-2008 21:18:02 19.9 C 8.25 g/m*3 19.9 C 0 km/h
1980 09-08-2008 21:30:02 19.8 C 8.2 g/m*3 19.8 C 0 km/h
1981 09-08-2008 21:42:02 19.6 C 8.27 g/m*3 19.6 C 0 km/h
1982 09-08-2008 21:54:02 19.5 C 8.39 g/m*3 19.5 C 0 km/h
1983 09-08-2008 22:06:01 19.3 C 8.63 g/m*3 19.3 C 0 km/h
1984 09-08-2008 22:18:02 19 C 8.8 g/m*3 19 C 0 km/h
1985 09-08-2008 22:30:02 19 C 8.8 g/m*3 19 C 0 km/h
1986 09-08-2008 22:42:01 18.9 C 9.23 g/m*3 18.9 C 0 km/h
1987 09-08-2008 22:54:02 18.9 C 9.23 g/m*3 18.9 C 0 km/h
1988 09-08-2008 23:06:01 18.8 C 9.34 g/m*3 18.8 C 0 km/h
1989 09-08-2008 23:18:02 18.7 C 9.13 g/m*3 18.7 C 0 km/h
1990 09-08-2008 23:30:02 18.4 C 9.28 g/m*3 18.4 C 0 km/h
1991 09-08-2008 23:43:02 18.2 C 9.33 g/m*3 18.2 C 0 km/h
1992 09-08-2008 23:55:02 18 C 9.37 g/m*3 18 C 0 km/h
1993 10-08-2008 00:07:02 17.8 C 9.56 g/m*3 17.8 C 0 km/h
1994 10-08-2008 00:19:02 17.7 C 9.51 g/m*3 17.7 C 0 km/h
1995 10-08-2008 00:31:02 17.7 C 9.51 g/m*3 17.7 C 0 km/h
1996 10-08-2008 00:43:02 17.9 C 9.77 g/m*3 17.9 C 0 km/h
1997 10-08-2008 00:55:02 17.9 C 9.77 g/m*3 17.9 C 0 km/h
1998 10-08-2008 01:07:02 18 C 9.68 g/m*3 18 C 0 km/h
1999 10-08-2008 01:19:02 18.1 C 9.73 g/m*3 18.1 C 0 km/h
2000 10-08-2008 01:31:02 17.9 C 9.77 g/m*3 17.9 C 0 km/h
Sensor: Nr:Datum:Temp:Abs-Feuchte:Windchill:Wind:
Aussen-T/F 2001 10-08-2008 01:43:02 17.9 C 9.92 g/m*3 17.9 C 0 km/h
2002 10-08-2008 01:55:02 18 C 9.83 g/m*3 18 C 0 km/h
2003 10-08-2008 02:07:02 17.9 C 10.08 g/m*3 17.9 C 0 km/h
2004 10-08-2008 02:19:02 17.7 C 10.11 g/m*3 17.7 C 0 km/h
2005 10-08-2008 02:31:02 18 C 10.14 g/m*3 18 C 0 km/h
2006 10-08-2008 02:43:02 18.1 C 9.73 g/m*3 18.1 C 0 km/h
2007 10-08-2008 02:55:02 18.3 C 9.85 g/m*3 18.3 C 0 km/h
2008 10-08-2008 03:07:02 18.3 C 9.69 g/m*3 18.3 C 0 km/h
2009 10-08-2008 03:19:03 18.2 C 9.79 g/m*3 18.2 C 0 km/h
2010 10-08-2008 03:31:03 18.2 C 9.79 g/m*3 18.2 C 0 km/h
2011 10-08-2008 03:43:03 18.2 C 9.64 g/m*3 18.2 C 0 km/h
2012 10-08-2008 03:55:03 17.7 C 10.11 g/m*3 17.7 C 0 km/h
2013 10-08-2008 04:07:03 17.6 C 10.2 g/m*3 17.6 C 0 km/h
2014 10-08-2008 04:19:03 18 C 9.68 g/m*3 18 C 0 km/h
2015 10-08-2008 04:31:03 17.9 C 9.77 g/m*3 17.9 C 0 km/h
2016 10-08-2008 04:43:03 18 C 9.68 g/m*3 18 C 0 km/h
2017 10-08-2008 04:55:03 18 C 9.68 g/m*3 18 C 0 km/h
2018 10-08-2008 05:07:03 18 C 9.68 g/m*3 18 C 0 km/h
2019 10-08-2008 05:19:03 17.9 C 9.47 g/m*3 17.9 C 0 km/h
2020 10-08-2008 05:31:03 17.9 C 9.47 g/m*3 17.9 C 0 km/h
2021 10-08-2008 05:43:03 17.9 C 9.47 g/m*3 17.9 C 0 km/h
2022 10-08-2008 05:55:03 18.2 C 9.33 g/m*3 18.2 C 0 km/h
2023 10-08-2008 06:07:03 18.2 C 9.33 g/m*3 18.2 C 0 km/h
2024 10-08-2008 06:19:03 18.2 C 9.17 g/m*3 18.2 C 0 km/h
2025 10-08-2008 06:31:03 18.1 C 9.27 g/m*3 18.1 C 0 km/h
Sensor: Nr:Datum:Temp:Abs-Feuchte:Windchill:Wind:
Aussen-T/F 2026 10-08-2008 06:43:03 17.5 C 9.99 g/m*3 17.5 C 0 km/h
2027 10-08-2008 06:55:03 17.7 C 10.26 g/m*3 17.7 C 0 km/h
2028 10-08-2008 07:07:04 17.9 C 10.08 g/m*3 17.9 C 0 km/h
2029 10-08-2008 07:19:04 18.1 C 9.89 g/m*3 18.1 C 0 km/h
2030 10-08-2008 07:31:04 18.1 C 9.89 g/m*3 18.1 C 0 km/h
2031 10-08-2008 07:43:04 18.4 C 9.75 g/m*3 18.4 C 0 km/h
2032 10-08-2008 07:55:04 18.8 C 9.66 g/m*3 18.8 C 0 km/h
2033 10-08-2008 08:07:04 19.2 C 9.07 g/m*3 19.2 C 0 km/h
2034 10-08-2008 08:19:04 19.4 C 9.01 g/m*3 19.4 C 0 km/h
2035 10-08-2008 08:31:04 19.5 C 9.06 g/m*3 19.5 C 0 km/h
2036 10-08-2008 08:43:04 19.7 C 9 g/m*3 19.7 C 0 km/h
2037 10-08-2008 08:55:04 19.9 C 8.93 g/m*3 19.9 C 0 km/h
2038 10-08-2008 09:07:02 19.9 C 9.11 g/m*3 19.9 C 0 km/h
2039 10-08-2008 09:19:02 20.2 C 9.09 g/m*3 20.2 C 0 km/h
2040 10-08-2008 09:31:02 20.2 C 8.92 g/m*3 20.2 C 0 km/h
2041 10-08-2008 09:43:02 20.3 C 8.97 g/m*3 20.3 C 0 km/h
2042 10-08-2008 09:55:02 20.1 C 9.04 g/m*3 20.1 C 0 km/h
2043 10-08-2008 10:07:02 20 C 9.16 g/m*3 20 C 0 km/h
2044 10-08-2008 10:19:02 19.9 C 9.79 g/m*3 19.9 C 0 km/h
2045 10-08-2008 10:31:02 19.5 C 9.9 g/m*3 19.5 C 0 km/h
2046 10-08-2008 10:43:02 19.6 C 10.13 g/m*3 19.6 C 0 km/h
2047 10-08-2008 10:55:02 20 C 10.02 g/m*3 20 C 0 km/h
2048 10-08-2008 11:07:02 20 C 9.68 g/m*3 20 C 0 km/h
2049 10-08-2008 11:19:02 19 C 10.27 g/m*3 19 C 0 km/h
2050 10-08-2008 11:31:02 18.8 C 10.79 g/m*3 18.8 C 0 km/h
Sensor: Nr:Datum:Temp:Abs-Feuchte:Windchill:Wind:
Aussen-T/F 2051 10-08-2008 11:43:02 18.5 C 10.44 g/m*3 18.5 C 0 km/h
2052 10-08-2008 11:58:02 19.3 C 10.12 g/m*3 19.3 C 0 km/h
2053 10-08-2008 12:10:01 19.6 C 9.96 g/m*3 19.6 C 0 km/h
2054 10-08-2008 12:22:02 20 C 9.68 g/m*3 20 C 0 km/h
2055 10-08-2008 12:34:01 20.7 C 9.9 g/m*3 20.7 C 0 km/h
2056 10-08-2008 12:46:02 20.9 C 9.29 g/m*3 20.9 C 0 km/h
2057 10-08-2008 12:58:02 21.2 C 9.27 g/m*3 21.2 C 0 km/h
2058 10-08-2008 13:10:02 21.5 C 8.86 g/m*3 21.5 C 0 km/h
2059 10-08-2008 13:22:02 21.1 C 9.03 g/m*3 21.1 C 0 km/h
2060 10-08-2008 13:34:02 21.5 C 9.05 g/m*3 21.5 C 0 km/h
2061 10-08-2008 13:46:02 22.3 C 8.49 g/m*3 22.3 C 0 km/h
2062 10-08-2008 13:58:02 22.8 C 8.33 g/m*3 22.8 C 0 km/h
2063 10-08-2008 14:10:02 22.6 C 8.24 g/m*3 22.6 C 0 km/h
2064 10-08-2008 14:22:02 22.4 C 8.14 g/m*3 22.4 C 0 km/h
2065 10-08-2008 14:34:02 21.6 C 8.91 g/m*3 21.6 C 0 km/h
2066 10-08-2008 14:46:02 20.7 C 9.54 g/m*3 20.7 C 0 km/h
2067 10-08-2008 14:58:02 21.5 C 10.18 g/m*3 21.5 C 0 km/h
2068 10-08-2008 15:10:01 22.6 C 9.24 g/m*3 22.6 C 0 km/h
2069 10-08-2008 15:22:02 22.7 C 9.5 g/m*3 22.7 C 0 km/h
2070 10-08-2008 15:34:01 22.6 C 9.84 g/m*3 22.6 C 0 km/h
2071 10-08-2008 15:46:02 22.2 C 8.83 g/m*3 22.2 C 0 km/h
2072 10-08-2008 15:58:02 22.6 C 8.24 g/m*3 22.6 C 0 km/h
2073 10-08-2008 16:10:02 23.2 C 8.11 g/m*3 23.2 C 0 km/h
2074 10-08-2008 16:22:02 24.5 C 8.06 g/m*3 24.5 C 0 km/h
2075 10-08-2008 16:34:02 24 C 7.61 g/m*3 24 C 0 km/h
Sensor: Nr:Datum:Temp:Abs-Feuchte:Windchill:Wind:
Aussen-T/F 2076 10-08-2008 16:46:02 23.8 C 7.74 g/m*3 23.8 C 0 km/h
2077 10-08-2008 16:58:02 24 C 7.4 g/m*3 24 C 0 km/h
2078 10-08-2008 17:10:02 23.8 C 7.74 g/m*3 23.8 C 0 km/h
2079 10-08-2008 17:22:02 23.9 C 7.79 g/m*3 23.9 C 0 km/h
2080 10-08-2008 17:34:01 24 C 7.4 g/m*3 24 C 0 km/h
2081 10-08-2008 17:46:02 23.8 C 7.53 g/m*3 23.8 C 0 km/h
2082 10-08-2008 17:58:02 23.7 C 7.91 g/m*3 23.7 C 0 km/h
2083 10-08-2008 18:10:02 23.5 C 7.61 g/m*3 23.5 C 0 km/h
2084 10-08-2008 18:22:01 23.7 C 7.91 g/m*3 23.7 C 0 km/h
2085 10-08-2008 18:34:03 23.9 C 7.79 g/m*3 23.9 C 0 km/h
2086 10-08-2008 18:46:03 23.6 C 7.87 g/m*3 23.6 C 0 km/h
2087 10-08-2008 18:58:03 23.3 C 8.36 g/m*3 23.3 C 0 km/h
2088 10-08-2008 19:10:02 23.3 C 8.36 g/m*3 23.3 C 0 km/h
2089 10-08-2008 19:22:03 22.9 C 8.58 g/m*3 22.9 C 0 km/h
2090 10-08-2008 19:34:02 22.5 C 8.39 g/m*3 22.5 C 0 km/h
2091 10-08-2008 19:46:02 22.2 C 8.44 g/m*3 22.2 C 0 km/h
2092 10-08-2008 19:58:02 21.9 C 9.07 g/m*3 21.9 C 0 km/h
2093 10-08-2008 20:10:02 21.7 C 8.97 g/m*3 21.7 C 0 km/h
2094 10-08-2008 20:22:02 21.3 C 9.13 g/m*3 21.3 C 0 km/h
2095 10-08-2008 20:34:02 21 C 8.98 g/m*3 21 C 0 km/h
2096 10-08-2008 20:46:02 21 C 9.16 g/m*3 21 C 0 km/h
2097 10-08-2008 20:58:02 20.8 C 9.42 g/m*3 20.8 C 0 km/h
2098 10-08-2008 21:10:03 20.6 C 9.31 g/m*3 20.6 C 0 km/h
2099 10-08-2008 21:22:02 20.6 C 9.31 g/m*3 20.6 C 0 km/h
2100 10-08-2008 21:34:03 20.4 C 9.55 g/m*3 20.4 C 0 km/h
Sensor: Nr:Datum:Temp:Abs-Feuchte:Windchill:Wind:
Aussen-T/F 2101 10-08-2008 21:46:02 20.2 C 9.44 g/m*3 20.2 C 0 km/h
2102 10-08-2008 21:58:03 20 C 9.51 g/m*3 20 C 0 km/h
2103 10-08-2008 22:10:01 19.6 C 9.79 g/m*3 19.6 C 0 km/h
2104 10-08-2008 22:23:02 19.4 C 9.84 g/m*3 19.4 C 0 km/h
2105 10-08-2008 22:35:02 19.1 C 9.84 g/m*3 19.1 C 0 km/h
2106 10-08-2008 22:47:02 19.1 C 10 g/m*3 19.1 C 0 km/h
2107 10-08-2008 22:59:02 19 C 9.78 g/m*3 19 C 0 km/h
2108 10-08-2008 23:11:02 18.8 C 9.82 g/m*3 18.8 C 0 km/h
2109 10-08-2008 23:23:02 18.7 C 9.77 g/m*3 18.7 C 0 km/h
2110 10-08-2008 23:35:03 18.5 C 9.65 g/m*3 18.5 C 0 km/h
2111 10-08-2008 23:47:03 18.4 C 9.44 g/m*3 18.4 C 0 km/h
2112 10-08-2008 23:59:03 18.3 C 9.07 g/m*3 18.3 C 0 km/h
2113 11-08-2008 00:11:03 18.1 C 9.12 g/m*3 18.1 C 0 km/h
2114 11-08-2008 00:23:03 18.1 C 9.27 g/m*3 18.1 C 0 km/h
2115 11-08-2008 00:35:03 18.1 C 9.27 g/m*3 18.1 C 0 km/h
2116 11-08-2008 00:47:03 18.1 C 9.27 g/m*3 18.1 C 0 km/h
2117 11-08-2008 00:59:03 18.2 C 9.33 g/m*3 18.2 C 0 km/h
2118 11-08-2008 01:11:03 18.4 C 9.28 g/m*3 18.4 C 0 km/h
2119 11-08-2008 01:23:03 18.6 C 9.39 g/m*3 18.6 C 0 km/h
2120 11-08-2008 01:35:03 18.7 C 9.45 g/m*3 18.7 C 0 km/h
2121 11-08-2008 01:47:03 18.5 C 9.65 g/m*3 18.5 C 0 km/h
2122 11-08-2008 01:59:03 18.3 C 9.69 g/m*3 18.3 C 0 km/h
2123 11-08-2008 02:11:03 18 C 9.68 g/m*3 18 C 0 km/h
2124 11-08-2008 02:23:03 17.6 C 9.9 g/m*3 17.6 C 0 km/h
2125 11-08-2008 02:35:03 17.3 C 10.02 g/m*3 17.3 C 0 km/h
Sensor: Nr:Datum:Temp:Abs-Feuchte:Windchill:Wind:
Aussen-T/F 2126 11-08-2008 02:47:03 17.4 C 10.23 g/m*3 17.4 C 0 km/h
2127 11-08-2008 02:59:03 17.5 C 10.44 g/m*3 17.5 C 0 km/h
2128 11-08-2008 03:11:03 17.5 C 10.59 g/m*3 17.5 C 0 km/h
2129 11-08-2008 03:23:03 17.5 C 10.59 g/m*3 17.5 C 0 km/h
2130 11-08-2008 03:35:04 17.7 C 10.56 g/m*3 17.7 C 0 km/h
2131 11-08-2008 03:47:04 17.7 C 10.56 g/m*3 17.7 C 0 km/h
2132 11-08-2008 03:59:04 17.5 C 10.44 g/m*3 17.5 C 0 km/h
2133 11-08-2008 04:11:04 17.4 C 10.37 g/m*3 17.4 C 0 km/h
2134 11-08-2008 04:23:04 17.1 C 10.19 g/m*3 17.1 C 0 km/h
2135 11-08-2008 04:35:04 16.8 C 10.15 g/m*3 16.8 C 0 km/h
2136 11-08-2008 04:47:04 16.6 C 10.03 g/m*3 16.6 C 0 km/h
2137 11-08-2008 04:59:04 16 C 9.67 g/m*3 16 C 0 km/h
2138 11-08-2008 05:11:04 15.7 C 9.63 g/m*3 15.7 C 0 km/h
2139 11-08-2008 05:23:04 15.6 C 9.71 g/m*3 15.6 C 0 km/h
2140 11-08-2008 05:35:04 15.9 C 9.62 g/m*3 15.9 C 0 km/h
2141 11-08-2008 05:47:04 15.8 C 9.69 g/m*3 15.8 C 0 km/h
2142 11-08-2008 05:59:04 15.4 C 9.59 g/m*3 15.4 C 0 km/h
2143 11-08-2008 06:11:02 15.1 C 9.68 g/m*3 15.1 C 0 km/h
2144 11-08-2008 06:23:02 14.8 C 9.88 g/m*3 14.8 C 0 km/h
2145 11-08-2008 06:35:02 15 C 10.13 g/m*3 15 C 0 km/h
2146 11-08-2008 06:47:02 15.2 C 10.12 g/m*3 15.2 C 0 km/h
2147 11-08-2008 06:59:02 15 C 10 g/m*3 15 C 0 km/h
2148 11-08-2008 07:11:02 14.9 C 10.2 g/m*3 14.9 C 0 km/h
2149 11-08-2008 07:23:02 14.9 C 10.2 g/m*3 14.9 C 0 km/h
2150 11-08-2008 07:35:02 15 C 10.26 g/m*3 15 C 0 km/h
Sensor: Nr:Datum:Temp:Abs-Feuchte:Windchill:Wind:
Aussen-T/F 2151 11-08-2008 07:47:02 15.4 C 10.51 g/m*3 15.4 C 0 km/h
2152 11-08-2008 07:59:02 15.6 C 10.37 g/m*3 15.6 C 0 km/h
2153 11-08-2008 08:11:01 15.5 C 10.31 g/m*3 15.5 C 0 km/h
2154 11-08-2008 08:23:02 15.9 C 10.56 g/m*3 15.9 C 0 km/h
2155 11-08-2008 08:35:01 16.3 C 10.41 g/m*3 16.3 C 0 km/h
2156 11-08-2008 08:47:02 16.7 C 10.37 g/m*3 16.7 C 0 km/h
2157 11-08-2008 08:59:02 17.5 C 10.14 g/m*3 17.5 C 0 km/h
2158 11-08-2008 09:11:01 18.2 C 10.41 g/m*3 18.2 C 0 km/h
2159 11-08-2008 09:23:02 19.1 C 10.16 g/m*3 19.1 C 0 km/h
2160 11-08-2008 09:35:02 19.6 C 10.13 g/m*3 19.6 C 0 km/h
2161 11-08-2008 09:47:02 20.2 C 9.97 g/m*3 20.2 C 0 km/h
2162 11-08-2008 09:59:03 20.8 C 9.78 g/m*3 20.8 C 0 km/h
2163 11-08-2008 10:11:02 20.9 C 9.47 g/m*3 20.9 C 0 km/h
2164 11-08-2008 10:23:02 21 C 9.53 g/m*3 21 C 0 km/h
2165 11-08-2008 10:35:01 21.3 C 9.51 g/m*3 21.3 C 0 km/h
2166 11-08-2008 10:47:02 21.6 C 8.72 g/m*3 21.6 C 0 km/h
2167 11-08-2008 10:59:02 21.9 C 8.1 g/m*3 21.9 C 0 km/h
2168 11-08-2008 11:11:01 22.4 C 8.14 g/m*3 22.4 C 0 km/h
2169 11-08-2008 11:23:02 22.5 C 7.99 g/m*3 22.5 C 0 km/h
2170 11-08-2008 11:35:01 22.1 C 8.2 g/m*3 22.1 C 0 km/h
2171 11-08-2008 11:47:01 22.6 C 8.84 g/m*3 22.6 C 0 km/h
2172 11-08-2008 11:59:01 22 C 8.73 g/m*3 22 C 0 km/h
2173 11-08-2008 12:11:02 22.7 C 8.49 g/m*3 22.7 C 0 km/h
2174 11-08-2008 12:23:01 23.4 C 8.41 g/m*3 23.4 C 0 km/h
2175 11-08-2008 12:35:02 23.7 C 7.91 g/m*3 23.7 C 0 km/h
Sensor: Nr:Datum:Temp:Abs-Feuchte:Windchill:Wind:
Aussen-T/F 2176 11-08-2008 12:47:02 24.2 C 7.26 g/m*3 24.2 C 0 km/h
2177 11-08-2008 12:59:02 24.1 C 7 g/m*3 24.1 C 0 km/h
2178 11-08-2008 13:11:03 25.2 C 7.22 g/m*3 25.2 C 0 km/h
2179 11-08-2008 13:23:02 25.9 C 6.78 g/m*3 25.9 C 0 km/h
2180 11-08-2008 13:35:02 26 C 6.33 g/m*3 26 C 0 km/h
2181 11-08-2008 13:47:02 25.8 C 6.5 g/m*3 25.8 C 0 km/h
2182 11-08-2008 13:59:02 26.4 C 6.22 g/m*3 26.4 C 0 km/h
2183 11-08-2008 14:11:02 26.2 C 5.91 g/m*3 26.2 C 0 km/h
2184 11-08-2008 14:23:02 26.5 C 6.26 g/m*3 26.5 C 0 km/h
2185 11-08-2008 14:35:02 27.1 C 6.47 g/m*3 27.1 C 0 km/h
2186 11-08-2008 14:47:01 27.2 C 6.25 g/m*3 27.2 C 0 km/h
2187 11-08-2008 14:59:01 27 C 5.66 g/m*3 27 C 0 km/h
2188 11-08-2008 15:11:02 27.8 C 6.72 g/m*3 27.8 C 0 km/h
2189 11-08-2008 15:23:01 27.4 C 5.26 g/m*3 27.4 C 0 km/h
2190 11-08-2008 15:35:02 26.7 C 5.32 g/m*3 26.7 C 0 km/h
2191 11-08-2008 15:47:02 26.7 C 5.82 g/m*3 26.7 C 0 km/h
2192 11-08-2008 15:59:02 26.8 C 5.85 g/m*3 26.8 C 0 km/h
2193 11-08-2008 16:11:01 26.8 C 5.85 g/m*3 26.8 C 0 km/h
2194 11-08-2008 16:23:02 26.2 C 5.91 g/m*3 26.2 C 0 km/h
2195 11-08-2008 16:35:02 26.2 C 6.15 g/m*3 26.2 C 0 km/h
2196 11-08-2008 16:47:02 25.7 C 6.46 g/m*3 25.7 C 0 km/h
2197 11-08-2008 16:59:02 25 C 6.22 g/m*3 25 C 0 km/h
2198 11-08-2008 17:11:01 25 C 6.22 g/m*3 25 C 0 km/h
2199 11-08-2008 17:23:02 24.5 C 6.49 g/m*3 24.5 C 0 km/h
2200 11-08-2008 17:35:01 24.3 C 6.86 g/m*3 24.3 C 0 km/h
Sensor: Nr:Datum:Temp:Abs-Feuchte:Windchill:Wind:
Aussen-T/F 2201 11-08-2008 17:47:02 23.9 C 6.71 g/m*3 23.9 C 0 km/h
2202 11-08-2008 17:59:03 23.9 C 6.49 g/m*3 23.9 C 0 km/h
2203 11-08-2008 18:11:02 23.9 C 6.92 g/m*3 23.9 C 0 km/h
2204 11-08-2008 18:23:02 22.9 C 7.97 g/m*3 22.9 C 0 km/h
2205 11-08-2008 18:35:02 23.3 C 7.95 g/m*3 23.3 C 0 km/h
2206 11-08-2008 18:47:02 23.2 C 8.11 g/m*3 23.2 C 0 km/h
2207 11-08-2008 18:59:02 22.6 C 8.64 g/m*3 22.6 C 0 km/h
2208 11-08-2008 19:11:02 22.7 C 8.28 g/m*3 22.7 C 0 km/h
2209 11-08-2008 19:23:02 22.9 C 8.79 g/m*3 22.9 C 0 km/h
2210 11-08-2008 19:35:01 22.9 C 8.79 g/m*3 22.9 C 0 km/h
2211 11-08-2008 19:47:02 22.5 C 9.19 g/m*3 22.5 C 0 km/h
2212 11-08-2008 19:59:02 22.1 C 8.98 g/m*3 22.1 C 0 km/h
2213 11-08-2008 20:11:02 21.9 C 9.46 g/m*3 21.9 C 0 km/h
2214 11-08-2008 20:23:01 21.5 C 9.43 g/m*3 21.5 C 0 km/h
2215 11-08-2008 20:35:02 21.2 C 9.45 g/m*3 21.2 C 0 km/h
2216 11-08-2008 20:47:02 21.1 C 9.4 g/m*3 21.1 C 0 km/h
2217 11-08-2008 20:59:02 20.6 C 9.84 g/m*3 20.6 C 0 km/h
2218 11-08-2008 21:11:02 20.1 C 9.91 g/m*3 20.1 C 0 km/h
2219 11-08-2008 21:23:02 19.9 C 10.31 g/m*3 19.9 C 0 km/h
2220 11-08-2008 21:35:02 19.7 C 10.19 g/m*3 19.7 C 0 km/h
2221 11-08-2008 21:47:02 19.9 C 10.14 g/m*3 19.9 C 0 km/h
2222 11-08-2008 21:59:02 20.1 C 10.08 g/m*3 20.1 C 0 km/h
2223 11-08-2008 22:11:03 19.8 C 10.25 g/m*3 19.8 C 0 km/h
2224 11-08-2008 22:24:33 19.9 C 10.65 g/m*3 19.9 C 0 km/h
2225 11-08-2008 22:36:33 20 C 10.71 g/m*3 20 C 0 km/h
Sensor: Nr:Datum:Temp:Abs-Feuchte:Windchill:Wind:
Aussen-T/F 2226 11-08-2008 22:48:33 20 C 10.89 g/m*3 20 C 0 km/h
2227 11-08-2008 23:00:33 19.8 C 10.93 g/m*3 19.8 C 0 km/h
2228 11-08-2008 23:12:33 19.9 C 11.17 g/m*3 19.9 C 0 km/h
2229 11-08-2008 23:24:34 19.7 C 11.04 g/m*3 19.7 C 0 km/h
2230 11-08-2008 23:36:34 19.5 C 11.24 g/m*3 19.5 C 0 km/h
2231 11-08-2008 23:48:34 19.1 C 11.64 g/m*3 19.1 C 0 km/h
2232 12-08-2008 00:00:34 18.6 C 11.78 g/m*3 18.6 C 0 km/h
2233 12-08-2008 00:12:34 18.3 C 11.88 g/m*3 18.3 C 0 km/h
2234 12-08-2008 00:24:34 18.2 C 12.12 g/m*3 18.2 C 0 km/h
2235 12-08-2008 00:36:34 17.9 C 12.37 g/m*3 17.9 C 0 km/h
2236 12-08-2008 00:48:34 17.7 C 12.52 g/m*3 17.7 C 0 km/h
2237 12-08-2008 01:00:34 17.3 C 12.37 g/m*3 17.3 C 0 km/h
2238 12-08-2008 01:12:34 17 C 12.3 g/m*3 17 C 0 km/h
2239 12-08-2008 01:24:34 17.2 C 12.59 g/m*3 17.2 C 0 km/h
2240 12-08-2008 01:36:34 17.5 C 12.82 g/m*3 17.5 C 0 km/h
2241 12-08-2008 01:48:34 17.2 C 12.59 g/m*3 17.2 C 0 km/h
2242 12-08-2008 02:00:34 17.1 C 12.66 g/m*3 17.1 C 0 km/h
2243 12-08-2008 02:12:34 17 C 12.59 g/m*3 17 C 0 km/h
2244 12-08-2008 02:24:34 16.8 C 12.58 g/m*3 16.8 C 0 km/h
2245 12-08-2008 02:36:34 16.8 C 12.72 g/m*3 16.8 C 0 km/h
2246 12-08-2008 02:48:34 16.6 C 12.57 g/m*3 16.6 C 0 km/h
2247 12-08-2008 03:00:34 16.7 C 12.65 g/m*3 16.7 C 0 km/h
2248 12-08-2008 03:12:34 16.8 C 12.72 g/m*3 16.8 C 0 km/h
2249 12-08-2008 03:24:34 16.9 C 12.8 g/m*3 16.9 C 0 km/h
2250 12-08-2008 03:36:35 16.8 C 12.58 g/m*3 16.8 C 0 km/h
Sensor: Nr:Datum:Temp:Abs-Feuchte:Windchill:Wind:
Aussen-T/F 2251 12-08-2008 03:48:35 16.4 C 12.28 g/m*3 16.4 C 0 km/h
2252 12-08-2008 04:00:35 16.2 C 12.14 g/m*3 16.2 C 0 km/h
2253 12-08-2008 04:12:35 16 C 11.85 g/m*3 16 C 0 km/h
2254 12-08-2008 04:24:35 15.8 C 11.85 g/m*3 15.8 C 0 km/h
2255 12-08-2008 04:36:35 16 C 11.99 g/m*3 16 C 0 km/h
2256 12-08-2008 04:48:35 15.8 C 11.98 g/m*3 15.8 C 0 km/h
2257 12-08-2008 05:00:35 16 C 11.99 g/m*3 16 C 0 km/h
2258 12-08-2008 05:12:35 16.3 C 12.21 g/m*3 16.3 C 0 km/h
2259 12-08-2008 05:24:35 16.2 C 12.14 g/m*3 16.2 C 0 km/h
2260 12-08-2008 05:36:35 16.2 C 12 g/m*3 16.2 C 0 km/h
2261 12-08-2008 05:48:35 16.2 C 12 g/m*3 16.2 C 0 km/h
2262 12-08-2008 06:00:35 16.1 C 11.93 g/m*3 16.1 C 0 km/h
2263 12-08-2008 06:12:35 16 C 11.85 g/m*3 16 C 0 km/h
2264 12-08-2008 06:24:35 16 C 11.85 g/m*3 16 C 0 km/h
2265 12-08-2008 06:36:35 16.1 C 12.06 g/m*3 16.1 C 0 km/h
2266 12-08-2008 06:48:35 16 C 11.85 g/m*3 16 C 0 km/h
2267 12-08-2008 07:00:35 16.1 C 12.06 g/m*3 16.1 C 0 km/h
2268 12-08-2008 07:12:04 16.1 C 12.06 g/m*3 16.1 C 0 km/h
2269 12-08-2008 07:24:03 16.1 C 12.06 g/m*3 16.1 C 0 km/h
2270 12-08-2008 07:36:03 16.2 C 12.14 g/m*3 16.2 C 0 km/h
2271 12-08-2008 07:48:02 16.2 C 12.27 g/m*3 16.2 C 0 km/h
2272 12-08-2008 08:00:02 16.2 C 12.27 g/m*3 16.2 C 0 km/h
2273 12-08-2008 08:12:02 16.6 C 12.71 g/m*3 16.6 C 0 km/h
2274 12-08-2008 08:24:02 16.8 C 12.87 g/m*3 16.8 C 0 km/h
2275 12-08-2008 08:36:02 16.8 C 12.72 g/m*3 16.8 C 0 km/h
Sensor: Nr:Datum:Temp:Abs-Feuchte:Windchill:Wind:
Aussen-T/F 2276 12-08-2008 08:48:02 16.9 C 12.8 g/m*3 16.9 C 0 km/h
2277 12-08-2008 09:00:02 16.6 C 12.57 g/m*3 16.6 C 0 km/h
2278 12-08-2008 09:12:02 16.6 C 12.71 g/m*3 16.6 C 0 km/h
2279 12-08-2008 09:24:02 16.9 C 12.94 g/m*3 16.9 C 0 km/h
2280 12-08-2008 09:36:03 17 C 12.88 g/m*3 17 C 0 km/h
2281 12-08-2008 09:48:02 17.2 C 13.03 g/m*3 17.2 C 0 km/h
2282 12-08-2008 10:00:02 17.2 C 13.03 g/m*3 17.2 C 0 km/h
2283 12-08-2008 10:12:02 17.3 C 12.96 g/m*3 17.3 C 0 km/h
2284 12-08-2008 10:24:02 17.4 C 13.04 g/m*3 17.4 C 0 km/h
2285 12-08-2008 10:36:02 17.6 C 13.2 g/m*3 17.6 C 0 km/h
2286 12-08-2008 10:48:02 17.6 C 13.35 g/m*3 17.6 C 0 km/h
2287 12-08-2008 11:00:02 17.9 C 13.59 g/m*3 17.9 C 0 km/h
2288 12-08-2008 11:12:02 18 C 13.52 g/m*3 18 C 0 km/h
2289 12-08-2008 11:24:02 18.2 C 13.68 g/m*3 18.2 C 0 km/h
2290 12-08-2008 11:36:02 18.4 C 13.84 g/m*3 18.4 C 0 km/h
2291 12-08-2008 11:48:02 18.9 C 14.26 g/m*3 18.9 C 0 km/h
2292 12-08-2008 12:00:02 19.5 C 14.27 g/m*3 19.5 C 0 km/h
2293 12-08-2008 12:12:01 19.7 C 14.09 g/m*3 19.7 C 0 km/h
2294 12-08-2008 12:24:02 20.5 C 14.41 g/m*3 20.5 C 0 km/h
2295 12-08-2008 12:36:01 21.1 C 14.19 g/m*3 21.1 C 0 km/h
2296 12-08-2008 12:48:01 21.9 C 14.09 g/m*3 21.9 C 0 km/h
2297 12-08-2008 13:00:01 22.4 C 13.7 g/m*3 22.4 C 0 km/h
2298 12-08-2008 13:12:02 22.1 C 13.27 g/m*3 22.1 C 0 km/h
2299 12-08-2008 13:24:01 22.4 C 13.31 g/m*3 22.4 C 0 km/h
2300 12-08-2008 13:36:02 21.8 C 13.24 g/m*3 21.8 C 0 km/h
Sensor: Nr:Datum:Temp:Abs-Feuchte:Windchill:Wind:
Aussen-T/F 2301 12-08-2008 13:48:02 21.3 C 13.42 g/m*3 21.3 C 0 km/h
2302 12-08-2008 14:00:02 20.7 C 13.68 g/m*3 20.7 C 0 km/h
2303 12-08-2008 14:12:02 21.2 C 13.9 g/m*3 21.2 C 0 km/h
2304 12-08-2008 14:24:02 22.2 C 13.55 g/m*3 22.2 C 0 km/h
2305 12-08-2008 14:36:02 23.4 C 13.46 g/m*3 23.4 C 0 km/h
2306 12-08-2008 14:48:02 23.5 C 13.11 g/m*3 23.5 C 0 km/h
2307 12-08-2008 15:00:02 22.8 C 12.4 g/m*3 22.8 C 0 km/h
2308 12-08-2008 15:12:02 22.9 C 12.47 g/m*3 22.9 C 0 km/h
2309 12-08-2008 15:24:02 22.2 C 12.17 g/m*3 22.2 C 0 km/h
2310 12-08-2008 15:36:03 21.4 C 12.75 g/m*3 21.4 C 0 km/h
2311 12-08-2008 15:48:02 20.6 C 13.07 g/m*3 20.6 C 0 km/h
2312 12-08-2008 16:00:02 19.7 C 13.92 g/m*3 19.7 C 0 km/h
2313 12-08-2008 16:12:03 19.9 C 14.43 g/m*3 19.9 C 0 km/h
2314 12-08-2008 16:24:02 20.9 C 14.93 g/m*3 20.9 C 0 km/h
2315 12-08-2008 16:36:03 21.5 C 14.9 g/m*3 21.5 C 0 km/h
2316 12-08-2008 16:48:02 21.2 C 12.97 g/m*3 21.2 C 0 km/h
2317 12-08-2008 17:00:02 21.6 C 12.52 g/m*3 21.6 C 0 km/h
2318 12-08-2008 17:12:02 21.5 C 12.45 g/m*3 21.5 C 0 km/h
2319 12-08-2008 17:24:02 21.5 C 12.07 g/m*3 21.5 C 0 km/h
2320 12-08-2008 17:36:02 21.3 C 12.86 g/m*3 21.3 C 0 km/h
2321 12-08-2008 17:48:02 21.4 C 12.37 g/m*3 21.4 C 0 km/h
2322 12-08-2008 18:00:02 21.4 C 12 g/m*3 21.4 C 0 km/h
2323 12-08-2008 18:12:02 21.3 C 11.93 g/m*3 21.3 C 0 km/h
2324 12-08-2008 18:24:02 21.5 C 12.26 g/m*3 21.5 C 0 km/h
2325 12-08-2008 18:36:03 21.9 C 12.16 g/m*3 21.9 C 0 km/h
Sensor: Nr:Datum:Temp:Abs-Feuchte:Windchill:Wind:
Aussen-T/F 2326 12-08-2008 18:48:02 21.8 C 11.32 g/m*3 21.8 C 0 km/h
2327 12-08-2008 19:00:02 21.9 C 11.39 g/m*3 21.9 C 0 km/h
2328 12-08-2008 19:12:02 22.3 C 11.65 g/m*3 22.3 C 0 km/h
2329 12-08-2008 19:24:02 22.6 C 11.05 g/m*3 22.6 C 0 km/h
2330 12-08-2008 19:36:02 22.5 C 10.79 g/m*3 22.5 C 0 km/h
2331 12-08-2008 19:48:02 22.6 C 10.65 g/m*3 22.6 C 0 km/h
2332 12-08-2008 20:00:02 22.5 C 10.39 g/m*3 22.5 C 0 km/h
2333 12-08-2008 20:12:01 22.8 C 10.36 g/m*3 22.8 C 0 km/h
2334 12-08-2008 20:24:02 22.5 C 10.39 g/m*3 22.5 C 0 km/h
2335 12-08-2008 20:36:01 21.8 C 10.55 g/m*3 21.8 C 0 km/h
2336 12-08-2008 20:48:01 21.2 C 10.56 g/m*3 21.2 C 0 km/h
2337 12-08-2008 21:00:01 20.7 C 10.62 g/m*3 20.7 C 0 km/h
2338 12-08-2008 21:12:02 20.2 C 10.84 g/m*3 20.2 C 0 km/h
2339 12-08-2008 21:24:02 20 C 11.06 g/m*3 20 C 0 km/h
2340 12-08-2008 21:36:02 19.7 C 11.38 g/m*3 19.7 C 0 km/h
2341 12-08-2008 21:48:03 19.4 C 11.68 g/m*3 19.4 C 0 km/h
2342 12-08-2008 22:00:03 19.1 C 11.8 g/m*3 19.1 C 0 km/h
2343 12-08-2008 22:12:02 19 C 11.57 g/m*3 19 C 0 km/h
2344 12-08-2008 22:24:02 18.9 C 11.83 g/m*3 18.9 C 0 km/h
2345 12-08-2008 22:36:02 18.6 C 11.62 g/m*3 18.6 C 0 km/h
2346 12-08-2008 22:48:02 18.4 C 11.48 g/m*3 18.4 C 0 km/h
2347 12-08-2008 23:00:03 18.6 C 11.46 g/m*3 18.6 C 0 km/h
2348 12-08-2008 23:12:02 18.9 C 11.18 g/m*3 18.9 C 0 km/h
2349 12-08-2008 23:25:03 19.3 C 11.11 g/m*3 19.3 C 0 km/h
2350 12-08-2008 23:37:03 16.6 C 9.89 g/m*3 16.6 C 0 km/h
Sensor: Nr:Datum:Temp:Abs-Feuchte:Windchill:Wind:
Aussen-T/F 2351 12-08-2008 23:49:03 15.6 C 9.97 g/m*3 15.6 C 0 km/h
2352 13-08-2008 00:01:03 15.2 C 9.99 g/m*3 15.2 C 0 km/h
2353 13-08-2008 00:13:03 15 C 10.26 g/m*3 15 C 0 km/h
2354 13-08-2008 00:25:03 14.7 C 10.2 g/m*3 14.7 C 0 km/h
2355 13-08-2008 00:37:03 14.4 C 10.14 g/m*3 14.4 C 0 km/h
2356 13-08-2008 00:49:04 14.2 C 10.14 g/m*3 14.2 C 0 km/h
2357 13-08-2008 01:01:04 14.2 C 10.26 g/m*3 14.2 C 0 km/h
2358 13-08-2008 01:13:04 14.3 C 10.44 g/m*3 14.3 C 0 km/h
2359 13-08-2008 01:25:04 14.3 C 10.57 g/m*3 14.3 C 0 km/h
2360 13-08-2008 01:37:04 14.3 C 10.57 g/m*3 14.3 C 0 km/h
2361 13-08-2008 01:49:04 14.6 C 10.76 g/m*3 14.6 C 0 km/h
2362 13-08-2008 02:01:04 14.6 C 10.76 g/m*3 14.6 C 0 km/h
2363 13-08-2008 02:13:04 14.7 C 10.83 g/m*3 14.7 C 0 km/h
2364 13-08-2008 02:25:04 14.5 C 10.7 g/m*3 14.5 C 0 km/h
2365 13-08-2008 02:37:04 14.3 C 10.57 g/m*3 14.3 C 0 km/h
2366 13-08-2008 02:49:04 14.2 C 10.5 g/m*3 14.2 C 0 km/h
2367 13-08-2008 03:01:04 14.2 C 10.62 g/m*3 14.2 C 0 km/h
2368 13-08-2008 03:13:04 14.3 C 10.81 g/m*3 14.3 C 0 km/h
2369 13-08-2008 03:25:04 14.3 C 10.81 g/m*3 14.3 C 0 km/h
2370 13-08-2008 03:37:04 14.3 C 10.69 g/m*3 14.3 C 0 km/h
2371 13-08-2008 03:49:04 14.2 C 10.62 g/m*3 14.2 C 0 km/h
2372 13-08-2008 04:01:04 14.1 C 10.56 g/m*3 14.1 C 0 km/h
2373 13-08-2008 04:13:04 14.4 C 10.38 g/m*3 14.4 C 0 km/h
2374 13-08-2008 04:25:04 14.7 C 10.07 g/m*3 14.7 C 0 km/h
2375 13-08-2008 04:37:04 15 C 9.49 g/m*3 15 C 0 km/h
Sensor: Nr:Datum:Temp:Abs-Feuchte:Windchill:Wind:
Aussen-T/F 2376 13-08-2008 04:49:05 15.4 C 9.2 g/m*3 15.4 C 0 km/h
2377 13-08-2008 05:01:05 15.2 C 9.09 g/m*3 15.2 C 0 km/h
2378 13-08-2008 05:13:05 15.4 C 8.93 g/m*3 15.4 C 0 km/h
2379 13-08-2008 05:25:05 15.4 C 8.93 g/m*3 15.4 C 0 km/h
2380 13-08-2008 05:37:05 15.6 C 8.78 g/m*3 15.6 C 0 km/h
2381 13-08-2008 05:49:05 15.8 C 8.62 g/m*3 15.8 C 0 km/h
2382 13-08-2008 06:01:05 15.8 C 8.62 g/m*3 15.8 C 0 km/h
2383 13-08-2008 06:13:05 15.9 C 8.53 g/m*3 15.9 C 0 km/h
2384 13-08-2008 06:25:05 15.9 C 8.53 g/m*3 15.9 C 0 km/h
2385 13-08-2008 06:37:03 15.9 C 8.53 g/m*3 15.9 C 0 km/h
2386 13-08-2008 06:49:02 15.7 C 8.43 g/m*3 15.7 C 0 km/h
2387 13-08-2008 07:01:02 15.8 C 8.48 g/m*3 15.8 C 0 km/h
2388 13-08-2008 07:13:02 15.9 C 8.53 g/m*3 15.9 C 0 km/h
2389 13-08-2008 07:25:03 15.9 C 8.53 g/m*3 15.9 C 0 km/h
2390 13-08-2008 07:37:02 16.4 C 8.51 g/m*3 16.4 C 0 km/h
2391 13-08-2008 07:49:02 16.6 C 8.33 g/m*3 16.6 C 0 km/h
2392 13-08-2008 08:01:02 16.5 C 8.43 g/m*3 16.5 C 0 km/h
2393 13-08-2008 08:13:02 16.6 C 8.33 g/m*3 16.6 C 0 km/h
2394 13-08-2008 08:25:02 16.8 C 8.44 g/m*3 16.8 C 0 km/h
2395 13-08-2008 08:37:02 16.9 C 8.2 g/m*3 16.9 C 0 km/h
2396 13-08-2008 08:49:01 16.8 C 8.15 g/m*3 16.8 C 0 km/h
2397 13-08-2008 09:01:02 17.1 C 8.01 g/m*3 17.1 C 0 km/h
2398 13-08-2008 09:13:02 17.4 C 8.15 g/m*3 17.4 C 0 km/h
2399 13-08-2008 09:25:02 17.7 C 8 g/m*3 17.7 C 0 km/h
2400 13-08-2008 09:37:02 17.6 C 8.1 g/m*3 17.6 C 0 km/h
Sensor: Nr:Datum:Temp:Abs-Feuchte:Windchill:Wind:
Aussen-T/F 2401 13-08-2008 09:49:02 17.6 C 7.95 g/m*3 17.6 C 0 km/h
2402 13-08-2008 10:01:02 18.1 C 7.88 g/m*3 18.1 C 0 km/h
2403 13-08-2008 10:13:03 18.3 C 7.82 g/m*3 18.3 C 0 km/h
2404 13-08-2008 10:25:02 18.3 C 7.97 g/m*3 18.3 C 0 km/h
2405 13-08-2008 10:37:02 18.5 C 7.91 g/m*3 18.5 C 0 km/h
2406 13-08-2008 10:49:02 17 C 8.54 g/m*3 17 C 0 km/h
2407 13-08-2008 11:01:03 17.2 C 9.08 g/m*3 17.2 C 0 km/h
2408 13-08-2008 11:13:03 18.1 C 9.12 g/m*3 18.1 C 0 km/h
2409 13-08-2008 11:25:02 18.3 C 8.6 g/m*3 18.3 C 0 km/h
2410 13-08-2008 11:37:03 19.3 C 8.46 g/m*3 19.3 C 0 km/h
2411 13-08-2008 11:49:02 19.7 C 8.15 g/m*3 19.7 C 0 km/h
2412 13-08-2008 12:01:02 20 C 8.12 g/m*3 20 C 0 km/h
2413 13-08-2008 12:13:02 20 C 7.78 g/m*3 20 C 0 km/h
2414 13-08-2008 12:25:02 19.7 C 7.47 g/m*3 19.7 C 0 km/h
2415 13-08-2008 12:37:02 20.7 C 7.74 g/m*3 20.7 C 0 km/h
2416 13-08-2008 12:49:03 21.3 C 7.46 g/m*3 21.3 C 0 km/h
2417 13-08-2008 13:01:02 20.8 C 7.24 g/m*3 20.8 C 0 km/h
2418 13-08-2008 13:13:02 21.2 C 7.41 g/m*3 21.2 C 0 km/h
2419 13-08-2008 13:25:02 21.4 C 7.5 g/m*3 21.4 C 0 km/h
2420 13-08-2008 13:37:02 21.2 C 7.41 g/m*3 21.2 C 0 km/h
2421 13-08-2008 13:49:02 21.2 C 7.41 g/m*3 21.2 C 0 km/h
2422 13-08-2008 14:01:02 21.6 C 7.59 g/m*3 21.6 C 0 km/h
2423 13-08-2008 14:13:02 21.7 C 7.82 g/m*3 21.7 C 0 km/h
2424 13-08-2008 14:25:02 22.5 C 7.59 g/m*3 22.5 C 0 km/h
2425 13-08-2008 14:37:02 22 C 7.38 g/m*3 22 C 0 km/h
Sensor: Nr:Datum:Temp:Abs-Feuchte:Windchill:Wind:
Aussen-T/F 2426 13-08-2008 14:49:02 21.6 C 7.59 g/m*3 21.6 C 0 km/h
2427 13-08-2008 15:01:02 19.1 C 6.56 g/m*3 19.1 C 0 km/h
2428 13-08-2008 15:13:02 19.1 C 10.98 g/m*3 19.1 C 0 km/h
2429 13-08-2008 15:25:02 20.5 C 10.32 g/m*3 20.5 C 0 km/h
2430 13-08-2008 15:37:02 20.4 C 9.38 g/m*3 20.4 C 0 km/h
2431 13-08-2008 15:49:02 22.2 C 8.83 g/m*3 22.2 C 0 km/h
2432 13-08-2008 16:01:02 22.6 C 8.24 g/m*3 22.6 C 0 km/h
2433 13-08-2008 16:13:02 23.6 C 7.87 g/m*3 23.6 C 0 km/h
2434 13-08-2008 16:25:02 23.5 C 6.98 g/m*3 23.5 C 0 km/h
2435 13-08-2008 16:37:02 23.8 C 6.88 g/m*3 23.8 C 0 km/h
2436 13-08-2008 16:49:02 24.3 C 6.86 g/m*3 24.3 C 0 km/h
2437 13-08-2008 17:01:02 24.1 C 6.35 g/m*3 24.1 C 0 km/h
2438 13-08-2008 17:13:02 23.5 C 6.56 g/m*3 23.5 C 0 km/h
2439 13-08-2008 17:25:02 24.3 C 6.64 g/m*3 24.3 C 0 km/h
2440 13-08-2008 17:37:02 23.8 C 6.45 g/m*3 23.8 C 0 km/h
2441 13-08-2008 17:49:02 23.4 C 6.52 g/m*3 23.4 C 0 km/h
2442 13-08-2008 18:01:02 23.3 C 6.48 g/m*3 23.3 C 0 km/h
2443 13-08-2008 18:13:02 23.6 C 6.59 g/m*3 23.6 C 0 km/h
2444 13-08-2008 18:25:02 23.5 C 6.56 g/m*3 23.5 C 0 km/h
2445 13-08-2008 18:37:02 22.6 C 6.63 g/m*3 22.6 C 0 km/h
2446 13-08-2008 18:49:02 22 C 6.79 g/m*3 22 C 0 km/h
2447 13-08-2008 19:01:02 21.6 C 7.59 g/m*3 21.6 C 0 km/h
2448 13-08-2008 19:13:02 21.7 C 7.25 g/m*3 21.7 C 0 km/h
2449 13-08-2008 19:25:02 21.6 C 6.83 g/m*3 21.6 C 0 km/h
2450 13-08-2008 19:37:02 21.3 C 6.9 g/m*3 21.3 C 0 km/h
Sensor: Nr:Datum:Temp:Abs-Feuchte:Windchill:Wind:
Aussen-T/F 2451 13-08-2008 19:49:01 21.2 C 7.04 g/m*3 21.2 C 0 km/h
2452 13-08-2008 20:01:02 19.4 C 8.01 g/m*3 19.4 C 0 km/h
2453 13-08-2008 20:13:02 19.5 C 8.39 g/m*3 19.5 C 0 km/h
2454 13-08-2008 20:25:01 19.5 C 8.56 g/m*3 19.5 C 0 km/h
2455 13-08-2008 20:37:02 19.6 C 8.44 g/m*3 19.6 C 0 km/h
2456 13-08-2008 20:49:02 19.5 C 8.39 g/m*3 19.5 C 0 km/h
2457 13-08-2008 21:01:02 19.7 C 6.96 g/m*3 19.7 C 0 km/h
2458 13-08-2008 21:13:02 19.8 C 6.83 g/m*3 19.8 C 0 km/h
2459 13-08-2008 21:25:02 19.5 C 6.88 g/m*3 19.5 C 0 km/h
2460 13-08-2008 21:37:03 18.8 C 7.41 g/m*3 18.8 C 0 km/h
2461 13-08-2008 21:50:04 18.7 C 7.52 g/m*3 18.7 C 0 km/h
2462 13-08-2008 22:02:04 18.3 C 7.66 g/m*3 18.3 C 0 km/h
2463 13-08-2008 22:14:04 18.3 C 7.66 g/m*3 18.3 C 0 km/h
2464 13-08-2008 22:26:04 18.4 C 7.55 g/m*3 18.4 C 0 km/h
2465 13-08-2008 22:38:04 18 C 7.68 g/m*3 18 C 0 km/h
2466 13-08-2008 22:50:04 17.8 C 7.89 g/m*3 17.8 C 0 km/h
2467 13-08-2008 23:02:04 17.8 C 7.74 g/m*3 17.8 C 0 km/h
2468 13-08-2008 23:14:04 17.4 C 7.85 g/m*3 17.4 C 0 km/h
2469 13-08-2008 23:26:04 17.3 C 7.96 g/m*3 17.3 C 0 km/h
2470 13-08-2008 23:38:04 17.1 C 8.01 g/m*3 17.1 C 0 km/h
2471 13-08-2008 23:50:04 17 C 8.25 g/m*3 17 C 0 km/h
2472 14-08-2008 00:02:04 17.1 C 8.3 g/m*3 17.1 C 0 km/h
2473 14-08-2008 00:14:04 16.8 C 8.29 g/m*3 16.8 C 0 km/h
2474 14-08-2008 00:26:04 16.4 C 8.23 g/m*3 16.4 C 0 km/h
2475 14-08-2008 00:38:04 16.2 C 8.27 g/m*3 16.2 C 0 km/h
Sensor: Nr:Datum:Temp:Abs-Feuchte:Windchill:Wind:
Aussen-T/F 2476 14-08-2008 00:50:04 16.4 C 8.51 g/m*3 16.4 C 0 km/h
2477 14-08-2008 01:02:04 16.4 C 8.51 g/m*3 16.4 C 0 km/h
2478 14-08-2008 01:14:04 16.4 C 8.65 g/m*3 16.4 C 0 km/h
2479 14-08-2008 01:26:05 16.1 C 8.5 g/m*3 16.1 C 0 km/h
2480 14-08-2008 01:38:05 15.9 C 8.67 g/m*3 15.9 C 0 km/h
2481 14-08-2008 01:50:05 15.8 C 8.62 g/m*3 15.8 C 0 km/h
2482 14-08-2008 02:02:05 16 C 8.58 g/m*3 16 C 0 km/h
2483 14-08-2008 02:14:05 16 C 8.58 g/m*3 16 C 0 km/h
2484 14-08-2008 02:26:05 15.8 C 8.62 g/m*3 15.8 C 0 km/h
2485 14-08-2008 02:38:05 15.4 C 8.67 g/m*3 15.4 C 0 km/h
2486 14-08-2008 02:50:05 15.3 C 8.88 g/m*3 15.3 C 0 km/h
2487 14-08-2008 03:02:05 15.1 C 8.77 g/m*3 15.1 C 0 km/h
2488 14-08-2008 03:14:05 15 C 8.85 g/m*3 15 C 0 km/h
2489 14-08-2008 03:26:05 14.9 C 8.92 g/m*3 14.9 C 0 km/h
2490 14-08-2008 03:38:05 14.8 C 8.99 g/m*3 14.8 C 0 km/h
2491 14-08-2008 03:50:05 14.7 C 8.94 g/m*3 14.7 C 0 km/h
2492 14-08-2008 04:02:05 14.5 C 8.95 g/m*3 14.5 C 0 km/h
2493 14-08-2008 04:14:05 14.5 C 9.08 g/m*3 14.5 C 0 km/h
2494 14-08-2008 04:26:05 14.3 C 8.97 g/m*3 14.3 C 0 km/h
2495 14-08-2008 04:38:05 14.1 C 8.98 g/m*3 14.1 C 0 km/h
2496 14-08-2008 04:50:05 13.9 C 8.99 g/m*3 13.9 C 0 km/h
2497 14-08-2008 05:02:05 13.9 C 9.11 g/m*3 13.9 C 0 km/h
2498 14-08-2008 05:14:05 13.8 C 9.17 g/m*3 13.8 C 0 km/h
2499 14-08-2008 05:26:05 13.6 C 9.06 g/m*3 13.6 C 0 km/h
2500 14-08-2008 05:38:06 13.6 C 9.06 g/m*3 13.6 C 0 km/h
Sensor: Nr:Datum:Temp:Abs-Feuchte:Windchill:Wind:
Aussen-T/F 2501 14-08-2008 05:50:06 13.5 C 9.12 g/m*3 13.5 C 0 km/h
2502 14-08-2008 06:02:06 13.6 C 9.06 g/m*3 13.6 C 0 km/h
2503 14-08-2008 06:14:06 13.6 C 9.06 g/m*3 13.6 C 0 km/h
2504 14-08-2008 06:26:03 13.7 C 9.12 g/m*3 13.7 C 0 km/h
2505 14-08-2008 06:38:04 13.7 C 9.12 g/m*3 13.7 C 0 km/h
2506 14-08-2008 06:50:02 13.7 C 9.12 g/m*3 13.7 C 0 km/h
2507 14-08-2008 07:02:02 13.8 C 9.06 g/m*3 13.8 C 0 km/h
2508 14-08-2008 07:14:02 13.8 C 9.06 g/m*3 13.8 C 0 km/h
2509 14-08-2008 07:26:02 13.8 C 9.06 g/m*3 13.8 C 0 km/h
2510 14-08-2008 07:38:01 14 C 9.05 g/m*3 14 C 0 km/h
2511 14-08-2008 07:50:02 14.1 C 9.1 g/m*3 14.1 C 0 km/h
2512 14-08-2008 08:02:01 14.3 C 8.97 g/m*3 14.3 C 0 km/h
2513 14-08-2008 08:14:01 14.5 C 9.08 g/m*3 14.5 C 0 km/h
2514 14-08-2008 08:26:02 14.6 C 9.13 g/m*3 14.6 C 0 km/h
2515 14-08-2008 08:38:01 14.9 C 9.05 g/m*3 14.9 C 0 km/h
2516 14-08-2008 08:50:02 15.4 C 8.41 g/m*3 15.4 C 0 km/h
2517 14-08-2008 09:02:01 15.8 C 8.21 g/m*3 15.8 C 0 km/h
2518 14-08-2008 09:14:01 16.1 C 7.95 g/m*3 16.1 C 0 km/h
2519 14-08-2008 09:26:02 16.4 C 7.82 g/m*3 16.4 C 0 km/h
2520 14-08-2008 09:38:02 16.8 C 7.15 g/m*3 16.8 C 0 km/h
2521 14-08-2008 09:50:02 17.1 C 7.13 g/m*3 17.1 C 0 km/h
2522 14-08-2008 10:02:02 17.4 C 7.11 g/m*3 17.4 C 0 km/h
2523 14-08-2008 10:14:02 17.8 C 7.13 g/m*3 17.8 C 0 km/h
2524 14-08-2008 10:26:01 18.1 C 7.11 g/m*3 18.1 C 0 km/h
2525 14-08-2008 10:38:02 18.3 C 6.88 g/m*3 18.3 C 0 km/h
Sensor: Nr:Datum:Temp:Abs-Feuchte:Windchill:Wind:
Aussen-T/F 2526 14-08-2008 10:50:02 18.8 C 7.09 g/m*3 18.8 C 0 km/h
2527 14-08-2008 11:02:02 19.1 C 7.05 g/m*3 19.1 C 0 km/h
2528 14-08-2008 11:14:02 19.5 C 7.05 g/m*3 19.5 C 0 km/h
2529 14-08-2008 11:26:02 19.8 C 7 g/m*3 19.8 C 0 km/h
2530 14-08-2008 11:38:02 20.3 C 7.03 g/m*3 20.3 C 0 km/h
2531 14-08-2008 11:50:02 20.4 C 6.72 g/m*3 20.4 C 0 km/h
2532 14-08-2008 12:02:02 20.8 C 6.34 g/m*3 20.8 C 0 km/h
2533 14-08-2008 12:14:02 21.2 C 6.12 g/m*3 21.2 C 0 km/h
2534 14-08-2008 12:26:01 22 C 6.02 g/m*3 22 C 0 km/h
2535 14-08-2008 12:38:02 21.9 C 5.79 g/m*3 21.9 C 0 km/h
2536 14-08-2008 12:50:02 22 C 5.43 g/m*3 22 C 0 km/h
2537 14-08-2008 13:02:02 22.9 C 6.13 g/m*3 22.9 C 0 km/h
2538 14-08-2008 13:14:02 23.2 C 6.03 g/m*3 23.2 C 0 km/h
2539 14-08-2008 13:26:02 23.4 C 6.31 g/m*3 23.4 C 0 km/h
2540 14-08-2008 13:38:02 24 C 6.09 g/m*3 24 C 0 km/h
2541 14-08-2008 13:50:02 23.4 C 6.31 g/m*3 23.4 C 0 km/h
2542 14-08-2008 14:02:01 23.4 C 5.89 g/m*3 23.4 C 0 km/h
2543 14-08-2008 14:14:01 23.1 C 5.79 g/m*3 23.1 C 0 km/h
2544 14-08-2008 14:26:02 23 C 5.76 g/m*3 23 C 0 km/h
2545 14-08-2008 14:38:01 23.4 C 6.1 g/m*3 23.4 C 0 km/h
2546 14-08-2008 14:50:02 24.1 C 5.69 g/m*3 24.1 C 0 km/h
2547 14-08-2008 15:02:01 24.3 C 5.53 g/m*3 24.3 C 0 km/h
2548 14-08-2008 15:14:01 24.2 C 5.5 g/m*3 24.2 C 0 km/h
2549 14-08-2008 15:26:02 24.4 C 5.56 g/m*3 24.4 C 0 km/h
2550 14-08-2008 15:38:01 24.5 C 5.6 g/m*3 24.5 C 0 km/h
Sensor: Nr:Datum:Temp:Abs-Feuchte:Windchill:Wind:
Aussen-T/F 2551 14-08-2008 15:50:01 24.8 C 5.46 g/m*3 24.8 C 0 km/h
2552 14-08-2008 16:02:01 25.2 C 5.35 g/m*3 25.2 C 0 km/h
2553 14-08-2008 16:14:01 25.1 C 5.56 g/m*3 25.1 C 0 km/h
2554 14-08-2008 16:26:01 25.5 C 5.21 g/m*3 25.5 C 0 km/h
2555 14-08-2008 16:38:01 25.6 C 5 g/m*3 25.6 C 0 km/h
2556 14-08-2008 16:50:01 26.2 C 5.17 g/m*3 26.2 C 0 km/h
2557 14-08-2008 17:02:02 25.1 C 5.09 g/m*3 25.1 C 0 km/h
2558 14-08-2008 17:14:03 26.7 C 5.06 g/m*3 26.7 C 0 km/h
2559 14-08-2008 17:26:01 26.5 C 5.01 g/m*3 26.5 C 0 km/h
2560 14-08-2008 17:38:02 26.7 C 5.06 g/m*3 26.7 C 0 km/h
2561 14-08-2008 17:50:01 26.6 C 5.03 g/m*3 26.6 C 0 km/h
2562 14-08-2008 18:02:02 26.7 C 5.06 g/m*3 26.7 C 0 km/h
2563 14-08-2008 18:14:02 26.8 C 5.09 g/m*3 26.8 C 0 km/h
2564 14-08-2008 18:26:01 26.8 C 5.09 g/m*3 26.8 C 0 km/h
2565 14-08-2008 18:38:02 26.2 C 4.92 g/m*3 26.2 C 0 km/h
2566 14-08-2008 18:50:02 26.4 C 4.98 g/m*3 26.4 C 0 km/h
2567 14-08-2008 19:02:02 25.8 C 4.82 g/m*3 25.8 C 0 km/h
2568 14-08-2008 19:14:02 25.1 C 5.09 g/m*3 25.1 C 0 km/h
2569 14-08-2008 19:26:02 23.8 C 5.59 g/m*3 23.8 C 0 km/h
2570 14-08-2008 19:38:02 23.7 C 5.56 g/m*3 23.7 C 0 km/h
2571 14-08-2008 19:50:01 23.6 C 5.96 g/m*3 23.6 C 0 km/h
2572 14-08-2008 20:02:02 22.8 C 5.69 g/m*3 22.8 C 0 km/h
2573 14-08-2008 20:14:02 22.6 C 6.03 g/m*3 22.6 C 0 km/h
2574 14-08-2008 20:26:01 21.8 C 5.95 g/m*3 21.8 C 0 km/h
2575 14-08-2008 20:38:02 20.9 C 6.19 g/m*3 20.9 C 0 km/h
Sensor: Nr:Datum:Temp:Abs-Feuchte:Windchill:Wind:
Aussen-T/F 2576 14-08-2008 20:50:02 20.5 C 6.23 g/m*3 20.5 C 0 km/h
2577 14-08-2008 21:02:02 19.9 C 6.19 g/m*3 19.9 C 0 km/h
2578 14-08-2008 21:14:02 19.4 C 6.17 g/m*3 19.4 C 0 km/h
2579 14-08-2008 21:26:02 19 C 6.03 g/m*3 19 C 0 km/h
2580 14-08-2008 21:38:01 18.8 C 6.6 g/m*3 18.8 C 0 km/h
2581 14-08-2008 21:51:03 18.6 C 6.68 g/m*3 18.6 C 0 km/h
2582 14-08-2008 22:03:03 18.3 C 6.88 g/m*3 18.3 C 0 km/h
2583 14-08-2008 22:15:03 18.1 C 6.8 g/m*3 18.1 C 0 km/h
2584 14-08-2008 22:27:03 18.1 C 6.64 g/m*3 18.1 C 0 km/h
2585 14-08-2008 22:39:03 17.9 C 6.87 g/m*3 17.9 C 0 km/h
2586 14-08-2008 22:51:03 17.5 C 7.01 g/m*3 17.5 C 0 km/h
2587 14-08-2008 23:03:03 17.5 C 7.01 g/m*3 17.5 C 0 km/h
2588 14-08-2008 23:15:03 17.4 C 7.41 g/m*3 17.4 C 0 km/h
2589 14-08-2008 23:27:03 17.2 C 7.47 g/m*3 17.2 C 0 km/h
2590 14-08-2008 23:39:03 17 C 7.38 g/m*3 17 C 0 km/h
2591 14-08-2008 23:51:03 17.1 C 7.42 g/m*3 17.1 C 0 km/h
2592 15-08-2008 00:03:03 17 C 7.38 g/m*3 17 C 0 km/h
2593 15-08-2008 00:15:03 17 C 7.52 g/m*3 17 C 0 km/h
2594 15-08-2008 00:27:03 16.8 C 7.72 g/m*3 16.8 C 0 km/h
2595 15-08-2008 00:39:03 16.8 C 7.58 g/m*3 16.8 C 0 km/h
2596 15-08-2008 00:51:03 16.7 C 7.67 g/m*3 16.7 C 0 km/h
2597 15-08-2008 01:03:03 16.6 C 7.63 g/m*3 16.6 C 0 km/h
2598 15-08-2008 01:15:04 16.7 C 7.67 g/m*3 16.7 C 0 km/h
2599 15-08-2008 01:27:04 16.5 C 7.72 g/m*3 16.5 C 0 km/h
2600 15-08-2008 01:39:04 16.3 C 7.77 g/m*3 16.3 C 0 km/h
Sensor: Nr:Datum:Temp:Abs-Feuchte:Windchill:Wind:
Aussen-T/F 2601 15-08-2008 01:51:04 16.1 C 7.68 g/m*3 16.1 C 0 km/h
2602 15-08-2008 02:03:04 16.1 C 7.68 g/m*3 16.1 C 0 km/h
2603 15-08-2008 02:15:04 16 C 7.77 g/m*3 16 C 0 km/h
2604 15-08-2008 02:27:04 15.9 C 7.99 g/m*3 15.9 C 0 km/h
2605 15-08-2008 02:39:04 15.7 C 7.89 g/m*3 15.7 C 0 km/h
2606 15-08-2008 02:51:04 15.6 C 7.85 g/m*3 15.6 C 0 km/h
2607 15-08-2008 03:03:04 15.6 C 7.98 g/m*3 15.6 C 0 km/h
2608 15-08-2008 03:15:04 15.5 C 8.06 g/m*3 15.5 C 0 km/h
2609 15-08-2008 03:27:04 15.5 C 8.06 g/m*3 15.5 C 0 km/h
2610 15-08-2008 03:39:04 15.2 C 8.05 g/m*3 15.2 C 0 km/h
2611 15-08-2008 03:51:04 15.2 C 8.18 g/m*3 15.2 C 0 km/h
2612 15-08-2008 04:03:04 14.9 C 8.28 g/m*3 14.9 C 0 km/h
2613 15-08-2008 04:15:04 14.7 C 8.31 g/m*3 14.7 C 0 km/h
2614 15-08-2008 04:27:04 14.5 C 8.33 g/m*3 14.5 C 0 km/h
2615 15-08-2008 04:39:04 14.6 C 8.38 g/m*3 14.6 C 0 km/h
2616 15-08-2008 04:51:04 14.6 C 8.38 g/m*3 14.6 C 0 km/h
2617 15-08-2008 05:03:05 14.5 C 8.33 g/m*3 14.5 C 0 km/h
2618 15-08-2008 05:15:05 14.3 C 8.35 g/m*3 14.3 C 0 km/h
2619 15-08-2008 05:27:05 14 C 8.32 g/m*3 14 C 0 km/h
2620 15-08-2008 05:39:05 13.8 C 8.46 g/m*3 13.8 C 0 km/h
2621 15-08-2008 05:51:05 13.8 C 8.46 g/m*3 13.8 C 0 km/h
2622 15-08-2008 06:03:05 13.7 C 8.53 g/m*3 13.7 C 0 km/h
2623 15-08-2008 06:15:05 13.6 C 8.47 g/m*3 13.6 C 0 km/h
2624 15-08-2008 06:27:05 13.6 C 8.47 g/m*3 13.6 C 0 km/h
2625 15-08-2008 06:39:05 13.5 C 8.54 g/m*3 13.5 C 0 km/h
Sensor: Nr:Datum:Temp:Abs-Feuchte:Windchill:Wind:
Aussen-T/F 2626 15-08-2008 06:51:01 13.5 C 8.54 g/m*3 13.5 C 0 km/h
2627 15-08-2008 07:03:02 13.4 C 8.6 g/m*3 13.4 C 0 km/h
2628 15-08-2008 07:15:01 13.3 C 8.55 g/m*3 13.3 C 0 km/h
2629 15-08-2008 07:27:01 13 C 8.51 g/m*3 13 C 0 km/h
2630 15-08-2008 07:39:02 12.8 C 8.62 g/m*3 12.8 C 0 km/h
2631 15-08-2008 07:51:02 12.8 C 8.74 g/m*3 12.8 C 0 km/h
2632 15-08-2008 08:03:02 12.9 C 8.79 g/m*3 12.9 C 0 km/h
2633 15-08-2008 08:15:02 13 C 8.73 g/m*3 13 C 0 km/h
2634 15-08-2008 08:27:02 13.3 C 8.9 g/m*3 13.3 C 0 km/h
2635 15-08-2008 08:39:02 13.5 C 8.77 g/m*3 13.5 C 0 km/h
2636 15-08-2008 08:51:02 13.8 C 8.82 g/m*3 13.8 C 0 km/h
2637 15-08-2008 09:03:03 14.1 C 8.86 g/m*3 14.1 C 0 km/h
2638 15-08-2008 09:15:02 14.4 C 8.65 g/m*3 14.4 C 0 km/h
2639 15-08-2008 09:27:03 15 C 8.98 g/m*3 15 C 0 km/h
2640 15-08-2008 09:39:02 16 C 8.86 g/m*3 16 C 0 km/h
2641 15-08-2008 09:51:02 16.8 C 8.72 g/m*3 16.8 C 0 km/h
2642 15-08-2008 10:03:02 17.2 C 8.05 g/m*3 17.2 C 0 km/h
2643 15-08-2008 10:15:02 17.7 C 8.15 g/m*3 17.7 C 0 km/h
2644 15-08-2008 10:27:02 18.1 C 8.19 g/m*3 18.1 C 0 km/h
2645 15-08-2008 10:39:02 18.4 C 8.02 g/m*3 18.4 C 0 km/h
2646 15-08-2008 10:51:01 18.9 C 7.94 g/m*3 18.9 C 0 km/h
2647 15-08-2008 11:03:02 19.3 C 7.3 g/m*3 19.3 C 0 km/h
2648 15-08-2008 11:15:01 19.9 C 7.56 g/m*3 19.9 C 0 km/h
2649 15-08-2008 11:27:01 20.6 C 7.52 g/m*3 20.6 C 0 km/h
2650 15-08-2008 11:39:01 20.8 C 7.42 g/m*3 20.8 C 0 km/h
Sensor: Nr:Datum:Temp:Abs-Feuchte:Windchill:Wind:
Aussen-T/F 2651 15-08-2008 11:51:02 20.5 C 7.3 g/m*3 20.5 C 0 km/h
2652 15-08-2008 12:03:02 21.2 C 7.23 g/m*3 21.2 C 0 km/h
2653 15-08-2008 12:15:02 22.1 C 7.22 g/m*3 22.1 C 0 km/h
2654 15-08-2008 12:27:02 22.8 C 7.52 g/m*3 22.8 C 0 km/h
2655 15-08-2008 12:39:02 23 C 6.99 g/m*3 23 C 0 km/h
2656 15-08-2008 12:51:02 22.7 C 7.07 g/m*3 22.7 C 0 km/h
2657 15-08-2008 13:03:03 21.6 C 7.21 g/m*3 21.6 C 0 km/h
2658 15-08-2008 13:15:02 22 C 6.79 g/m*3 22 C 0 km/h
2659 15-08-2008 13:27:02 21.7 C 6.87 g/m*3 21.7 C 0 km/h
2660 15-08-2008 13:39:03 22.1 C 6.83 g/m*3 22.1 C 0 km/h
2661 15-08-2008 13:51:02 22.7 C 6.67 g/m*3 22.7 C 0 km/h
2662 15-08-2008 14:03:01 22.3 C 7.7 g/m*3 22.3 C 0 km/h
2663 15-08-2008 14:15:02 19.6 C 8.61 g/m*3 19.6 C 0 km/h
2664 15-08-2008 14:27:02 19.2 C 8.08 g/m*3 19.2 C 0 km/h
2665 15-08-2008 14:39:01 19.7 C 7.81 g/m*3 19.7 C 0 km/h
2666 15-08-2008 14:51:02 20.5 C 8.36 g/m*3 20.5 C 0 km/h
2667 15-08-2008 15:03:01 22.7 C 7.07 g/m*3 22.7 C 0 km/h
2668 15-08-2008 15:21:02 20.6 C 7.87 g/m*3 20.6 C 0 km/h
2669 15-08-2008 15:33:01 20.7 C 8.1 g/m*3 20.7 C 0 km/h
2670 15-08-2008 15:45:02 22 C 8.15 g/m*3 22 C 0 km/h
2671 15-08-2008 15:57:02 22.6 C 7.23 g/m*3 22.6 C 0 km/h
2672 15-08-2008 16:09:01 22.9 C 7.56 g/m*3 22.9 C 0 km/h
2673 15-08-2008 16:21:02 23.6 C 7.02 g/m*3 23.6 C 0 km/h
2674 15-08-2008 16:33:01 24.8 C 6.83 g/m*3 24.8 C 0 km/h
2675 15-08-2008 16:45:01 26.1 C 6.12 g/m*3 26.1 C 0 km/h
Sensor: Nr:Datum:Temp:Abs-Feuchte:Windchill:Wind:
Aussen-T/F 2676 15-08-2008 16:57:01 24.8 C 6.15 g/m*3 24.8 C 0 km/h
2677 15-08-2008 17:09:01 23.8 C 6.67 g/m*3 23.8 C 0 km/h
2678 15-08-2008 17:21:01 24.4 C 6.9 g/m*3 24.4 C 0 km/h
2679 15-08-2008 17:33:01 25.3 C 6.55 g/m*3 25.3 C 0 km/h
2680 15-08-2008 17:45:01 24.3 C 7.08 g/m*3 24.3 C 0 km/h
2681 15-08-2008 17:57:01 23.6 C 7.44 g/m*3 23.6 C 0 km/h
2682 15-08-2008 18:09:02 24 C 6.74 g/m*3 24 C 0 km/h
2683 15-08-2008 18:21:01 24 C 6.96 g/m*3 24 C 0 km/h
2684 15-08-2008 18:33:02 23.4 C 6.94 g/m*3 23.4 C 0 km/h
2685 15-08-2008 18:45:03 23.8 C 6.88 g/m*3 23.8 C 0 km/h
2686 15-08-2008 18:57:03 24.1 C 7 g/m*3 24.1 C 0 km/h
2687 15-08-2008 19:09:02 24.6 C 6.98 g/m*3 24.6 C 0 km/h
2688 15-08-2008 19:21:02 24.6 C 6.75 g/m*3 24.6 C 0 km/h
2689 15-08-2008 19:33:02 24.7 C 7.02 g/m*3 24.7 C 0 km/h
2690 15-08-2008 19:45:01 24.2 C 7.26 g/m*3 24.2 C 0 km/h
2691 15-08-2008 19:57:01 22 C 7.38 g/m*3 22 C 0 km/h
2692 15-08-2008 20:09:02 20.6 C 7.52 g/m*3 20.6 C 0 km/h
2693 15-08-2008 20:21:01 19.9 C 7.56 g/m*3 19.9 C 0 km/h
2694 15-08-2008 20:33:02 19.4 C 7.51 g/m*3 19.4 C 0 km/h
2695 15-08-2008 20:45:03 19.1 C 7.54 g/m*3 19.1 C 0 km/h
2696 15-08-2008 20:57:03 18.9 C 7.78 g/m*3 18.9 C 0 km/h
2697 15-08-2008 21:09:02 18.4 C 7.86 g/m*3 18.4 C 0 km/h
2698 15-08-2008 21:21:02 18.1 C 7.57 g/m*3 18.1 C 0 km/h
2699 15-08-2008 21:33:02 18.2 C 8.08 g/m*3 18.2 C 0 km/h
2700 15-08-2008 21:45:01 18 C 7.99 g/m*3 18 C 0 km/h
Sensor: Nr:Datum:Temp:Abs-Feuchte:Windchill:Wind:
Aussen-T/F 2701 15-08-2008 21:57:01 17.7 C 8.6 g/m*3 17.7 C 0 km/h
2702 15-08-2008 22:10:03 17.1 C 9.03 g/m*3 17.1 C 0 km/h
2703 15-08-2008 22:22:03 17.1 C 8.88 g/m*3 17.1 C 0 km/h
2704 15-08-2008 22:34:03 16.8 C 8.72 g/m*3 16.8 C 0 km/h
2705 15-08-2008 22:46:03 16.7 C 8.67 g/m*3 16.7 C 0 km/h
2706 15-08-2008 22:58:03 17 C 8.25 g/m*3 17 C 0 km/h
2707 15-08-2008 23:10:03 17 C 8.25 g/m*3 17 C 0 km/h
2708 15-08-2008 23:22:03 16.7 C 8.38 g/m*3 16.7 C 0 km/h
2709 15-08-2008 23:34:03 16.3 C 8.32 g/m*3 16.3 C 0 km/h
2710 15-08-2008 23:46:04 16 C 8.31 g/m*3 16 C 0 km/h
2711 15-08-2008 23:58:04 15.8 C 8.35 g/m*3 15.8 C 0 km/h
2712 16-08-2008 00:10:04 15.4 C 8.41 g/m*3 15.4 C 0 km/h
2713 16-08-2008 00:22:04 15.4 C 8.41 g/m*3 15.4 C 0 km/h
2714 16-08-2008 00:34:04 15.1 C 8.51 g/m*3 15.1 C 0 km/h
2715 16-08-2008 00:46:04 14.8 C 8.36 g/m*3 14.8 C 0 km/h
2716 16-08-2008 00:58:04 14.7 C 8.56 g/m*3 14.7 C 0 km/h
2717 16-08-2008 01:10:04 14.4 C 8.65 g/m*3 14.4 C 0 km/h
2718 16-08-2008 01:22:04 14.1 C 8.5 g/m*3 14.1 C 0 km/h
2719 16-08-2008 01:34:04 14.1 C 8.62 g/m*3 14.1 C 0 km/h
2720 16-08-2008 01:46:04 13.9 C 8.63 g/m*3 13.9 C 0 km/h
2721 16-08-2008 01:58:04 13.9 C 8.75 g/m*3 13.9 C 0 km/h
2722 16-08-2008 02:10:04 13.7 C 8.64 g/m*3 13.7 C 0 km/h
2723 16-08-2008 02:22:04 13.5 C 8.66 g/m*3 13.5 C 0 km/h
2724 16-08-2008 02:34:04 13.4 C 8.6 g/m*3 13.4 C 0 km/h
2725 16-08-2008 02:46:04 13.2 C 8.5 g/m*3 13.2 C 0 km/h
Sensor: Nr:Datum:Temp:Abs-Feuchte:Windchill:Wind:
Aussen-T/F 2726 16-08-2008 02:58:04 13.1 C 8.56 g/m*3 13.1 C 0 km/h
2727 16-08-2008 03:10:04 12.9 C 8.57 g/m*3 12.9 C 0 km/h
2728 16-08-2008 03:22:04 12.7 C 8.68 g/m*3 12.7 C 0 km/h
2729 16-08-2008 03:34:04 12.5 C 8.58 g/m*3 12.5 C 0 km/h
2730 16-08-2008 03:46:04 12.4 C 8.52 g/m*3 12.4 C 0 km/h
2731 16-08-2008 03:58:05 12.4 C 8.63 g/m*3 12.4 C 0 km/h
2732 16-08-2008 04:10:05 12.1 C 8.47 g/m*3 12.1 C 0 km/h
2733 16-08-2008 04:22:05 12 C 8.63 g/m*3 12 C 0 km/h
2734 16-08-2008 04:34:05 11.8 C 8.63 g/m*3 11.8 C 0 km/h
2735 16-08-2008 04:46:05 11.6 C 8.63 g/m*3 11.6 C 0 km/h
2736 16-08-2008 04:58:05 11.5 C 8.57 g/m*3 11.5 C 0 km/h
2737 16-08-2008 05:10:05 11.4 C 8.52 g/m*3 11.4 C 0 km/h
2738 16-08-2008 05:22:05 11.2 C 8.41 g/m*3 11.2 C 0 km/h
2739 16-08-2008 05:34:05 11.1 C 8.36 g/m*3 11.1 C 0 km/h
2740 16-08-2008 05:46:05 11 C 8.41 g/m*3 11 C 0 km/h
2741 16-08-2008 05:58:05 10.8 C 8.3 g/m*3 10.8 C 0 km/h
2742 16-08-2008 06:10:05 10.8 C 8.3 g/m*3 10.8 C 0 km/h
2743 16-08-2008 06:22:05 10.7 C 8.25 g/m*3 10.7 C 0 km/h
2744 16-08-2008 06:34:05 10.6 C 8.2 g/m*3 10.6 C 0 km/h
2745 16-08-2008 06:46:05 10.5 C 8.24 g/m*3 10.5 C 0 km/h
2746 16-08-2008 06:58:05 10.5 C 8.24 g/m*3 10.5 C 0 km/h
2747 16-08-2008 07:10:05 10.6 C 8.3 g/m*3 10.6 C 0 km/h
2748 16-08-2008 07:22:02 10.7 C 8.25 g/m*3 10.7 C 0 km/h
2749 16-08-2008 07:34:03 10.8 C 8.3 g/m*3 10.8 C 0 km/h
2750 16-08-2008 07:46:02 10.9 C 8.36 g/m*3 10.9 C 0 km/h
Sensor: Nr:Datum:Temp:Abs-Feuchte:Windchill:Wind:
Aussen-T/F 2751 16-08-2008 07:58:02 11 C 8.41 g/m*3 11 C 0 km/h
2752 16-08-2008 08:10:02 11.1 C 8.46 g/m*3 11.1 C 0 km/h
2753 16-08-2008 08:22:02 11.4 C 8.62 g/m*3 11.4 C 0 km/h
2754 16-08-2008 08:34:02 11.6 C 8.73 g/m*3 11.6 C 0 km/h
2755 16-08-2008 08:46:03 12 C 8.74 g/m*3 12 C 0 km/h
2756 16-08-2008 08:58:03 12.2 C 8.63 g/m*3 12.2 C 0 km/h
2757 16-08-2008 09:10:02 12.6 C 8.74 g/m*3 12.6 C 0 km/h
2758 16-08-2008 09:22:03 13 C 8.62 g/m*3 13 C 0 km/h
2759 16-08-2008 09:34:02 13.5 C 8.77 g/m*3 13.5 C 0 km/h
2760 16-08-2008 09:46:02 14.1 C 8.74 g/m*3 14.1 C 0 km/h
2761 16-08-2008 09:58:02 14.7 C 8.69 g/m*3 14.7 C 0 km/h
2762 16-08-2008 10:10:02 15.3 C 8.75 g/m*3 15.3 C 0 km/h
2763 16-08-2008 10:22:02 16.1 C 8.77 g/m*3 16.1 C 0 km/h
2764 16-08-2008 10:34:02 16.7 C 8.81 g/m*3 16.7 C 0 km/h
2765 16-08-2008 10:46:02 17.4 C 8.74 g/m*3 17.4 C 0 km/h
2766 16-08-2008 10:58:02 18.1 C 8.5 g/m*3 18.1 C 0 km/h
2767 16-08-2008 11:10:01 18.9 C 8.59 g/m*3 18.9 C 0 km/h
2768 16-08-2008 11:22:02 20 C 8.64 g/m*3 20 C 0 km/h
2769 16-08-2008 11:34:01 20.7 C 8.28 g/m*3 20.7 C 0 km/h
2770 16-08-2008 11:46:01 20.4 C 7.78 g/m*3 20.4 C 0 km/h
2771 16-08-2008 11:58:01 20.8 C 7.97 g/m*3 20.8 C 0 km/h
2772 16-08-2008 12:10:01 21.4 C 7.31 g/m*3 21.4 C 0 km/h
2773 16-08-2008 12:22:01 22.1 C 6.83 g/m*3 22.1 C 0 km/h
2774 16-08-2008 12:34:01 22.5 C 6.99 g/m*3 22.5 C 0 km/h
2775 16-08-2008 12:46:01 22.4 C 6.16 g/m*3 22.4 C 0 km/h
Sensor: Nr:Datum:Temp:Abs-Feuchte:Windchill:Wind:
Aussen-T/F 2776 16-08-2008 12:58:01 22.5 C 5.79 g/m*3 22.5 C 0 km/h
2777 16-08-2008 13:10:02 22.7 C 5.66 g/m*3 22.7 C 0 km/h
2778 16-08-2008 13:22:01 23.5 C 5.5 g/m*3 23.5 C 0 km/h
2779 16-08-2008 13:34:02 24.8 C 5.92 g/m*3 24.8 C 0 km/h
2780 16-08-2008 13:46:02 25.1 C 5.32 g/m*3 25.1 C 0 km/h
2781 16-08-2008 13:58:03 25.2 C 4.89 g/m*3 25.2 C 0 km/h
2782 16-08-2008 14:10:02 24.8 C 5.01 g/m*3 24.8 C 0 km/h
2783 16-08-2008 14:22:02 25.7 C 5.51 g/m*3 25.7 C 0 km/h
2784 16-08-2008 14:34:01 26.7 C 5.06 g/m*3 26.7 C 0 km/h
2785 16-08-2008 14:46:02 26.8 C 5.09 g/m*3 26.8 C 0 km/h
2786 16-08-2008 14:58:02 27.2 C 5.2 g/m*3 27.2 C 0 km/h
2787 16-08-2008 15:10:02 27.8 C 5.38 g/m*3 27.8 C 0 km/h
2788 16-08-2008 15:22:02 28.3 C 5.53 g/m*3 28.3 C 0 km/h
2789 16-08-2008 15:34:02 28.8 C 5.68 g/m*3 28.8 C 0 km/h
2790 16-08-2008 15:46:01 29.4 C 5.87 g/m*3 29.4 C 0 km/h
2791 16-08-2008 15:58:01 29.9 C 6.03 g/m*3 29.9 C 0 km/h
2792 16-08-2008 16:10:02 30.2 C 6.13 g/m*3 30.2 C 0 km/h
2793 16-08-2008 16:22:01 29.8 C 6 g/m*3 29.8 C 0 km/h
2794 16-08-2008 16:34:02 29.8 C 6 g/m*3 29.8 C 0 km/h
2795 16-08-2008 16:46:02 30.2 C 6.13 g/m*3 30.2 C 0 km/h
2796 16-08-2008 16:58:02 30.6 C 6.26 g/m*3 30.6 C 0 km/h
2797 16-08-2008 17:10:02 30.9 C 6.37 g/m*3 30.9 C 0 km/h
2798 16-08-2008 17:22:02 29.2 C 5.81 g/m*3 29.2 C 0 km/h
2799 16-08-2008 17:34:02 28.6 C 5.62 g/m*3 28.6 C 0 km/h
2800 16-08-2008 17:46:02 29 C 5.74 g/m*3 29 C 0 km/h
Sensor: Nr:Datum:Temp:Abs-Feuchte:Windchill:Wind:
Aussen-T/F 2801 16-08-2008 17:58:02 29.5 C 5.9 g/m*3 29.5 C 0 km/h
2802 16-08-2008 18:10:01 30.3 C 6.16 g/m*3 30.3 C 0 km/h
2803 16-08-2008 18:22:02 30.3 C 6.16 g/m*3 30.3 C 0 km/h
2804 16-08-2008 18:34:01 30.3 C 6.16 g/m*3 30.3 C 0 km/h
2805 16-08-2008 18:46:01 30.1 C 6.1 g/m*3 30.1 C 0 km/h
2806 16-08-2008 18:58:01 29.7 C 5.97 g/m*3 29.7 C 0 km/h
2807 16-08-2008 19:10:02 28.4 C 5.56 g/m*3 28.4 C 0 km/h
2808 16-08-2008 19:22:01 26.5 C 6.26 g/m*3 26.5 C 0 km/h
2809 16-08-2008 19:34:02 24.9 C 6.18 g/m*3 24.9 C 0 km/h
2810 16-08-2008 19:46:01 23.6 C 6.38 g/m*3 23.6 C 0 km/h
2811 16-08-2008 19:58:01 22.8 C 6.3 g/m*3 22.8 C 0 km/h
2812 16-08-2008 20:10:02 22 C 6.4 g/m*3 22 C 0 km/h
2813 16-08-2008 20:22:02 21.3 C 6.52 g/m*3 21.3 C 0 km/h
2814 16-08-2008 20:34:02 20.8 C 6.7 g/m*3 20.8 C 0 km/h
2815 16-08-2008 20:46:02 20.6 C 6.8 g/m*3 20.6 C 0 km/h
2816 16-08-2008 20:58:02 19.6 C 6.92 g/m*3 19.6 C 0 km/h
2817 16-08-2008 21:10:02 19.2 C 6.76 g/m*3 19.2 C 0 km/h
2818 16-08-2008 21:22:01 19 C 6.84 g/m*3 19 C 0 km/h
2819 16-08-2008 21:34:02 18.9 C 6.97 g/m*3 18.9 C 0 km/h
2820 16-08-2008 21:46:02 18.7 C 7.04 g/m*3 18.7 C 0 km/h
2821 16-08-2008 21:58:02 18.6 C 7.16 g/m*3 18.6 C 0 km/h
2822 16-08-2008 22:10:02 18.5 C 7.28 g/m*3 18.5 C 0 km/h
2823 16-08-2008 22:23:02 18.5 C 7.28 g/m*3 18.5 C 0 km/h
2824 16-08-2008 22:35:02 18.2 C 7.15 g/m*3 18.2 C 0 km/h
2825 16-08-2008 22:47:02 18.2 C 7.15 g/m*3 18.2 C 0 km/h
Sensor: Nr:Datum:Temp:Abs-Feuchte:Windchill:Wind:
Aussen-T/F 2826 16-08-2008 22:59:02 18 C 7.07 g/m*3 18 C 0 km/h
2827 16-08-2008 23:11:02 17.8 C 7.59 g/m*3 17.8 C 0 km/h
2828 16-08-2008 23:23:02 17.5 C 7.75 g/m*3 17.5 C 0 km/h
2829 16-08-2008 23:35:02 17.3 C 7.37 g/m*3 17.3 C 0 km/h
2830 16-08-2008 23:47:02 17.1 C 7.42 g/m*3 17.1 C 0 km/h
2831 16-08-2008 23:59:03 16.9 C 7.19 g/m*3 16.9 C 0 km/h
2832 17-08-2008 00:11:03 16.6 C 7.06 g/m*3 16.6 C 0 km/h
2833 17-08-2008 00:23:03 16.2 C 7.03 g/m*3 16.2 C 0 km/h
2834 17-08-2008 00:35:03 16.1 C 7.26 g/m*3 16.1 C 0 km/h
2835 17-08-2008 00:47:03 15.9 C 7.31 g/m*3 15.9 C 0 km/h
2836 17-08-2008 00:59:03 15.8 C 7.4 g/m*3 15.8 C 0 km/h
2837 17-08-2008 01:11:03 15.6 C 7.45 g/m*3 15.6 C 0 km/h
2838 17-08-2008 01:23:03 15.3 C 7.44 g/m*3 15.3 C 0 km/h
2839 17-08-2008 01:35:03 15.1 C 7.48 g/m*3 15.1 C 0 km/h
2840 17-08-2008 01:47:03 14.9 C 7.52 g/m*3 14.9 C 0 km/h
2841 17-08-2008 01:59:03 14.8 C 7.6 g/m*3 14.8 C 0 km/h
2842 17-08-2008 02:11:03 14.7 C 7.55 g/m*3 14.7 C 0 km/h
2843 17-08-2008 02:23:03 14.4 C 7.54 g/m*3 14.4 C 0 km/h
2844 17-08-2008 02:35:03 14.4 C 7.66 g/m*3 14.4 C 0 km/h
2845 17-08-2008 02:47:03 14.3 C 7.62 g/m*3 14.3 C 0 km/h
2846 17-08-2008 02:59:03 14.1 C 7.65 g/m*3 14.1 C 0 km/h
2847 17-08-2008 03:11:03 13.8 C 7.86 g/m*3 13.8 C 0 km/h
2848 17-08-2008 03:23:03 13.7 C 7.82 g/m*3 13.7 C 0 km/h
2849 17-08-2008 03:35:03 13.7 C 7.82 g/m*3 13.7 C 0 km/h
2850 17-08-2008 03:47:03 13.5 C 7.72 g/m*3 13.5 C 0 km/h
Sensor: Nr:Datum:Temp:Abs-Feuchte:Windchill:Wind:
Aussen-T/F 2851 17-08-2008 03:59:03 13.6 C 7.77 g/m*3 13.6 C 0 km/h
2852 17-08-2008 04:11:04 13.4 C 7.79 g/m*3 13.4 C 0 km/h
2853 17-08-2008 04:23:04 13.1 C 7.76 g/m*3 13.1 C 0 km/h
2854 17-08-2008 04:35:04 13.1 C 7.87 g/m*3 13.1 C 0 km/h
2855 17-08-2008 04:47:04 12.9 C 7.89 g/m*3 12.9 C 0 km/h
2856 17-08-2008 04:59:04 12.9 C 7.89 g/m*3 12.9 C 0 km/h
2857 17-08-2008 05:11:04 12.8 C 7.95 g/m*3 12.8 C 0 km/h
2858 17-08-2008 05:23:04 12.7 C 7.9 g/m*3 12.7 C 0 km/h
2859 17-08-2008 05:35:04 12.5 C 7.92 g/m*3 12.5 C 0 km/h
2860 17-08-2008 05:47:04 12.3 C 7.82 g/m*3 12.3 C 0 km/h
2861 17-08-2008 05:59:04 12.4 C 7.98 g/m*3 12.4 C 0 km/h
2862 17-08-2008 06:11:04 12.2 C 7.88 g/m*3 12.2 C 0 km/h
2863 17-08-2008 06:23:04 12.1 C 7.94 g/m*3 12.1 C 0 km/h
2864 17-08-2008 06:35:04 11.9 C 8.05 g/m*3 11.9 C 0 km/h
2865 17-08-2008 06:47:04 11.9 C 8.05 g/m*3 11.9 C 0 km/h
2866 17-08-2008 06:59:04 12 C 7.99 g/m*3 12 C 0 km/h
2867 17-08-2008 07:11:04 12 C 7.99 g/m*3 12 C 0 km/h
2868 17-08-2008 07:23:04 12 C 8.1 g/m*3 12 C 0 km/h
2869 17-08-2008 07:35:04 12 C 8.1 g/m*3 12 C 0 km/h
2870 17-08-2008 07:47:04 12.1 C 8.15 g/m*3 12.1 C 0 km/h
2871 17-08-2008 07:59:04 12.5 C 8.36 g/m*3 12.5 C 0 km/h
2872 17-08-2008 08:11:05 12.5 C 8.36 g/m*3 12.5 C 0 km/h
2873 17-08-2008 08:23:05 12.6 C 8.3 g/m*3 12.6 C 0 km/h
2874 17-08-2008 08:35:05 12.9 C 8.45 g/m*3 12.9 C 0 km/h
2875 17-08-2008 08:47:05 13.2 C 8.38 g/m*3 13.2 C 0 km/h
Sensor: Nr:Datum:Temp:Abs-Feuchte:Windchill:Wind:
Aussen-T/F 2876 17-08-2008 08:59:05 13.6 C 8.47 g/m*3 13.6 C 0 km/h
2877 17-08-2008 09:11:02 13.9 C 8.51 g/m*3 13.9 C 0 km/h
2878 17-08-2008 09:23:03 14.6 C 8.51 g/m*3 14.6 C 0 km/h
2879 17-08-2008 09:35:03 15.1 C 8.39 g/m*3 15.1 C 0 km/h
2880 17-08-2008 09:47:01 15.5 C 8.46 g/m*3 15.5 C 0 km/h
2881 17-08-2008 09:59:01 16.2 C 8.69 g/m*3 16.2 C 0 km/h
2882 17-08-2008 10:11:03 17.1 C 8.88 g/m*3 17.1 C 0 km/h
2883 17-08-2008 10:23:02 17.8 C 8.95 g/m*3 17.8 C 0 km/h
2884 17-08-2008 10:35:02 18.7 C 9.13 g/m*3 18.7 C 0 km/h
2885 17-08-2008 10:47:02 19.6 C 8.95 g/m*3 19.6 C 0 km/h
2886 17-08-2008 10:59:02 20.2 C 8.92 g/m*3 20.2 C 0 km/h
2887 17-08-2008 11:11:03 21 C 8.61 g/m*3 21 C 0 km/h
2888 17-08-2008 11:23:03 21.8 C 8.83 g/m*3 21.8 C 0 km/h
2889 17-08-2008 11:35:03 22.5 C 8.19 g/m*3 22.5 C 0 km/h
2890 17-08-2008 11:47:02 22.9 C 7.77 g/m*3 22.9 C 0 km/h
2891 17-08-2008 11:59:02 23.1 C 7.23 g/m*3 23.1 C 0 km/h
2892 17-08-2008 12:11:02 23.7 C 6.84 g/m*3 23.7 C 0 km/h
2893 17-08-2008 12:23:02 24.3 C 6.64 g/m*3 24.3 C 0 km/h
2894 17-08-2008 12:35:02 24.1 C 5.69 g/m*3 24.1 C 0 km/h
2895 17-08-2008 12:47:03 24.5 C 5.6 g/m*3 24.5 C 0 km/h
2896 17-08-2008 12:59:03 24.5 C 4.7 g/m*3 24.5 C 0 km/h
2897 17-08-2008 13:11:02 25 C 4.83 g/m*3 25 C 0 km/h
2898 17-08-2008 13:23:02 25.5 C 4.73 g/m*3 25.5 C 0 km/h
2899 17-08-2008 13:35:02 26.4 C 4.98 g/m*3 26.4 C 0 km/h
2900 17-08-2008 13:47:02 26.1 C 4.9 g/m*3 26.1 C 0 km/h
Sensor: Nr:Datum:Temp:Abs-Feuchte:Windchill:Wind:
Aussen-T/F 2901 17-08-2008 13:59:02 26.6 C 5.03 g/m*3 26.6 C 0 km/h
2902 17-08-2008 14:11:02 26.3 C 4.95 g/m*3 26.3 C 0 km/h
2903 17-08-2008 14:23:01 26.2 C 5.17 g/m*3 26.2 C 0 km/h
2904 17-08-2008 14:35:01 26.8 C 5.35 g/m*3 26.8 C 0 km/h
2905 17-08-2008 14:47:01 26.8 C 5.6 g/m*3 26.8 C 0 km/h
2906 17-08-2008 14:59:01 25.9 C 5.57 g/m*3 25.9 C 0 km/h
2907 17-08-2008 15:11:02 25.1 C 5.56 g/m*3 25.1 C 0 km/h
2908 17-08-2008 15:23:01 25.3 C 5.62 g/m*3 25.3 C 0 km/h
2909 17-08-2008 15:35:01 25.7 C 5.99 g/m*3 25.7 C 0 km/h
2910 17-08-2008 15:47:02 27.6 C 5.59 g/m*3 27.6 C 0 km/h
2911 17-08-2008 15:59:02 28.5 C 5.87 g/m*3 28.5 C 0 km/h
2912 17-08-2008 16:11:02 27.9 C 5.68 g/m*3 27.9 C 0 km/h
2913 17-08-2008 16:23:02 27.1 C 5.69 g/m*3 27.1 C 0 km/h
2914 17-08-2008 16:35:01 27.1 C 5.43 g/m*3 27.1 C 0 km/h
2915 17-08-2008 16:47:02 26.3 C 5.45 g/m*3 26.3 C 0 km/h
2916 17-08-2008 16:59:02 26.6 C 5.54 g/m*3 26.6 C 0 km/h
2917 17-08-2008 17:11:01 26.3 C 5.69 g/m*3 26.3 C 0 km/h
2918 17-08-2008 17:23:02 26 C 5.84 g/m*3 26 C 0 km/h
2919 17-08-2008 17:35:01 25.9 C 6.54 g/m*3 25.9 C 0 km/h
2920 17-08-2008 17:47:01 25.4 C 6.12 g/m*3 25.4 C 0 km/h
2921 17-08-2008 17:59:01 25.4 C 6.83 g/m*3 25.4 C 0 km/h
2922 17-08-2008 18:11:02 25.2 C 6.98 g/m*3 25.2 C 0 km/h
2923 17-08-2008 18:23:01 25.2 C 6.52 g/m*3 25.2 C 0 km/h
2924 17-08-2008 18:35:02 24.9 C 6.87 g/m*3 24.9 C 0 km/h
2925 17-08-2008 18:47:02 24.6 C 6.75 g/m*3 24.6 C 0 km/h
Sensor: Nr:Datum:Temp:Abs-Feuchte:Windchill:Wind:
Aussen-T/F 2926 17-08-2008 18:59:02 24.6 C 6.98 g/m*3 24.6 C 0 km/h
2927 17-08-2008 19:11:02 25.4 C 7.06 g/m*3 25.4 C 0 km/h
2928 17-08-2008 19:23:02 24.8 C 7.28 g/m*3 24.8 C 0 km/h
2929 17-08-2008 19:35:02 23.9 C 7.79 g/m*3 23.9 C 0 km/h
2930 17-08-2008 19:47:01 23.7 C 7.7 g/m*3 23.7 C 0 km/h
2931 17-08-2008 19:59:01 24.1 C 7.88 g/m*3 24.1 C 0 km/h
2932 17-08-2008 20:11:01 23.3 C 7.95 g/m*3 23.3 C 0 km/h
2933 17-08-2008 20:23:01 22.1 C 7.81 g/m*3 22.1 C 0 km/h
2934 17-08-2008 20:35:02 21.4 C 8.06 g/m*3 21.4 C 0 km/h
2935 17-08-2008 20:47:02 21.1 C 7.92 g/m*3 21.1 C 0 km/h
2936 17-08-2008 20:59:02 20.8 C 8.33 g/m*3 20.8 C 0 km/h
2937 17-08-2008 21:11:02 20.8 C 8.15 g/m*3 20.8 C 0 km/h
2938 17-08-2008 21:23:02 21 C 8.06 g/m*3 21 C 0 km/h
2939 17-08-2008 21:35:02 20.1 C 9.56 g/m*3 20.1 C 0 km/h
2940 17-08-2008 21:47:02 17.7 C 11.32 g/m*3 17.7 C 0 km/h
2941 17-08-2008 21:59:02 17.3 C 11.93 g/m*3 17.3 C 0 km/h
2942 17-08-2008 22:11:01 17.4 C 12.3 g/m*3 17.4 C 0 km/h
2943 17-08-2008 22:23:02 17.6 C 12.6 g/m*3 17.6 C 0 km/h
2944 17-08-2008 22:36:02 17.3 C 12.08 g/m*3 17.3 C 0 km/h
2945 17-08-2008 22:48:02 17.2 C 11.86 g/m*3 17.2 C 0 km/h
2946 17-08-2008 23:00:02 17 C 11.72 g/m*3 17 C 0 km/h
2947 17-08-2008 23:12:02 16.8 C 11.58 g/m*3 16.8 C 0 km/h
2948 17-08-2008 23:24:02 16.5 C 11.37 g/m*3 16.5 C 0 km/h
2949 17-08-2008 23:36:02 16.3 C 11.38 g/m*3 16.3 C 0 km/h
2950 17-08-2008 23:48:02 16.1 C 11.24 g/m*3 16.1 C 0 km/h
Sensor: Nr:Datum:Temp:Abs-Feuchte:Windchill:Wind:
Aussen-T/F 2951 18-08-2008 00:00:02 16.1 C 11.24 g/m*3 16.1 C 0 km/h
2952 18-08-2008 00:12:02 16 C 11.17 g/m*3 16 C 0 km/h
2953 18-08-2008 00:24:02 16.1 C 11.24 g/m*3 16.1 C 0 km/h
2954 18-08-2008 00:36:03 16.1 C 11.24 g/m*3 16.1 C 0 km/h
2955 18-08-2008 00:48:03 16.4 C 11.45 g/m*3 16.4 C 0 km/h
2956 18-08-2008 01:00:03 16.5 C 11.37 g/m*3 16.5 C 0 km/h
2957 18-08-2008 01:12:03 16.5 C 11.37 g/m*3 16.5 C 0 km/h
2958 18-08-2008 01:24:03 16.6 C 11.44 g/m*3 16.6 C 0 km/h
2959 18-08-2008 01:36:03 16.5 C 11.37 g/m*3 16.5 C 0 km/h
2960 18-08-2008 01:48:03 16.6 C 11.44 g/m*3 16.6 C 0 km/h
2961 18-08-2008 02:00:03 16.6 C 11.44 g/m*3 16.6 C 0 km/h
2962 18-08-2008 02:12:03 16.6 C 11.44 g/m*3 16.6 C 0 km/h
2963 18-08-2008 02:24:03 16.6 C 11.44 g/m*3 16.6 C 0 km/h
2964 18-08-2008 02:36:03 16.7 C 11.51 g/m*3 16.7 C 0 km/h
2965 18-08-2008 02:48:03 16.4 C 11.31 g/m*3 16.4 C 0 km/h
2966 18-08-2008 03:00:03 16.3 C 11.38 g/m*3 16.3 C 0 km/h
2967 18-08-2008 03:12:03 16.2 C 11.31 g/m*3 16.2 C 0 km/h
2968 18-08-2008 03:24:03 16 C 11.17 g/m*3 16 C 0 km/h
2969 18-08-2008 03:36:03 15.8 C 11.31 g/m*3 15.8 C 0 km/h
2970 18-08-2008 03:48:03 15.5 C 11.1 g/m*3 15.5 C 0 km/h
2971 18-08-2008 04:00:03 15.4 C 11.04 g/m*3 15.4 C 0 km/h
2972 18-08-2008 04:12:03 15.4 C 11.17 g/m*3 15.4 C 0 km/h
2973 18-08-2008 04:24:03 15.4 C 11.17 g/m*3 15.4 C 0 km/h
2974 18-08-2008 04:36:03 15.4 C 11.17 g/m*3 15.4 C 0 km/h
2975 18-08-2008 04:48:04 15.5 C 11.24 g/m*3 15.5 C 0 km/h
Sensor: Nr:Datum:Temp:Abs-Feuchte:Windchill:Wind:
Aussen-T/F 2976 18-08-2008 05:00:04 15.5 C 11.24 g/m*3 15.5 C 0 km/h
2977 18-08-2008 05:12:04 15.7 C 11.51 g/m*3 15.7 C 0 km/h
2978 18-08-2008 05:24:04 15.8 C 11.44 g/m*3 15.8 C 0 km/h
2979 18-08-2008 05:36:04 15.7 C 11.24 g/m*3 15.7 C 0 km/h
2980 18-08-2008 05:48:04 15.8 C 11.44 g/m*3 15.8 C 0 km/h
2981 18-08-2008 06:00:04 15.9 C 11.38 g/m*3 15.9 C 0 km/h
2982 18-08-2008 06:12:04 15.9 C 11.38 g/m*3 15.9 C 0 km/h
2983 18-08-2008 06:24:04 15.5 C 11.1 g/m*3 15.5 C 0 km/h
2984 18-08-2008 06:36:04 15.3 C 10.97 g/m*3 15.3 C 0 km/h
2985 18-08-2008 06:48:02 15.2 C 11.03 g/m*3 15.2 C 0 km/h
2986 18-08-2008 07:00:03 15.2 C 11.03 g/m*3 15.2 C 0 km/h
2987 18-08-2008 07:12:02 15.2 C 11.16 g/m*3 15.2 C 0 km/h
2988 18-08-2008 07:24:02 15.2 C 11.16 g/m*3 15.2 C 0 km/h
2989 18-08-2008 07:36:02 15.2 C 11.29 g/m*3 15.2 C 0 km/h
2990 18-08-2008 07:48:02 15.3 C 11.36 g/m*3 15.3 C 0 km/h
2991 18-08-2008 08:00:02 15.5 C 11.5 g/m*3 15.5 C 0 km/h
2992 18-08-2008 08:12:01 15.9 C 11.65 g/m*3 15.9 C 0 km/h
2993 18-08-2008 08:24:02 16.4 C 11.72 g/m*3 16.4 C 0 km/h
2994 18-08-2008 08:36:01 16.8 C 11.72 g/m*3 16.8 C 0 km/h
2995 18-08-2008 08:48:02 17.1 C 11.5 g/m*3 17.1 C 0 km/h
2996 18-08-2008 09:00:02 17.9 C 11.76 g/m*3 17.9 C 0 km/h
2997 18-08-2008 09:12:01 18.3 C 11.57 g/m*3 18.3 C 0 km/h
2998 18-08-2008 09:24:01 18.8 C 11.76 g/m*3 18.8 C 0 km/h
2999 18-08-2008 09:36:01 19.6 C 11.65 g/m*3 19.6 C 0 km/h
3000 18-08-2008 09:48:02 20 C 10.89 g/m*3 20 C 0 km/h
Sensor: Nr:Datum:Temp:Abs-Feuchte:Windchill:Wind:
Aussen-T/F 3001 18-08-2008 10:00:02 20.1 C 10.95 g/m*3 20.1 C 0 km/h
3002 18-08-2008 10:12:02 20.4 C 10.79 g/m*3 20.4 C 0 km/h
3003 18-08-2008 10:24:02 20.6 C 11.1 g/m*3 20.6 C 0 km/h
3004 18-08-2008 10:36:02 21 C 10.62 g/m*3 21 C 0 km/h
3005 18-08-2008 10:48:02 21.3 C 10.44 g/m*3 21.3 C 0 km/h
3006 18-08-2008 11:00:02 21.6 C 10.24 g/m*3 21.6 C 0 km/h
3007 18-08-2008 11:12:02 22 C 10.48 g/m*3 22 C 0 km/h
3008 18-08-2008 11:24:03 22.5 C 10.39 g/m*3 22.5 C 0 km/h
3009 18-08-2008 11:36:02 22.7 C 9.7 g/m*3 22.7 C 0 km/h
3010 18-08-2008 11:48:02 23.2 C 9.77 g/m*3 23.2 C 0 km/h
3011 18-08-2008 12:00:02 23.8 C 9.46 g/m*3 23.8 C 0 km/h
3012 18-08-2008 12:12:02 23.9 C 9.52 g/m*3 23.9 C 0 km/h
3013 18-08-2008 12:24:02 23.5 C 9.52 g/m*3 23.5 C 0 km/h
3014 18-08-2008 12:36:02 23.6 C 9.36 g/m*3 23.6 C 0 km/h
3015 18-08-2008 12:48:01 23.5 C 9.31 g/m*3 23.5 C 0 km/h
3016 18-08-2008 13:00:01 23.7 C 9.41 g/m*3 23.7 C 0 km/h
3017 18-08-2008 13:12:02 24.1 C 9.41 g/m*3 24.1 C 0 km/h
3018 18-08-2008 13:24:01 24.8 C 9.1 g/m*3 24.8 C 0 km/h
3019 18-08-2008 13:36:02 25.5 C 9 g/m*3 25.5 C 0 km/h
3020 18-08-2008 13:48:02 25.9 C 8.72 g/m*3 25.9 C 0 km/h
3021 18-08-2008 14:00:02 24.7 C 8.6 g/m*3 24.7 C 0 km/h
3022 18-08-2008 14:12:02 24.6 C 8.78 g/m*3 24.6 C 0 km/h
3023 18-08-2008 14:24:02 23.9 C 9.3 g/m*3 23.9 C 0 km/h
3024 18-08-2008 14:36:02 24.7 C 9.05 g/m*3 24.7 C 0 km/h
3025 18-08-2008 14:48:01 25.3 C 8.66 g/m*3 25.3 C 0 km/h
Sensor: Nr:Datum:Temp:Abs-Feuchte:Windchill:Wind:
Aussen-T/F 3026 18-08-2008 15:00:01 25.4 C 8.48 g/m*3 25.4 C 0 km/h
3027 18-08-2008 15:12:01 25.5 C 8.29 g/m*3 25.5 C 0 km/h
3028 18-08-2008 15:24:01 25.3 C 8.19 g/m*3 25.3 C 0 km/h
3029 18-08-2008 15:36:02 25.2 C 8.15 g/m*3 25.2 C 0 km/h
3030 18-08-2008 15:48:02 25.1 C 8.1 g/m*3 25.1 C 0 km/h
3031 18-08-2008 16:00:02 25.4 C 8.71 g/m*3 25.4 C 0 km/h
3032 18-08-2008 16:12:02 25.7 C 9.1 g/m*3 25.7 C 0 km/h
3033 18-08-2008 16:24:02 26.2 C 8.62 g/m*3 26.2 C 0 km/h
3034 18-08-2008 16:36:02 26.4 C 8.46 g/m*3 26.4 C 0 km/h
3035 18-08-2008 16:48:02 27.9 C 8.11 g/m*3 27.9 C 0 km/h
3036 18-08-2008 17:00:02 29 C 7.76 g/m*3 29 C 0 km/h
3037 18-08-2008 17:12:02 29.8 C 7.2 g/m*3 29.8 C 0 km/h
3038 18-08-2008 17:24:02 29.4 C 7.34 g/m*3 29.4 C 0 km/h
3039 18-08-2008 17:36:02 28.6 C 7.03 g/m*3 28.6 C 0 km/h
3040 18-08-2008 17:48:02 29.7 C 6.86 g/m*3 29.7 C 0 km/h
3041 18-08-2008 18:00:02 30 C 6.97 g/m*3 30 C 0 km/h
3042 18-08-2008 18:12:03 29.6 C 6.83 g/m*3 29.6 C 0 km/h
3043 18-08-2008 18:24:02 28.5 C 6.99 g/m*3 28.5 C 0 km/h
3044 18-08-2008 18:36:03 28.9 C 7.14 g/m*3 28.9 C 0 km/h
3045 18-08-2008 18:48:02 28 C 7.07 g/m*3 28 C 0 km/h
3046 18-08-2008 19:00:03 28 C 7.34 g/m*3 28 C 0 km/h
3047 18-08-2008 19:12:01 28 C 7.34 g/m*3 28 C 0 km/h
3048 18-08-2008 19:24:02 27.5 C 7.67 g/m*3 27.5 C 0 km/h
3049 18-08-2008 19:36:01 27.6 C 7.71 g/m*3 27.6 C 0 km/h
3050 18-08-2008 19:48:02 28.2 C 8.25 g/m*3 28.2 C 0 km/h
Sensor: Nr:Datum:Temp:Abs-Feuchte:Windchill:Wind:
Aussen-T/F 3051 18-08-2008 20:00:02 27.5 C 8.2 g/m*3 27.5 C 0 km/h
3052 18-08-2008 20:12:01 26.3 C 8.66 g/m*3 26.3 C 0 km/h
3053 18-08-2008 20:24:02 25.3 C 8.9 g/m*3 25.3 C 0 km/h
3054 18-08-2008 20:36:01 24.6 C 9.23 g/m*3 24.6 C 0 km/h
3055 18-08-2008 20:48:03 24.1 C 9.19 g/m*3 24.1 C 0 km/h
3056 18-08-2008 21:00:03 23.7 C 9.63 g/m*3 23.7 C 0 km/h
3057 18-08-2008 21:12:02 23.4 C 9.25 g/m*3 23.4 C 0 km/h
3058 18-08-2008 21:24:03 23 C 9.45 g/m*3 23 C 0 km/h
3059 18-08-2008 21:36:02 22.8 C 9.35 g/m*3 22.8 C 0 km/h
3060 18-08-2008 21:48:02 22.6 C 9.64 g/m*3 22.6 C 0 km/h
3061 18-08-2008 22:00:02 22.4 C 9.33 g/m*3 22.4 C 0 km/h
3062 18-08-2008 22:13:01 22.4 C 9.33 g/m*3 22.4 C 0 km/h
3063 18-08-2008 22:25:01 22.3 C 9.48 g/m*3 22.3 C 0 km/h
3064 18-08-2008 22:37:01 22.1 C 9.56 g/m*3 22.1 C 0 km/h
3065 18-08-2008 22:49:01 22 C 9.32 g/m*3 22 C 0 km/h
3066 18-08-2008 23:01:01 21.9 C 9.46 g/m*3 21.9 C 0 km/h
3067 18-08-2008 23:13:01 22 C 9.12 g/m*3 22 C 0 km/h
3068 18-08-2008 23:25:01 21.8 C 9.78 g/m*3 21.8 C 0 km/h
3069 18-08-2008 23:37:01 21.7 C 9.92 g/m*3 21.7 C 0 km/h
3070 18-08-2008 23:49:01 21.6 C 9.86 g/m*3 21.6 C 0 km/h
3071 19-08-2008 00:01:01 21.8 C 9.98 g/m*3 21.8 C 0 km/h
3072 19-08-2008 00:13:01 22 C 10.29 g/m*3 22 C 0 km/h
3073 19-08-2008 00:25:02 20.7 C 11.34 g/m*3 20.7 C 0 km/h
3074 19-08-2008 00:37:02 20.5 C 11.74 g/m*3 20.5 C 0 km/h
3075 19-08-2008 00:49:02 20.5 C 11.92 g/m*3 20.5 C 0 km/h
Sensor: Nr:Datum:Temp:Abs-Feuchte:Windchill:Wind:
Aussen-T/F 3076 19-08-2008 01:01:02 20.6 C 12.17 g/m*3 20.6 C 0 km/h
3077 19-08-2008 01:13:02 20.2 C 11.89 g/m*3 20.2 C 0 km/h
3078 19-08-2008 01:25:02 19.8 C 11.79 g/m*3 19.8 C 0 km/h
3079 19-08-2008 01:37:02 19.7 C 11.72 g/m*3 19.7 C 0 km/h
3080 19-08-2008 01:49:02 19.5 C 11.75 g/m*3 19.5 C 0 km/h
3081 19-08-2008 02:01:02 19.5 C 11.75 g/m*3 19.5 C 0 km/h
3082 19-08-2008 02:13:02 19.2 C 11.54 g/m*3 19.2 C 0 km/h
3083 19-08-2008 02:25:02 19.3 C 11.78 g/m*3 19.3 C 0 km/h
3084 19-08-2008 02:37:02 19.1 C 11.64 g/m*3 19.1 C 0 km/h
3085 19-08-2008 02:49:02 18.9 C 11.83 g/m*3 18.9 C 0 km/h
3086 19-08-2008 03:01:02 18.7 C 11.69 g/m*3 18.7 C 0 km/h
3087 19-08-2008 03:13:02 18.8 C 11.92 g/m*3 18.8 C 0 km/h
3088 19-08-2008 03:25:02 19 C 11.9 g/m*3 19 C 0 km/h
3089 19-08-2008 03:37:02 18.9 C 11.83 g/m*3 18.9 C 0 km/h
3090 19-08-2008 03:49:02 18.7 C 11.69 g/m*3 18.7 C 0 km/h
3091 19-08-2008 04:01:02 18.6 C 11.78 g/m*3 18.6 C 0 km/h
3092 19-08-2008 04:13:02 18.5 C 11.71 g/m*3 18.5 C 0 km/h
3093 19-08-2008 04:25:03 18.5 C 11.71 g/m*3 18.5 C 0 km/h
3094 19-08-2008 04:37:03 18.9 C 11.34 g/m*3 18.9 C 0 km/h
3095 19-08-2008 04:49:03 19.1 C 10.66 g/m*3 19.1 C 0 km/h
3096 19-08-2008 05:01:03 19.2 C 10.72 g/m*3 19.2 C 0 km/h
3097 19-08-2008 05:13:03 19 C 10.59 g/m*3 19 C 0 km/h
3098 19-08-2008 05:25:03 18.8 C 10.79 g/m*3 18.8 C 0 km/h
3099 19-08-2008 05:37:03 18.6 C 10.82 g/m*3 18.6 C 0 km/h
3100 19-08-2008 05:49:03 18.3 C 10.79 g/m*3 18.3 C 0 km/h
Sensor: Nr:Datum:Temp:Abs-Feuchte:Windchill:Wind:
Aussen-T/F 3101 19-08-2008 06:01:03 18.3 C 10.79 g/m*3 18.3 C 0 km/h
3102 19-08-2008 06:13:03 18.3 C 10.32 g/m*3 18.3 C 0 km/h
3103 19-08-2008 06:25:03 18.5 C 9.97 g/m*3 18.5 C 0 km/h
3104 19-08-2008 06:37:03 18.7 C 9.77 g/m*3 18.7 C 0 km/h
3105 19-08-2008 06:49:03 18.5 C 9.65 g/m*3 18.5 C 0 km/h
3106 19-08-2008 07:01:02 18.5 C 9.49 g/m*3 18.5 C 0 km/h
3107 19-08-2008 07:13:02 18.4 C 9.59 g/m*3 18.4 C 0 km/h
3108 19-08-2008 07:25:02 18.2 C 9.64 g/m*3 18.2 C 0 km/h
3109 19-08-2008 07:37:02 18 C 9.68 g/m*3 18 C 0 km/h
3110 19-08-2008 07:49:02 18.5 C 9.49 g/m*3 18.5 C 0 km/h
3111 19-08-2008 08:01:03 19 C 9.29 g/m*3 19 C 0 km/h
3112 19-08-2008 08:13:03 19.4 C 8.84 g/m*3 19.4 C 0 km/h
3113 19-08-2008 08:25:02 19.5 C 8.89 g/m*3 19.5 C 0 km/h
3114 19-08-2008 08:37:02 19.7 C 8.83 g/m*3 19.7 C 0 km/h
3115 19-08-2008 08:49:02 19.9 C 8.59 g/m*3 19.9 C 0 km/h
3116 19-08-2008 09:01:02 20 C 8.47 g/m*3 20 C 0 km/h
3117 19-08-2008 09:13:02 20.2 C 8.57 g/m*3 20.2 C 0 km/h
3118 19-08-2008 09:25:02 20.1 C 8.52 g/m*3 20.1 C 0 km/h
3119 19-08-2008 09:37:02 20 C 8.47 g/m*3 20 C 0 km/h
3120 19-08-2008 09:49:02 20.2 C 8.74 g/m*3 20.2 C 0 km/h
3121 19-08-2008 10:01:02 20.3 C 8.62 g/m*3 20.3 C 0 km/h
3122 19-08-2008 10:13:02 20.7 C 8.82 g/m*3 20.7 C 0 km/h
3123 19-08-2008 10:25:02 21 C 8.61 g/m*3 21 C 0 km/h
3124 19-08-2008 10:37:02 20.8 C 8.87 g/m*3 20.8 C 0 km/h
3125 19-08-2008 10:49:02 21.2 C 8.9 g/m*3 21.2 C 0 km/h
Sensor: Nr:Datum:Temp:Abs-Feuchte:Windchill:Wind:
Aussen-T/F 3126 19-08-2008 11:01:02 21.3 C 8.95 g/m*3 21.3 C 0 km/h
3127 19-08-2008 11:13:02 21.6 C 8.91 g/m*3 21.6 C 0 km/h
3128 19-08-2008 11:25:02 21.5 C 8.86 g/m*3 21.5 C 0 km/h
3129 19-08-2008 11:37:02 22.2 C 8.83 g/m*3 22.2 C 0 km/h
3130 19-08-2008 11:49:02 21.9 C 8.68 g/m*3 21.9 C 0 km/h
3131 19-08-2008 12:01:03 22.6 C 8.84 g/m*3 22.6 C 0 km/h
3132 19-08-2008 12:13:03 22.7 C 8.49 g/m*3 22.7 C 0 km/h
3133 19-08-2008 12:25:02 22.5 C 8.39 g/m*3 22.5 C 0 km/h
3134 19-08-2008 12:37:03 22.7 C 8.28 g/m*3 22.7 C 0 km/h
3135 19-08-2008 12:49:02 22.8 C 8.13 g/m*3 22.8 C 0 km/h
3136 19-08-2008 13:01:01 23 C 8.02 g/m*3 23 C 0 km/h
3137 19-08-2008 13:13:01 23.5 C 8.04 g/m*3 23.5 C 0 km/h
3138 19-08-2008 13:25:02 23.9 C 8.22 g/m*3 23.9 C 0 km/h
3139 19-08-2008 13:37:01 23.7 C 7.91 g/m*3 23.7 C 0 km/h
3140 19-08-2008 13:49:02 23.7 C 8.13 g/m*3 23.7 C 0 km/h
3141 19-08-2008 14:01:01 24.3 C 7.97 g/m*3 24.3 C 0 km/h
3142 19-08-2008 14:13:01 24.5 C 7.83 g/m*3 24.5 C 0 km/h
3143 19-08-2008 14:25:02 24.2 C 7.7 g/m*3 24.2 C 0 km/h
3144 19-08-2008 14:37:01 23.6 C 7.87 g/m*3 23.6 C 0 km/h
3145 19-08-2008 14:49:02 23.1 C 7.86 g/m*3 23.1 C 0 km/h
3146 19-08-2008 15:01:01 23.1 C 7.86 g/m*3 23.1 C 0 km/h
3147 19-08-2008 15:13:01 23.9 C 8.22 g/m*3 23.9 C 0 km/h
3148 19-08-2008 15:25:02 24.1 C 7.88 g/m*3 24.1 C 0 km/h
3149 19-08-2008 15:37:01 24.5 C 8.06 g/m*3 24.5 C 0 km/h
3150 19-08-2008 15:49:01 24.4 C 8.01 g/m*3 24.4 C 0 km/h
Sensor: Nr:Datum:Temp:Abs-Feuchte:Windchill:Wind:
Aussen-T/F 3151 19-08-2008 16:01:01 23.6 C 8.08 g/m*3 23.6 C 0 km/h
3152 19-08-2008 16:13:01 23.5 C 8.25 g/m*3 23.5 C 0 km/h
3153 19-08-2008 16:25:02 23.6 C 8.08 g/m*3 23.6 C 0 km/h
3154 19-08-2008 16:37:01 24 C 7.83 g/m*3 24 C 0 km/h
3155 19-08-2008 16:49:01 24.1 C 7.88 g/m*3 24.1 C 0 km/h
3156 19-08-2008 17:01:01 23.9 C 8 g/m*3 23.9 C 0 km/h
3157 19-08-2008 17:13:01 23.6 C 8.08 g/m*3 23.6 C 0 km/h
3158 19-08-2008 17:25:01 23.5 C 8.25 g/m*3 23.5 C 0 km/h
3159 19-08-2008 17:37:01 23.2 C 8.32 g/m*3 23.2 C 0 km/h
3160 19-08-2008 17:49:01 22.8 C 8.33 g/m*3 22.8 C 0 km/h
3161 19-08-2008 18:01:02 22.9 C 8.79 g/m*3 22.9 C 0 km/h
3162 19-08-2008 18:13:02 22.8 C 8.53 g/m*3 22.8 C 0 km/h
3163 19-08-2008 18:25:01 22.6 C 8.44 g/m*3 22.6 C 0 km/h
3164 19-08-2008 18:37:02 22.5 C 8.59 g/m*3 22.5 C 0 km/h
3165 19-08-2008 18:49:02 22.3 C 8.49 g/m*3 22.3 C 0 km/h
3166 19-08-2008 19:01:02 22.2 C 8.64 g/m*3 22.2 C 0 km/h
3167 19-08-2008 19:13:02 21.8 C 8.83 g/m*3 21.8 C 0 km/h
3168 19-08-2008 19:25:02 21.5 C 8.86 g/m*3 21.5 C 0 km/h
3169 19-08-2008 19:37:02 21.4 C 9.19 g/m*3 21.4 C 0 km/h
3170 19-08-2008 19:49:01 21.3 C 9.32 g/m*3 21.3 C 0 km/h
3171 19-08-2008 20:01:01 21.3 C 9.32 g/m*3 21.3 C 0 km/h
3172 19-08-2008 20:13:01 21.5 C 9.24 g/m*3 21.5 C 0 km/h
3173 19-08-2008 20:25:01 21.2 C 9.27 g/m*3 21.2 C 0 km/h
3174 19-08-2008 20:37:02 20.8 C 9.42 g/m*3 20.8 C 0 km/h
3175 19-08-2008 20:49:02 20.4 C 9.38 g/m*3 20.4 C 0 km/h
Sensor: Nr:Datum:Temp:Abs-Feuchte:Windchill:Wind:
Aussen-T/F 3176 19-08-2008 21:01:02 20 C 9.33 g/m*3 20 C 0 km/h
3177 19-08-2008 21:13:02 19.8 C 9.39 g/m*3 19.8 C 0 km/h
3178 19-08-2008 21:25:02 19.5 C 9.4 g/m*3 19.5 C 0 km/h
3179 19-08-2008 21:37:02 19.4 C 9.51 g/m*3 19.4 C 0 km/h
3180 19-08-2008 21:50:02 19.2 C 9.56 g/m*3 19.2 C 0 km/h
3181 19-08-2008 22:02:02 19.1 C 9.51 g/m*3 19.1 C 0 km/h
3182 19-08-2008 22:14:02 19 C 9.61 g/m*3 19 C 0 km/h
3183 19-08-2008 22:26:02 18.9 C 9.72 g/m*3 18.9 C 0 km/h
3184 19-08-2008 22:38:02 18.9 C 9.72 g/m*3 18.9 C 0 km/h
3185 19-08-2008 22:50:02 18.9 C 9.72 g/m*3 18.9 C 0 km/h
3186 19-08-2008 23:02:02 18.8 C 9.82 g/m*3 18.8 C 0 km/h
3187 19-08-2008 23:14:02 18.5 C 9.81 g/m*3 18.5 C 0 km/h
3188 19-08-2008 23:26:02 18.6 C 9.87 g/m*3 18.6 C 0 km/h
3189 19-08-2008 23:38:03 18.3 C 10.01 g/m*3 18.3 C 0 km/h
3190 19-08-2008 23:50:03 17.8 C 10.47 g/m*3 17.8 C 0 km/h
3191 20-08-2008 00:02:03 17.7 C 10.41 g/m*3 17.7 C 0 km/h
3192 20-08-2008 00:14:03 18.1 C 10.2 g/m*3 18.1 C 0 km/h
3193 20-08-2008 00:26:03 18.2 C 10.1 g/m*3 18.2 C 0 km/h
3194 20-08-2008 00:38:03 18.1 C 10.2 g/m*3 18.1 C 0 km/h
3195 20-08-2008 00:50:03 17.9 C 10.69 g/m*3 17.9 C 0 km/h
3196 20-08-2008 01:02:03 17.8 C 10.62 g/m*3 17.8 C 0 km/h
3197 20-08-2008 01:14:03 18.1 C 10.35 g/m*3 18.1 C 0 km/h
3198 20-08-2008 01:26:03 17 C 11.29 g/m*3 17 C 0 km/h
3199 20-08-2008 01:38:03 16.7 C 11.65 g/m*3 16.7 C 0 km/h
3200 20-08-2008 01:50:03 16.6 C 11.72 g/m*3 16.6 C 0 km/h
Sensor: Nr:Datum:Temp:Abs-Feuchte:Windchill:Wind:
Aussen-T/F 3201 20-08-2008 02:02:03 16.8 C 11.72 g/m*3 16.8 C 0 km/h
3202 20-08-2008 02:14:03 16.8 C 11.44 g/m*3 16.8 C 0 km/h
3203 20-08-2008 02:26:03 16.9 C 11.36 g/m*3 16.9 C 0 km/h
3204 20-08-2008 02:38:03 16.7 C 11.23 g/m*3 16.7 C 0 km/h
3205 20-08-2008 02:50:03 16.7 C 11.08 g/m*3 16.7 C 0 km/h
3206 20-08-2008 03:02:03 16.7 C 10.94 g/m*3 16.7 C 0 km/h
3207 20-08-2008 03:14:03 16.6 C 10.74 g/m*3 16.6 C 0 km/h
3208 20-08-2008 03:26:04 16.5 C 10.67 g/m*3 16.5 C 0 km/h
3209 20-08-2008 03:38:04 16.4 C 10.75 g/m*3 16.4 C 0 km/h
3210 20-08-2008 03:50:04 16.3 C 10.82 g/m*3 16.3 C 0 km/h
3211 20-08-2008 04:02:04 16.5 C 10.81 g/m*3 16.5 C 0 km/h
3212 20-08-2008 04:14:04 16.6 C 10.74 g/m*3 16.6 C 0 km/h
3213 20-08-2008 04:26:04 16.5 C 10.67 g/m*3 16.5 C 0 km/h
3214 20-08-2008 04:38:04 16.4 C 10.61 g/m*3 16.4 C 0 km/h
3215 20-08-2008 04:50:04 16.3 C 10.54 g/m*3 16.3 C 0 km/h
3216 20-08-2008 05:02:04 16.4 C 10.61 g/m*3 16.4 C 0 km/h
3217 20-08-2008 05:14:04 16.4 C 10.61 g/m*3 16.4 C 0 km/h
3218 20-08-2008 05:26:04 16.2 C 10.48 g/m*3 16.2 C 0 km/h
3219 20-08-2008 05:38:04 16.2 C 10.48 g/m*3 16.2 C 0 km/h
3220 20-08-2008 05:50:04 16.1 C 10.28 g/m*3 16.1 C 0 km/h
3221 20-08-2008 06:02:04 16 C 10.22 g/m*3 16 C 0 km/h
3222 20-08-2008 06:14:04 16.1 C 10.42 g/m*3 16.1 C 0 km/h
3223 20-08-2008 06:26:04 16 C 10.35 g/m*3 16 C 0 km/h